<?xml version="1.0" encoding="UTF-8" standalone="no" ?>
<gpx xmlns="http://www.topografix.com/GPX/1/1" xmlns:xsi="http://www.w3.org/2001/XMLSchema-instance" xsi:schemaLocation="http://www.topografix.com/GPX/1/1 http://www.topografix.com/GPX/1/1/gpx.xsd" version="1.1" creator="VisuGPX - https://www.visugpx.com">
  <metadata>
    <name>Arbir0816</name>
    <desc><![CDATA[avec Erwann, Gauvain et Rudy]]></desc>
  </metadata>
  <trk>
    <name><![CDATA[Tracé actuel: 23 AOU 2016 11:30]]></name>
    <trkseg>
      <trkpt lat="47.58816" lon="-3.02565">
        <ele>11.19</ele>
        <time>2016-08-23T09:30:29Z</time>
      </trkpt>
      <trkpt lat="47.58824" lon="-3.02568">
        <ele>9.75</ele>
        <time>2016-08-23T09:30:43Z</time>
      </trkpt>
      <trkpt lat="47.58822" lon="-3.02573">
        <ele>9.75</ele>
        <time>2016-08-23T09:31:01Z</time>
      </trkpt>
      <trkpt lat="47.58824" lon="-3.02572">
        <ele>8.31</ele>
        <time>2016-08-23T09:31:17Z</time>
      </trkpt>
      <trkpt lat="47.58826" lon="-3.02568">
        <ele>8.31</ele>
        <time>2016-08-23T09:31:32Z</time>
      </trkpt>
      <trkpt lat="47.58825" lon="-3.02569">
        <ele>8.79</ele>
        <time>2016-08-23T09:31:59Z</time>
      </trkpt>
      <trkpt lat="47.58824" lon="-3.02569">
        <ele>8.31</ele>
        <time>2016-08-23T09:32:27Z</time>
      </trkpt>
      <trkpt lat="47.58823" lon="-3.02567">
        <ele>7.35</ele>
        <time>2016-08-23T09:32:54Z</time>
      </trkpt>
      <trkpt lat="47.58812" lon="-3.02558">
        <ele>7.35</ele>
        <time>2016-08-23T09:33:21Z</time>
      </trkpt>
      <trkpt lat="47.58813" lon="-3.02557">
        <ele>6.87</ele>
        <time>2016-08-23T09:33:49Z</time>
      </trkpt>
      <trkpt lat="47.58823" lon="-3.02533">
        <ele>7.35</ele>
        <time>2016-08-23T09:34:16Z</time>
      </trkpt>
      <trkpt lat="47.58828" lon="-3.02508">
        <ele>8.79</ele>
        <time>2016-08-23T09:34:35Z</time>
      </trkpt>
      <trkpt lat="47.58838" lon="-3.02467">
        <ele>7.83</ele>
        <time>2016-08-23T09:35:02Z</time>
      </trkpt>
      <trkpt lat="47.58828" lon="-3.02436">
        <ele>6.87</ele>
        <time>2016-08-23T09:35:25Z</time>
      </trkpt>
      <trkpt lat="47.58805" lon="-3.02415">
        <ele>5.91</ele>
        <time>2016-08-23T09:35:49Z</time>
      </trkpt>
      <trkpt lat="47.58772" lon="-3.02401">
        <ele>5.42</ele>
        <time>2016-08-23T09:36:16Z</time>
      </trkpt>
      <trkpt lat="47.58741" lon="-3.02384">
        <ele>4.94</ele>
        <time>2016-08-23T09:36:42Z</time>
      </trkpt>
      <trkpt lat="47.58708" lon="-3.02371">
        <ele>4.46</ele>
        <time>2016-08-23T09:37:08Z</time>
      </trkpt>
      <trkpt lat="47.58678" lon="-3.02357">
        <ele>3.98</ele>
        <time>2016-08-23T09:37:34Z</time>
      </trkpt>
      <trkpt lat="47.58649" lon="-3.02346">
        <ele>3.5</ele>
        <time>2016-08-23T09:37:58Z</time>
      </trkpt>
      <trkpt lat="47.58616" lon="-3.02327">
        <ele>3.5</ele>
        <time>2016-08-23T09:38:20Z</time>
      </trkpt>
      <trkpt lat="47.58584" lon="-3.02304">
        <ele>4.94</ele>
        <time>2016-08-23T09:38:45Z</time>
      </trkpt>
      <trkpt lat="47.58543" lon="-3.02275">
        <ele>2.54</ele>
        <time>2016-08-23T09:39:09Z</time>
      </trkpt>
      <trkpt lat="47.58507" lon="-3.02244">
        <ele>1.58</ele>
        <time>2016-08-23T09:39:30Z</time>
      </trkpt>
      <trkpt lat="47.58469" lon="-3.0222">
        <ele>3.5</ele>
        <time>2016-08-23T09:39:51Z</time>
      </trkpt>
      <trkpt lat="47.58421" lon="-3.02193">
        <ele>2.06</ele>
        <time>2016-08-23T09:40:17Z</time>
      </trkpt>
      <trkpt lat="47.58381" lon="-3.0215">
        <ele>2.54</ele>
        <time>2016-08-23T09:40:43Z</time>
      </trkpt>
      <trkpt lat="47.58353" lon="-3.02095">
        <ele>3.98</ele>
        <time>2016-08-23T09:41:08Z</time>
      </trkpt>
      <trkpt lat="47.58327" lon="-3.02036">
        <ele>4.94</ele>
        <time>2016-08-23T09:41:32Z</time>
      </trkpt>
      <trkpt lat="47.58296" lon="-3.01971">
        <ele>3.98</ele>
        <time>2016-08-23T09:42:00Z</time>
      </trkpt>
      <trkpt lat="47.58273" lon="-3.01919">
        <ele>2.54</ele>
        <time>2016-08-23T09:42:24Z</time>
      </trkpt>
      <trkpt lat="47.58252" lon="-3.0186">
        <ele>3.02</ele>
        <time>2016-08-23T09:42:49Z</time>
      </trkpt>
      <trkpt lat="47.58223" lon="-3.01802">
        <ele>-1.79</ele>
        <time>2016-08-23T09:43:15Z</time>
      </trkpt>
      <trkpt lat="47.58205" lon="-3.01761">
        <ele>-1.3</ele>
        <time>2016-08-23T09:43:35Z</time>
      </trkpt>
      <trkpt lat="47.58184" lon="-3.01728">
        <ele>1.1</ele>
        <time>2016-08-23T09:43:54Z</time>
      </trkpt>
      <trkpt lat="47.58156" lon="-3.01683">
        <ele>2.06</ele>
        <time>2016-08-23T09:44:18Z</time>
      </trkpt>
      <trkpt lat="47.58128" lon="-3.01647">
        <ele>2.06</ele>
        <time>2016-08-23T09:44:39Z</time>
      </trkpt>
      <trkpt lat="47.58087" lon="-3.01606">
        <ele>3.98</ele>
        <time>2016-08-23T09:45:07Z</time>
      </trkpt>
      <trkpt lat="47.58044" lon="-3.01564">
        <ele>3.02</ele>
        <time>2016-08-23T09:45:36Z</time>
      </trkpt>
      <trkpt lat="47.58011" lon="-3.01539">
        <ele>2.06</ele>
        <time>2016-08-23T09:45:57Z</time>
      </trkpt>
      <trkpt lat="47.57975" lon="-3.01512">
        <ele>3.02</ele>
        <time>2016-08-23T09:46:20Z</time>
      </trkpt>
      <trkpt lat="47.5793" lon="-3.0149">
        <ele>3.02</ele>
        <time>2016-08-23T09:46:45Z</time>
      </trkpt>
      <trkpt lat="47.57887" lon="-3.01471">
        <ele>4.46</ele>
        <time>2016-08-23T09:47:10Z</time>
      </trkpt>
      <trkpt lat="47.57846" lon="-3.01443">
        <ele>3.98</ele>
        <time>2016-08-23T09:47:35Z</time>
      </trkpt>
      <trkpt lat="47.57811" lon="-3.01431">
        <ele>3.02</ele>
        <time>2016-08-23T09:47:56Z</time>
      </trkpt>
      <trkpt lat="47.57761" lon="-3.01417">
        <ele>2.06</ele>
        <time>2016-08-23T09:48:25Z</time>
      </trkpt>
      <trkpt lat="47.5772" lon="-3.01408">
        <ele>1.1</ele>
        <time>2016-08-23T09:48:48Z</time>
      </trkpt>
      <trkpt lat="47.5768" lon="-3.01402">
        <ele>1.1</ele>
        <time>2016-08-23T09:49:10Z</time>
      </trkpt>
      <trkpt lat="47.57629" lon="-3.01402">
        <ele>1.1</ele>
        <time>2016-08-23T09:49:37Z</time>
      </trkpt>
      <trkpt lat="47.57584" lon="-3.01404">
        <ele>1.1</ele>
        <time>2016-08-23T09:50:01Z</time>
      </trkpt>
      <trkpt lat="47.57538" lon="-3.01405">
        <ele>1.1</ele>
        <time>2016-08-23T09:50:27Z</time>
      </trkpt>
      <trkpt lat="47.57494" lon="-3.01415">
        <ele>0.62</ele>
        <time>2016-08-23T09:50:52Z</time>
      </trkpt>
      <trkpt lat="47.57461" lon="-3.01412">
        <ele>0.62</ele>
        <time>2016-08-23T09:51:12Z</time>
      </trkpt>
      <trkpt lat="47.57427" lon="-3.01394">
        <ele>1.58</ele>
        <time>2016-08-23T09:51:34Z</time>
      </trkpt>
      <trkpt lat="47.57387" lon="-3.01371">
        <ele>1.58</ele>
        <time>2016-08-23T09:52:00Z</time>
      </trkpt>
      <trkpt lat="47.57352" lon="-3.01353">
        <ele>0.62</ele>
        <time>2016-08-23T09:52:23Z</time>
      </trkpt>
      <trkpt lat="47.57318" lon="-3.01323">
        <ele>1.1</ele>
        <time>2016-08-23T09:52:46Z</time>
      </trkpt>
      <trkpt lat="47.57278" lon="-3.01298">
        <ele>1.58</ele>
        <time>2016-08-23T09:53:11Z</time>
      </trkpt>
      <trkpt lat="47.57239" lon="-3.01285">
        <ele>2.06</ele>
        <time>2016-08-23T09:53:35Z</time>
      </trkpt>
      <trkpt lat="47.57197" lon="-3.01282">
        <ele>0.62</ele>
        <time>2016-08-23T09:54:00Z</time>
      </trkpt>
      <trkpt lat="47.57152" lon="-3.01283">
        <ele>0.62</ele>
        <time>2016-08-23T09:54:26Z</time>
      </trkpt>
      <trkpt lat="47.57115" lon="-3.01259">
        <ele>2.06</ele>
        <time>2016-08-23T09:54:50Z</time>
      </trkpt>
      <trkpt lat="47.5708" lon="-3.01231">
        <ele>1.58</ele>
        <time>2016-08-23T09:55:15Z</time>
      </trkpt>
      <trkpt lat="47.5706" lon="-3.01192">
        <ele>0.62</ele>
        <time>2016-08-23T09:55:37Z</time>
      </trkpt>
      <trkpt lat="47.57035" lon="-3.01153">
        <ele>1.58</ele>
        <time>2016-08-23T09:55:59Z</time>
      </trkpt>
      <trkpt lat="47.57008" lon="-3.01108">
        <ele>2.06</ele>
        <time>2016-08-23T09:56:24Z</time>
      </trkpt>
      <trkpt lat="47.56995" lon="-3.01076">
        <ele>1.1</ele>
        <time>2016-08-23T09:56:41Z</time>
      </trkpt>
      <trkpt lat="47.56977" lon="-3.01043">
        <ele>0.14</ele>
        <time>2016-08-23T09:57:00Z</time>
      </trkpt>
      <trkpt lat="47.56949" lon="-3.01011">
        <ele>1.58</ele>
        <time>2016-08-23T09:57:22Z</time>
      </trkpt>
      <trkpt lat="47.56921" lon="-3.00989">
        <ele>1.1</ele>
        <time>2016-08-23T09:57:41Z</time>
      </trkpt>
      <trkpt lat="47.56903" lon="-3.00976">
        <ele>1.1</ele>
        <time>2016-08-23T09:58:00Z</time>
      </trkpt>
      <trkpt lat="47.56895" lon="-3.00965">
        <ele>1.1</ele>
        <time>2016-08-23T09:58:20Z</time>
      </trkpt>
      <trkpt lat="47.56901" lon="-3.00955">
        <ele>1.58</ele>
        <time>2016-08-23T09:58:36Z</time>
      </trkpt>
      <trkpt lat="47.56909" lon="-3.00949">
        <ele>0.14</ele>
        <time>2016-08-23T09:58:50Z</time>
      </trkpt>
      <trkpt lat="47.56913" lon="-3.0093">
        <ele>0.14</ele>
        <time>2016-08-23T09:59:03Z</time>
      </trkpt>
      <trkpt lat="47.56901" lon="-3.00915">
        <ele>0.62</ele>
        <time>2016-08-23T09:59:23Z</time>
      </trkpt>
      <trkpt lat="47.56899" lon="-3.00915">
        <ele>0.62</ele>
        <time>2016-08-23T09:59:25Z</time>
      </trkpt>
      <trkpt lat="47.56879" lon="-3.00905">
        <ele>-0.34</ele>
        <time>2016-08-23T09:59:46Z</time>
      </trkpt>
      <trkpt lat="47.56875" lon="-3.00904">
        <ele>-0.34</ele>
        <time>2016-08-23T09:59:51Z</time>
      </trkpt>
      <trkpt lat="47.56852" lon="-3.00901">
        <ele>-1.3</ele>
        <time>2016-08-23T10:00:09Z</time>
      </trkpt>
      <trkpt lat="47.56821" lon="-3.00891">
        <ele>-1.3</ele>
        <time>2016-08-23T10:00:29Z</time>
      </trkpt>
      <trkpt lat="47.56792" lon="-3.00879">
        <ele>-1.3</ele>
        <time>2016-08-23T10:00:49Z</time>
      </trkpt>
      <trkpt lat="47.56762" lon="-3.00868">
        <ele>-0.34</ele>
        <time>2016-08-23T10:01:11Z</time>
      </trkpt>
      <trkpt lat="47.56726" lon="-3.00862">
        <ele>-1.3</ele>
        <time>2016-08-23T10:01:34Z</time>
      </trkpt>
      <trkpt lat="47.56688" lon="-3.00855">
        <ele>-1.3</ele>
        <time>2016-08-23T10:01:57Z</time>
      </trkpt>
      <trkpt lat="47.56652" lon="-3.00848">
        <ele>-0.34</ele>
        <time>2016-08-23T10:02:19Z</time>
      </trkpt>
      <trkpt lat="47.56623" lon="-3.00839">
        <ele>0.62</ele>
        <time>2016-08-23T10:02:38Z</time>
      </trkpt>
      <trkpt lat="47.56599" lon="-3.00825">
        <ele>-0.34</ele>
        <time>2016-08-23T10:02:55Z</time>
      </trkpt>
      <trkpt lat="47.56575" lon="-3.00812">
        <ele>-0.34</ele>
        <time>2016-08-23T10:03:14Z</time>
      </trkpt>
      <trkpt lat="47.56544" lon="-3.00798">
        <ele>-0.82</ele>
        <time>2016-08-23T10:03:36Z</time>
      </trkpt>
      <trkpt lat="47.56523" lon="-3.00793">
        <ele>-0.82</ele>
        <time>2016-08-23T10:03:53Z</time>
      </trkpt>
      <trkpt lat="47.56493" lon="-3.0078">
        <ele>0.14</ele>
        <time>2016-08-23T10:04:15Z</time>
      </trkpt>
      <trkpt lat="47.56472" lon="-3.00767">
        <ele>-0.34</ele>
        <time>2016-08-23T10:04:33Z</time>
      </trkpt>
      <trkpt lat="47.56467" lon="-3.00766">
        <ele>-0.82</ele>
        <time>2016-08-23T10:04:37Z</time>
      </trkpt>
      <trkpt lat="47.5644" lon="-3.00758">
        <ele>-0.34</ele>
        <time>2016-08-23T10:04:58Z</time>
      </trkpt>
      <trkpt lat="47.56413" lon="-3.00752">
        <ele>-0.34</ele>
        <time>2016-08-23T10:05:18Z</time>
      </trkpt>
      <trkpt lat="47.56381" lon="-3.00744">
        <ele>-1.3</ele>
        <time>2016-08-23T10:05:42Z</time>
      </trkpt>
      <trkpt lat="47.56351" lon="-3.00741">
        <ele>-2.27</ele>
        <time>2016-08-23T10:06:02Z</time>
      </trkpt>
      <trkpt lat="47.56323" lon="-3.00735">
        <ele>-1.79</ele>
        <time>2016-08-23T10:06:21Z</time>
      </trkpt>
      <trkpt lat="47.56291" lon="-3.00738">
        <ele>-1.79</ele>
        <time>2016-08-23T10:06:43Z</time>
      </trkpt>
      <trkpt lat="47.56251" lon="-3.0075">
        <ele>-0.82</ele>
        <time>2016-08-23T10:07:04Z</time>
      </trkpt>
      <trkpt lat="47.56213" lon="-3.00768">
        <ele>-0.34</ele>
        <time>2016-08-23T10:07:22Z</time>
      </trkpt>
      <trkpt lat="47.56168" lon="-3.00778">
        <ele>-2.75</ele>
        <time>2016-08-23T10:07:40Z</time>
      </trkpt>
      <trkpt lat="47.56127" lon="-3.00771">
        <ele>-2.75</ele>
        <time>2016-08-23T10:07:57Z</time>
      </trkpt>
      <trkpt lat="47.56085" lon="-3.00753">
        <ele>-2.75</ele>
        <time>2016-08-23T10:08:17Z</time>
      </trkpt>
      <trkpt lat="47.56046" lon="-3.00746">
        <ele>-2.75</ele>
        <time>2016-08-23T10:08:38Z</time>
      </trkpt>
      <trkpt lat="47.55994" lon="-3.0074">
        <ele>-3.71</ele>
        <time>2016-08-23T10:09:01Z</time>
      </trkpt>
      <trkpt lat="47.55955" lon="-3.00736">
        <ele>-2.27</ele>
        <time>2016-08-23T10:09:21Z</time>
      </trkpt>
      <trkpt lat="47.55921" lon="-3.00732">
        <ele>-2.27</ele>
        <time>2016-08-23T10:09:37Z</time>
      </trkpt>
      <trkpt lat="47.55881" lon="-3.00721">
        <ele>-1.79</ele>
        <time>2016-08-23T10:09:54Z</time>
      </trkpt>
      <trkpt lat="47.55842" lon="-3.00718">
        <ele>-2.75</ele>
        <time>2016-08-23T10:10:10Z</time>
      </trkpt>
      <trkpt lat="47.558" lon="-3.00717">
        <ele>-2.27</ele>
        <time>2016-08-23T10:10:27Z</time>
      </trkpt>
      <trkpt lat="47.55764" lon="-3.00742">
        <ele>-1.79</ele>
        <time>2016-08-23T10:10:43Z</time>
      </trkpt>
      <trkpt lat="47.55722" lon="-3.00753">
        <ele>-2.27</ele>
        <time>2016-08-23T10:11:01Z</time>
      </trkpt>
      <trkpt lat="47.55681" lon="-3.00741">
        <ele>-2.75</ele>
        <time>2016-08-23T10:11:18Z</time>
      </trkpt>
      <trkpt lat="47.55638" lon="-3.00728">
        <ele>-1.79</ele>
        <time>2016-08-23T10:11:38Z</time>
      </trkpt>
      <trkpt lat="47.55594" lon="-3.00714">
        <ele>-2.27</ele>
        <time>2016-08-23T10:11:59Z</time>
      </trkpt>
      <trkpt lat="47.55556" lon="-3.00701">
        <ele>-2.27</ele>
        <time>2016-08-23T10:12:19Z</time>
      </trkpt>
      <trkpt lat="47.55507" lon="-3.00691">
        <ele>-2.75</ele>
        <time>2016-08-23T10:12:41Z</time>
      </trkpt>
      <trkpt lat="47.55458" lon="-3.00682">
        <ele>-3.23</ele>
        <time>2016-08-23T10:13:04Z</time>
      </trkpt>
      <trkpt lat="47.55413" lon="-3.00676">
        <ele>-2.75</ele>
        <time>2016-08-23T10:13:24Z</time>
      </trkpt>
      <trkpt lat="47.55363" lon="-3.00666">
        <ele>-3.23</ele>
        <time>2016-08-23T10:13:47Z</time>
      </trkpt>
      <trkpt lat="47.55317" lon="-3.00664">
        <ele>-2.75</ele>
        <time>2016-08-23T10:14:08Z</time>
      </trkpt>
      <trkpt lat="47.55273" lon="-3.00667">
        <ele>-2.27</ele>
        <time>2016-08-23T10:14:26Z</time>
      </trkpt>
      <trkpt lat="47.55231" lon="-3.00658">
        <ele>-1.79</ele>
        <time>2016-08-23T10:14:43Z</time>
      </trkpt>
      <trkpt lat="47.55183" lon="-3.00656">
        <ele>-2.27</ele>
        <time>2016-08-23T10:15:03Z</time>
      </trkpt>
      <trkpt lat="47.55132" lon="-3.00658">
        <ele>-1.3</ele>
        <time>2016-08-23T10:15:23Z</time>
      </trkpt>
      <trkpt lat="47.55073" lon="-3.00645">
        <ele>-1.79</ele>
        <time>2016-08-23T10:15:47Z</time>
      </trkpt>
      <trkpt lat="47.55025" lon="-3.00631">
        <ele>-1.79</ele>
        <time>2016-08-23T10:16:08Z</time>
      </trkpt>
      <trkpt lat="47.54973" lon="-3.00621">
        <ele>-0.34</ele>
        <time>2016-08-23T10:16:30Z</time>
      </trkpt>
      <trkpt lat="47.54932" lon="-3.00613">
        <ele>-1.3</ele>
        <time>2016-08-23T10:16:48Z</time>
      </trkpt>
      <trkpt lat="47.54888" lon="-3.0061">
        <ele>-1.3</ele>
        <time>2016-08-23T10:17:06Z</time>
      </trkpt>
      <trkpt lat="47.54855" lon="-3.00608">
        <ele>-1.3</ele>
        <time>2016-08-23T10:17:20Z</time>
      </trkpt>
      <trkpt lat="47.54821" lon="-3.00606">
        <ele>-1.79</ele>
        <time>2016-08-23T10:17:34Z</time>
      </trkpt>
      <trkpt lat="47.54781" lon="-3.00601">
        <ele>-1.3</ele>
        <time>2016-08-23T10:17:50Z</time>
      </trkpt>
      <trkpt lat="47.54741" lon="-3.00595">
        <ele>-2.75</ele>
        <time>2016-08-23T10:18:06Z</time>
      </trkpt>
      <trkpt lat="47.54696" lon="-3.00584">
        <ele>-2.27</ele>
        <time>2016-08-23T10:18:24Z</time>
      </trkpt>
      <trkpt lat="47.54649" lon="-3.00574">
        <ele>-1.3</ele>
        <time>2016-08-23T10:18:43Z</time>
      </trkpt>
      <trkpt lat="47.54607" lon="-3.00566">
        <ele>-1.3</ele>
        <time>2016-08-23T10:19:00Z</time>
      </trkpt>
      <trkpt lat="47.54573" lon="-3.00559">
        <ele>-2.75</ele>
        <time>2016-08-23T10:19:14Z</time>
      </trkpt>
      <trkpt lat="47.54533" lon="-3.00552">
        <ele>-3.23</ele>
        <time>2016-08-23T10:19:30Z</time>
      </trkpt>
      <trkpt lat="47.54485" lon="-3.0054">
        <ele>-3.23</ele>
        <time>2016-08-23T10:19:50Z</time>
      </trkpt>
      <trkpt lat="47.54452" lon="-3.00531">
        <ele>-2.75</ele>
        <time>2016-08-23T10:20:04Z</time>
      </trkpt>
      <trkpt lat="47.54401" lon="-3.00517">
        <ele>-2.27</ele>
        <time>2016-08-23T10:20:25Z</time>
      </trkpt>
      <trkpt lat="47.54356" lon="-3.00506">
        <ele>-2.75</ele>
        <time>2016-08-23T10:20:44Z</time>
      </trkpt>
      <trkpt lat="47.54306" lon="-3.00491">
        <ele>-2.27</ele>
        <time>2016-08-23T10:21:04Z</time>
      </trkpt>
      <trkpt lat="47.54268" lon="-3.00479">
        <ele>-2.75</ele>
        <time>2016-08-23T10:21:20Z</time>
      </trkpt>
      <trkpt lat="47.5423" lon="-3.00466">
        <ele>-2.75</ele>
        <time>2016-08-23T10:21:36Z</time>
      </trkpt>
      <trkpt lat="47.54192" lon="-3.00452">
        <ele>-3.71</ele>
        <time>2016-08-23T10:21:53Z</time>
      </trkpt>
      <trkpt lat="47.54149" lon="-3.00444">
        <ele>-1.79</ele>
        <time>2016-08-23T10:22:11Z</time>
      </trkpt>
      <trkpt lat="47.54114" lon="-3.00437">
        <ele>-2.27</ele>
        <time>2016-08-23T10:22:25Z</time>
      </trkpt>
      <trkpt lat="47.54084" lon="-3.0043">
        <ele>-2.75</ele>
        <time>2016-08-23T10:22:38Z</time>
      </trkpt>
      <trkpt lat="47.54045" lon="-3.00421">
        <ele>-3.23</ele>
        <time>2016-08-23T10:22:54Z</time>
      </trkpt>
      <trkpt lat="47.54018" lon="-3.00413">
        <ele>-3.23</ele>
        <time>2016-08-23T10:23:06Z</time>
      </trkpt>
      <trkpt lat="47.53977" lon="-3.00399">
        <ele>-3.23</ele>
        <time>2016-08-23T10:23:23Z</time>
      </trkpt>
      <trkpt lat="47.53931" lon="-3.00386">
        <ele>-2.75</ele>
        <time>2016-08-23T10:23:41Z</time>
      </trkpt>
      <trkpt lat="47.53873" lon="-3.00369">
        <ele>-2.75</ele>
        <time>2016-08-23T10:24:04Z</time>
      </trkpt>
      <trkpt lat="47.53824" lon="-3.00352">
        <ele>-2.75</ele>
        <time>2016-08-23T10:24:24Z</time>
      </trkpt>
      <trkpt lat="47.53778" lon="-3.0034">
        <ele>-3.23</ele>
        <time>2016-08-23T10:24:42Z</time>
      </trkpt>
      <trkpt lat="47.53734" lon="-3.00328">
        <ele>-2.75</ele>
        <time>2016-08-23T10:25:00Z</time>
      </trkpt>
      <trkpt lat="47.53692" lon="-3.00315">
        <ele>-2.75</ele>
        <time>2016-08-23T10:25:17Z</time>
      </trkpt>
      <trkpt lat="47.53654" lon="-3.00304">
        <ele>-3.71</ele>
        <time>2016-08-23T10:25:33Z</time>
      </trkpt>
      <trkpt lat="47.53612" lon="-3.00292">
        <ele>-3.71</ele>
        <time>2016-08-23T10:25:50Z</time>
      </trkpt>
      <trkpt lat="47.53574" lon="-3.00279">
        <ele>-4.67</ele>
        <time>2016-08-23T10:26:06Z</time>
      </trkpt>
      <trkpt lat="47.53533" lon="-3.00266">
        <ele>-4.19</ele>
        <time>2016-08-23T10:26:23Z</time>
      </trkpt>
      <trkpt lat="47.53499" lon="-3.00257">
        <ele>-4.19</ele>
        <time>2016-08-23T10:26:37Z</time>
      </trkpt>
      <trkpt lat="47.53464" lon="-3.00245">
        <ele>-3.23</ele>
        <time>2016-08-23T10:26:52Z</time>
      </trkpt>
      <trkpt lat="47.53415" lon="-3.00227">
        <ele>-3.23</ele>
        <time>2016-08-23T10:27:13Z</time>
      </trkpt>
      <trkpt lat="47.53377" lon="-3.00211">
        <ele>-2.75</ele>
        <time>2016-08-23T10:27:30Z</time>
      </trkpt>
      <trkpt lat="47.53336" lon="-3.00197">
        <ele>-2.27</ele>
        <time>2016-08-23T10:27:48Z</time>
      </trkpt>
      <trkpt lat="47.53291" lon="-3.00182">
        <ele>-2.27</ele>
        <time>2016-08-23T10:28:08Z</time>
      </trkpt>
      <trkpt lat="47.53257" lon="-3.00172">
        <ele>-1.3</ele>
        <time>2016-08-23T10:28:23Z</time>
      </trkpt>
      <trkpt lat="47.53218" lon="-3.00161">
        <ele>-0.82</ele>
        <time>2016-08-23T10:28:41Z</time>
      </trkpt>
      <trkpt lat="47.53174" lon="-3.0015">
        <ele>-0.82</ele>
        <time>2016-08-23T10:29:01Z</time>
      </trkpt>
      <trkpt lat="47.53138" lon="-3.0014">
        <ele>-0.34</ele>
        <time>2016-08-23T10:29:18Z</time>
      </trkpt>
      <trkpt lat="47.53115" lon="-3.00134">
        <ele>-0.34</ele>
        <time>2016-08-23T10:29:30Z</time>
      </trkpt>
      <trkpt lat="47.53085" lon="-3.00125">
        <ele>-0.34</ele>
        <time>2016-08-23T10:29:46Z</time>
      </trkpt>
      <trkpt lat="47.53054" lon="-3.00119">
        <ele>0.62</ele>
        <time>2016-08-23T10:30:02Z</time>
      </trkpt>
      <trkpt lat="47.53028" lon="-3.00118">
        <ele>1.58</ele>
        <time>2016-08-23T10:30:16Z</time>
      </trkpt>
      <trkpt lat="47.53001" lon="-3.00124">
        <ele>1.1</ele>
        <time>2016-08-23T10:30:33Z</time>
      </trkpt>
      <trkpt lat="47.52978" lon="-3.00123">
        <ele>1.1</ele>
        <time>2016-08-23T10:30:50Z</time>
      </trkpt>
      <trkpt lat="47.52958" lon="-3.00128">
        <ele>1.1</ele>
        <time>2016-08-23T10:31:08Z</time>
      </trkpt>
      <trkpt lat="47.5294" lon="-3.00131">
        <ele>1.1</ele>
        <time>2016-08-23T10:31:24Z</time>
      </trkpt>
      <trkpt lat="47.52918" lon="-3.00134">
        <ele>2.06</ele>
        <time>2016-08-23T10:31:44Z</time>
      </trkpt>
      <trkpt lat="47.52899" lon="-3.00136">
        <ele>1.58</ele>
        <time>2016-08-23T10:32:03Z</time>
      </trkpt>
      <trkpt lat="47.52882" lon="-3.00141">
        <ele>0.14</ele>
        <time>2016-08-23T10:32:20Z</time>
      </trkpt>
      <trkpt lat="47.52863" lon="-3.00146">
        <ele>-0.82</ele>
        <time>2016-08-23T10:32:40Z</time>
      </trkpt>
      <trkpt lat="47.52847" lon="-3.00149">
        <ele>-1.3</ele>
        <time>2016-08-23T10:32:58Z</time>
      </trkpt>
      <trkpt lat="47.52834" lon="-3.00154">
        <ele>-2.27</ele>
        <time>2016-08-23T10:33:14Z</time>
      </trkpt>
      <trkpt lat="47.52821" lon="-3.00157">
        <ele>-3.23</ele>
        <time>2016-08-23T10:33:32Z</time>
      </trkpt>
      <trkpt lat="47.52809" lon="-3.00159">
        <ele>-2.75</ele>
        <time>2016-08-23T10:33:48Z</time>
      </trkpt>
      <trkpt lat="47.52796" lon="-3.00163">
        <ele>-1.79</ele>
        <time>2016-08-23T10:34:03Z</time>
      </trkpt>
      <trkpt lat="47.5278" lon="-3.00169">
        <ele>-2.75</ele>
        <time>2016-08-23T10:34:21Z</time>
      </trkpt>
      <trkpt lat="47.52763" lon="-3.00172">
        <ele>-2.75</ele>
        <time>2016-08-23T10:34:41Z</time>
      </trkpt>
      <trkpt lat="47.5275" lon="-3.00175">
        <ele>-3.71</ele>
        <time>2016-08-23T10:34:58Z</time>
      </trkpt>
      <trkpt lat="47.52735" lon="-3.00176">
        <ele>-3.23</ele>
        <time>2016-08-23T10:35:17Z</time>
      </trkpt>
      <trkpt lat="47.52722" lon="-3.00178">
        <ele>-2.27</ele>
        <time>2016-08-23T10:35:34Z</time>
      </trkpt>
      <trkpt lat="47.52712" lon="-3.0018">
        <ele>-1.79</ele>
        <time>2016-08-23T10:35:51Z</time>
      </trkpt>
      <trkpt lat="47.527" lon="-3.00184">
        <ele>-3.23</ele>
        <time>2016-08-23T10:36:11Z</time>
      </trkpt>
      <trkpt lat="47.52684" lon="-3.00187">
        <ele>-2.75</ele>
        <time>2016-08-23T10:36:33Z</time>
      </trkpt>
      <trkpt lat="47.52671" lon="-3.00189">
        <ele>-2.27</ele>
        <time>2016-08-23T10:36:52Z</time>
      </trkpt>
      <trkpt lat="47.52662" lon="-3.00193">
        <ele>-2.27</ele>
        <time>2016-08-23T10:37:09Z</time>
      </trkpt>
      <trkpt lat="47.52653" lon="-3.00196">
        <ele>-2.75</ele>
        <time>2016-08-23T10:37:26Z</time>
      </trkpt>
      <trkpt lat="47.52641" lon="-3.002">
        <ele>-1.3</ele>
        <time>2016-08-23T10:37:45Z</time>
      </trkpt>
      <trkpt lat="47.52628" lon="-3.00204">
        <ele>-0.82</ele>
        <time>2016-08-23T10:38:03Z</time>
      </trkpt>
      <trkpt lat="47.52617" lon="-3.0021">
        <ele>-1.3</ele>
        <time>2016-08-23T10:38:19Z</time>
      </trkpt>
      <trkpt lat="47.52602" lon="-3.00219">
        <ele>-1.79</ele>
        <time>2016-08-23T10:38:38Z</time>
      </trkpt>
      <trkpt lat="47.52587" lon="-3.00222">
        <ele>-1.79</ele>
        <time>2016-08-23T10:38:56Z</time>
      </trkpt>
      <trkpt lat="47.52572" lon="-3.00225">
        <ele>-1.3</ele>
        <time>2016-08-23T10:39:11Z</time>
      </trkpt>
      <trkpt lat="47.52552" lon="-3.00229">
        <ele>-0.34</ele>
        <time>2016-08-23T10:39:31Z</time>
      </trkpt>
      <trkpt lat="47.52531" lon="-3.00232">
        <ele>-0.34</ele>
        <time>2016-08-23T10:39:52Z</time>
      </trkpt>
      <trkpt lat="47.5251" lon="-3.00234">
        <ele>0.62</ele>
        <time>2016-08-23T10:40:11Z</time>
      </trkpt>
      <trkpt lat="47.52488" lon="-3.00235">
        <ele>1.1</ele>
        <time>2016-08-23T10:40:31Z</time>
      </trkpt>
      <trkpt lat="47.52471" lon="-3.00238">
        <ele>1.58</ele>
        <time>2016-08-23T10:40:45Z</time>
      </trkpt>
      <trkpt lat="47.5245" lon="-3.00237">
        <ele>1.58</ele>
        <time>2016-08-23T10:41:02Z</time>
      </trkpt>
      <trkpt lat="47.52422" lon="-3.00234">
        <ele>2.06</ele>
        <time>2016-08-23T10:41:22Z</time>
      </trkpt>
      <trkpt lat="47.52396" lon="-3.00234">
        <ele>2.06</ele>
        <time>2016-08-23T10:41:40Z</time>
      </trkpt>
      <trkpt lat="47.52367" lon="-3.00234">
        <ele>1.58</ele>
        <time>2016-08-23T10:42:00Z</time>
      </trkpt>
      <trkpt lat="47.52336" lon="-3.00239">
        <ele>1.58</ele>
        <time>2016-08-23T10:42:18Z</time>
      </trkpt>
      <trkpt lat="47.52307" lon="-3.00242">
        <ele>1.1</ele>
        <time>2016-08-23T10:42:34Z</time>
      </trkpt>
      <trkpt lat="47.52278" lon="-3.00242">
        <ele>1.58</ele>
        <time>2016-08-23T10:42:50Z</time>
      </trkpt>
      <trkpt lat="47.52249" lon="-3.00242">
        <ele>1.1</ele>
        <time>2016-08-23T10:43:06Z</time>
      </trkpt>
      <trkpt lat="47.52219" lon="-3.00259">
        <ele>0.62</ele>
        <time>2016-08-23T10:43:26Z</time>
      </trkpt>
      <trkpt lat="47.52205" lon="-3.00297">
        <ele>1.1</ele>
        <time>2016-08-23T10:43:43Z</time>
      </trkpt>
      <trkpt lat="47.52195" lon="-3.00333">
        <ele>1.58</ele>
        <time>2016-08-23T10:44:02Z</time>
      </trkpt>
      <trkpt lat="47.52187" lon="-3.00363">
        <ele>0.62</ele>
        <time>2016-08-23T10:44:19Z</time>
      </trkpt>
      <trkpt lat="47.52182" lon="-3.00389">
        <ele>0.62</ele>
        <time>2016-08-23T10:44:33Z</time>
      </trkpt>
      <trkpt lat="47.52165" lon="-3.00405">
        <ele>-0.34</ele>
        <time>2016-08-23T10:44:47Z</time>
      </trkpt>
      <trkpt lat="47.52139" lon="-3.00416">
        <ele>-0.82</ele>
        <time>2016-08-23T10:45:05Z</time>
      </trkpt>
      <trkpt lat="47.52103" lon="-3.0044">
        <ele>-0.82</ele>
        <time>2016-08-23T10:45:22Z</time>
      </trkpt>
      <trkpt lat="47.52056" lon="-3.00477">
        <ele>-2.27</ele>
        <time>2016-08-23T10:45:42Z</time>
      </trkpt>
      <trkpt lat="47.52014" lon="-3.00505">
        <ele>-2.75</ele>
        <time>2016-08-23T10:46:00Z</time>
      </trkpt>
      <trkpt lat="47.51979" lon="-3.00525">
        <ele>-1.79</ele>
        <time>2016-08-23T10:46:18Z</time>
      </trkpt>
      <trkpt lat="47.51964" lon="-3.00569">
        <ele>-1.79</ele>
        <time>2016-08-23T10:46:33Z</time>
      </trkpt>
      <trkpt lat="47.51953" lon="-3.00617">
        <ele>-1.3</ele>
        <time>2016-08-23T10:46:54Z</time>
      </trkpt>
      <trkpt lat="47.51935" lon="-3.00641">
        <ele>-0.34</ele>
        <time>2016-08-23T10:47:11Z</time>
      </trkpt>
      <trkpt lat="47.51916" lon="-3.00653">
        <ele>-0.34</ele>
        <time>2016-08-23T10:47:25Z</time>
      </trkpt>
      <trkpt lat="47.51889" lon="-3.00651">
        <ele>1.1</ele>
        <time>2016-08-23T10:47:42Z</time>
      </trkpt>
      <trkpt lat="47.51866" lon="-3.00645">
        <ele>1.58</ele>
        <time>2016-08-23T10:47:59Z</time>
      </trkpt>
      <trkpt lat="47.5184" lon="-3.00648">
        <ele>1.58</ele>
        <time>2016-08-23T10:48:16Z</time>
      </trkpt>
      <trkpt lat="47.51805" lon="-3.00652">
        <ele>0.62</ele>
        <time>2016-08-23T10:48:33Z</time>
      </trkpt>
      <trkpt lat="47.51765" lon="-3.00654">
        <ele>0.14</ele>
        <time>2016-08-23T10:48:50Z</time>
      </trkpt>
      <trkpt lat="47.51732" lon="-3.00655">
        <ele>1.1</ele>
        <time>2016-08-23T10:49:04Z</time>
      </trkpt>
      <trkpt lat="47.51688" lon="-3.00662">
        <ele>0.62</ele>
        <time>2016-08-23T10:49:21Z</time>
      </trkpt>
      <trkpt lat="47.51644" lon="-3.00671">
        <ele>-1.3</ele>
        <time>2016-08-23T10:49:38Z</time>
      </trkpt>
      <trkpt lat="47.51609" lon="-3.00675">
        <ele>-1.79</ele>
        <time>2016-08-23T10:49:52Z</time>
      </trkpt>
      <trkpt lat="47.51574" lon="-3.00677">
        <ele>-1.79</ele>
        <time>2016-08-23T10:50:06Z</time>
      </trkpt>
      <trkpt lat="47.51527" lon="-3.00677">
        <ele>-1.79</ele>
        <time>2016-08-23T10:50:25Z</time>
      </trkpt>
      <trkpt lat="47.51488" lon="-3.00676">
        <ele>-0.82</ele>
        <time>2016-08-23T10:50:41Z</time>
      </trkpt>
      <trkpt lat="47.51441" lon="-3.00673">
        <ele>0.14</ele>
        <time>2016-08-23T10:51:00Z</time>
      </trkpt>
      <trkpt lat="47.51398" lon="-3.00668">
        <ele>1.1</ele>
        <time>2016-08-23T10:51:18Z</time>
      </trkpt>
      <trkpt lat="47.51359" lon="-3.00664">
        <ele>2.54</ele>
        <time>2016-08-23T10:51:35Z</time>
      </trkpt>
      <trkpt lat="47.51325" lon="-3.00661">
        <ele>3.98</ele>
        <time>2016-08-23T10:51:50Z</time>
      </trkpt>
      <trkpt lat="47.51289" lon="-3.00656">
        <ele>3.98</ele>
        <time>2016-08-23T10:52:06Z</time>
      </trkpt>
      <trkpt lat="47.51255" lon="-3.00648">
        <ele>3.98</ele>
        <time>2016-08-23T10:52:23Z</time>
      </trkpt>
      <trkpt lat="47.51213" lon="-3.00645">
        <ele>4.46</ele>
        <time>2016-08-23T10:52:42Z</time>
      </trkpt>
      <trkpt lat="47.51176" lon="-3.00639">
        <ele>4.94</ele>
        <time>2016-08-23T10:52:59Z</time>
      </trkpt>
      <trkpt lat="47.51138" lon="-3.00634">
        <ele>4.46</ele>
        <time>2016-08-23T10:53:18Z</time>
      </trkpt>
      <trkpt lat="47.51092" lon="-3.00627">
        <ele>3.98</ele>
        <time>2016-08-23T10:53:39Z</time>
      </trkpt>
      <trkpt lat="47.51055" lon="-3.00623">
        <ele>3.5</ele>
        <time>2016-08-23T10:53:56Z</time>
      </trkpt>
      <trkpt lat="47.51021" lon="-3.0062">
        <ele>3.02</ele>
        <time>2016-08-23T10:54:12Z</time>
      </trkpt>
      <trkpt lat="47.50978" lon="-3.00617">
        <ele>3.02</ele>
        <time>2016-08-23T10:54:31Z</time>
      </trkpt>
      <trkpt lat="47.50943" lon="-3.00618">
        <ele>2.54</ele>
        <time>2016-08-23T10:54:46Z</time>
      </trkpt>
      <trkpt lat="47.50905" lon="-3.00614">
        <ele>3.5</ele>
        <time>2016-08-23T10:55:02Z</time>
      </trkpt>
      <trkpt lat="47.50874" lon="-3.00607">
        <ele>3.02</ele>
        <time>2016-08-23T10:55:17Z</time>
      </trkpt>
      <trkpt lat="47.50842" lon="-3.00603">
        <ele>2.54</ele>
        <time>2016-08-23T10:55:33Z</time>
      </trkpt>
      <trkpt lat="47.50815" lon="-3.00598">
        <ele>3.5</ele>
        <time>2016-08-23T10:55:48Z</time>
      </trkpt>
      <trkpt lat="47.50784" lon="-3.00596">
        <ele>2.06</ele>
        <time>2016-08-23T10:56:05Z</time>
      </trkpt>
      <trkpt lat="47.50752" lon="-3.00593">
        <ele>1.1</ele>
        <time>2016-08-23T10:56:22Z</time>
      </trkpt>
      <trkpt lat="47.50723" lon="-3.00592">
        <ele>0.14</ele>
        <time>2016-08-23T10:56:38Z</time>
      </trkpt>
      <trkpt lat="47.50693" lon="-3.00588">
        <ele>0.14</ele>
        <time>2016-08-23T10:56:56Z</time>
      </trkpt>
      <trkpt lat="47.5067" lon="-3.00585">
        <ele>-0.34</ele>
        <time>2016-08-23T10:57:11Z</time>
      </trkpt>
      <trkpt lat="47.50641" lon="-3.00583">
        <ele>0.62</ele>
        <time>2016-08-23T10:57:28Z</time>
      </trkpt>
      <trkpt lat="47.50604" lon="-3.0058">
        <ele>0.14</ele>
        <time>2016-08-23T10:57:49Z</time>
      </trkpt>
      <trkpt lat="47.50565" lon="-3.00577">
        <ele>-0.34</ele>
        <time>2016-08-23T10:58:10Z</time>
      </trkpt>
      <trkpt lat="47.50533" lon="-3.00572">
        <ele>-0.34</ele>
        <time>2016-08-23T10:58:27Z</time>
      </trkpt>
      <trkpt lat="47.50509" lon="-3.00567">
        <ele>-0.34</ele>
        <time>2016-08-23T10:58:43Z</time>
      </trkpt>
      <trkpt lat="47.50479" lon="-3.00567">
        <ele>-0.34</ele>
        <time>2016-08-23T10:59:01Z</time>
      </trkpt>
      <trkpt lat="47.50442" lon="-3.0057">
        <ele>0.14</ele>
        <time>2016-08-23T10:59:20Z</time>
      </trkpt>
      <trkpt lat="47.50407" lon="-3.00574">
        <ele>1.1</ele>
        <time>2016-08-23T10:59:37Z</time>
      </trkpt>
      <trkpt lat="47.50367" lon="-3.00579">
        <ele>1.58</ele>
        <time>2016-08-23T10:59:57Z</time>
      </trkpt>
      <trkpt lat="47.50338" lon="-3.00577">
        <ele>2.06</ele>
        <time>2016-08-23T11:00:13Z</time>
      </trkpt>
      <trkpt lat="47.50303" lon="-3.0057">
        <ele>2.06</ele>
        <time>2016-08-23T11:00:34Z</time>
      </trkpt>
      <trkpt lat="47.50268" lon="-3.0056">
        <ele>2.54</ele>
        <time>2016-08-23T11:00:56Z</time>
      </trkpt>
      <trkpt lat="47.50244" lon="-3.00557">
        <ele>1.58</ele>
        <time>2016-08-23T11:01:12Z</time>
      </trkpt>
      <trkpt lat="47.50215" lon="-3.0055">
        <ele>1.58</ele>
        <time>2016-08-23T11:01:31Z</time>
      </trkpt>
      <trkpt lat="47.50187" lon="-3.00542">
        <ele>0.62</ele>
        <time>2016-08-23T11:01:51Z</time>
      </trkpt>
      <trkpt lat="47.50158" lon="-3.00537">
        <ele>0.62</ele>
        <time>2016-08-23T11:02:10Z</time>
      </trkpt>
      <trkpt lat="47.50134" lon="-3.0053">
        <ele>0.62</ele>
        <time>2016-08-23T11:02:26Z</time>
      </trkpt>
      <trkpt lat="47.50105" lon="-3.00521">
        <ele>0.62</ele>
        <time>2016-08-23T11:02:45Z</time>
      </trkpt>
      <trkpt lat="47.50074" lon="-3.00516">
        <ele>2.06</ele>
        <time>2016-08-23T11:03:05Z</time>
      </trkpt>
      <trkpt lat="47.50046" lon="-3.00509">
        <ele>2.54</ele>
        <time>2016-08-23T11:03:22Z</time>
      </trkpt>
      <trkpt lat="47.50012" lon="-3.00503">
        <ele>2.06</ele>
        <time>2016-08-23T11:03:43Z</time>
      </trkpt>
      <trkpt lat="47.49979" lon="-3.00496">
        <ele>0.62</ele>
        <time>2016-08-23T11:04:01Z</time>
      </trkpt>
      <trkpt lat="47.49947" lon="-3.00491">
        <ele>-0.34</ele>
        <time>2016-08-23T11:04:19Z</time>
      </trkpt>
      <trkpt lat="47.49914" lon="-3.00486">
        <ele>0.14</ele>
        <time>2016-08-23T11:04:37Z</time>
      </trkpt>
      <trkpt lat="47.49874" lon="-3.00482">
        <ele>-0.34</ele>
        <time>2016-08-23T11:04:58Z</time>
      </trkpt>
      <trkpt lat="47.49835" lon="-3.00475">
        <ele>0.14</ele>
        <time>2016-08-23T11:05:19Z</time>
      </trkpt>
      <trkpt lat="47.49799" lon="-3.00468">
        <ele>0.62</ele>
        <time>2016-08-23T11:05:38Z</time>
      </trkpt>
      <trkpt lat="47.4976" lon="-3.00463">
        <ele>1.58</ele>
        <time>2016-08-23T11:05:58Z</time>
      </trkpt>
      <trkpt lat="47.49721" lon="-3.00459">
        <ele>2.06</ele>
        <time>2016-08-23T11:06:19Z</time>
      </trkpt>
      <trkpt lat="47.49689" lon="-3.00456">
        <ele>1.1</ele>
        <time>2016-08-23T11:06:36Z</time>
      </trkpt>
      <trkpt lat="47.49659" lon="-3.00452">
        <ele>0.62</ele>
        <time>2016-08-23T11:06:54Z</time>
      </trkpt>
      <trkpt lat="47.49633" lon="-3.00451">
        <ele>0.62</ele>
        <time>2016-08-23T11:07:12Z</time>
      </trkpt>
      <trkpt lat="47.49601" lon="-3.00446">
        <ele>1.58</ele>
        <time>2016-08-23T11:07:33Z</time>
      </trkpt>
      <trkpt lat="47.49567" lon="-3.00442">
        <ele>1.1</ele>
        <time>2016-08-23T11:07:54Z</time>
      </trkpt>
      <trkpt lat="47.49539" lon="-3.0044">
        <ele>1.58</ele>
        <time>2016-08-23T11:08:12Z</time>
      </trkpt>
      <trkpt lat="47.49503" lon="-3.00436">
        <ele>1.58</ele>
        <time>2016-08-23T11:08:33Z</time>
      </trkpt>
      <trkpt lat="47.49471" lon="-3.00433">
        <ele>1.1</ele>
        <time>2016-08-23T11:08:53Z</time>
      </trkpt>
      <trkpt lat="47.49443" lon="-3.00428">
        <ele>1.1</ele>
        <time>2016-08-23T11:09:09Z</time>
      </trkpt>
      <trkpt lat="47.49414" lon="-3.00422">
        <ele>1.1</ele>
        <time>2016-08-23T11:09:26Z</time>
      </trkpt>
      <trkpt lat="47.49375" lon="-3.00412">
        <ele>1.58</ele>
        <time>2016-08-23T11:09:47Z</time>
      </trkpt>
      <trkpt lat="47.49337" lon="-3.00399">
        <ele>1.58</ele>
        <time>2016-08-23T11:10:08Z</time>
      </trkpt>
      <trkpt lat="47.49302" lon="-3.00387">
        <ele>1.58</ele>
        <time>2016-08-23T11:10:28Z</time>
      </trkpt>
      <trkpt lat="47.49268" lon="-3.00378">
        <ele>1.58</ele>
        <time>2016-08-23T11:10:50Z</time>
      </trkpt>
      <trkpt lat="47.49227" lon="-3.00366">
        <ele>1.58</ele>
        <time>2016-08-23T11:11:13Z</time>
      </trkpt>
      <trkpt lat="47.49189" lon="-3.00354">
        <ele>2.06</ele>
        <time>2016-08-23T11:11:34Z</time>
      </trkpt>
      <trkpt lat="47.4915" lon="-3.0034">
        <ele>2.06</ele>
        <time>2016-08-23T11:11:56Z</time>
      </trkpt>
      <trkpt lat="47.4911" lon="-3.00329">
        <ele>1.1</ele>
        <time>2016-08-23T11:12:18Z</time>
      </trkpt>
      <trkpt lat="47.49072" lon="-3.00315">
        <ele>2.06</ele>
        <time>2016-08-23T11:12:39Z</time>
      </trkpt>
      <trkpt lat="47.49041" lon="-3.00303">
        <ele>1.58</ele>
        <time>2016-08-23T11:12:57Z</time>
      </trkpt>
      <trkpt lat="47.49008" lon="-3.00292">
        <ele>1.1</ele>
        <time>2016-08-23T11:13:16Z</time>
      </trkpt>
      <trkpt lat="47.48976" lon="-3.00284">
        <ele>1.1</ele>
        <time>2016-08-23T11:13:34Z</time>
      </trkpt>
      <trkpt lat="47.48939" lon="-3.00272">
        <ele>1.58</ele>
        <time>2016-08-23T11:13:54Z</time>
      </trkpt>
      <trkpt lat="47.48902" lon="-3.00257">
        <ele>1.1</ele>
        <time>2016-08-23T11:14:16Z</time>
      </trkpt>
      <trkpt lat="47.48872" lon="-3.00244">
        <ele>0.62</ele>
        <time>2016-08-23T11:14:35Z</time>
      </trkpt>
      <trkpt lat="47.48842" lon="-3.00234">
        <ele>0.62</ele>
        <time>2016-08-23T11:14:54Z</time>
      </trkpt>
      <trkpt lat="47.48813" lon="-3.00224">
        <ele>0.62</ele>
        <time>2016-08-23T11:15:11Z</time>
      </trkpt>
      <trkpt lat="47.48775" lon="-3.00213">
        <ele>0.62</ele>
        <time>2016-08-23T11:15:32Z</time>
      </trkpt>
      <trkpt lat="47.48737" lon="-3.00202">
        <ele>0.62</ele>
        <time>2016-08-23T11:15:52Z</time>
      </trkpt>
      <trkpt lat="47.48699" lon="-3.00191">
        <ele>1.1</ele>
        <time>2016-08-23T11:16:13Z</time>
      </trkpt>
      <trkpt lat="47.48664" lon="-3.00181">
        <ele>1.1</ele>
        <time>2016-08-23T11:16:33Z</time>
      </trkpt>
      <trkpt lat="47.48628" lon="-3.00172">
        <ele>0.62</ele>
        <time>2016-08-23T11:16:52Z</time>
      </trkpt>
      <trkpt lat="47.48591" lon="-3.0016">
        <ele>0.14</ele>
        <time>2016-08-23T11:17:13Z</time>
      </trkpt>
      <trkpt lat="47.48555" lon="-3.00147">
        <ele>0.14</ele>
        <time>2016-08-23T11:17:34Z</time>
      </trkpt>
      <trkpt lat="47.48521" lon="-3.00137">
        <ele>-0.34</ele>
        <time>2016-08-23T11:17:54Z</time>
      </trkpt>
      <trkpt lat="47.48484" lon="-3.00125">
        <ele>-0.34</ele>
        <time>2016-08-23T11:18:14Z</time>
      </trkpt>
      <trkpt lat="47.48444" lon="-3.00113">
        <ele>-0.34</ele>
        <time>2016-08-23T11:18:35Z</time>
      </trkpt>
      <trkpt lat="47.48398" lon="-3.00098">
        <ele>0.14</ele>
        <time>2016-08-23T11:18:59Z</time>
      </trkpt>
      <trkpt lat="47.48368" lon="-3.00091">
        <ele>-0.34</ele>
        <time>2016-08-23T11:19:16Z</time>
      </trkpt>
      <trkpt lat="47.48325" lon="-3.00081">
        <ele>-0.82</ele>
        <time>2016-08-23T11:19:37Z</time>
      </trkpt>
      <trkpt lat="47.48287" lon="-3.00074">
        <ele>-0.82</ele>
        <time>2016-08-23T11:19:55Z</time>
      </trkpt>
      <trkpt lat="47.48235" lon="-3.00061">
        <ele>-0.82</ele>
        <time>2016-08-23T11:20:19Z</time>
      </trkpt>
      <trkpt lat="47.48189" lon="-3.00049">
        <ele>-1.3</ele>
        <time>2016-08-23T11:20:40Z</time>
      </trkpt>
      <trkpt lat="47.48146" lon="-3.0004">
        <ele>-1.3</ele>
        <time>2016-08-23T11:21:00Z</time>
      </trkpt>
      <trkpt lat="47.48105" lon="-3.00029">
        <ele>-0.82</ele>
        <time>2016-08-23T11:21:19Z</time>
      </trkpt>
      <trkpt lat="47.48067" lon="-3.00017">
        <ele>0.14</ele>
        <time>2016-08-23T11:21:38Z</time>
      </trkpt>
      <trkpt lat="47.48024" lon="-3.00001">
        <ele>0.14</ele>
        <time>2016-08-23T11:22:00Z</time>
      </trkpt>
      <trkpt lat="47.47983" lon="-2.99991">
        <ele>-0.82</ele>
        <time>2016-08-23T11:22:21Z</time>
      </trkpt>
      <trkpt lat="47.47946" lon="-2.99979">
        <ele>0.14</ele>
        <time>2016-08-23T11:22:40Z</time>
      </trkpt>
      <trkpt lat="47.4791" lon="-2.99967">
        <ele>0.62</ele>
        <time>2016-08-23T11:23:00Z</time>
      </trkpt>
      <trkpt lat="47.47877" lon="-2.99957">
        <ele>0.14</ele>
        <time>2016-08-23T11:23:18Z</time>
      </trkpt>
      <trkpt lat="47.47838" lon="-2.99943">
        <ele>0.14</ele>
        <time>2016-08-23T11:23:41Z</time>
      </trkpt>
      <trkpt lat="47.47808" lon="-2.99933">
        <ele>0.14</ele>
        <time>2016-08-23T11:23:59Z</time>
      </trkpt>
      <trkpt lat="47.47773" lon="-2.9992">
        <ele>-0.34</ele>
        <time>2016-08-23T11:24:20Z</time>
      </trkpt>
      <trkpt lat="47.47744" lon="-2.99912">
        <ele>0.62</ele>
        <time>2016-08-23T11:24:37Z</time>
      </trkpt>
      <trkpt lat="47.47708" lon="-2.99905">
        <ele>0.62</ele>
        <time>2016-08-23T11:24:55Z</time>
      </trkpt>
      <trkpt lat="47.47664" lon="-2.99893">
        <ele>-0.34</ele>
        <time>2016-08-23T11:25:17Z</time>
      </trkpt>
      <trkpt lat="47.47621" lon="-2.99883">
        <ele>0.62</ele>
        <time>2016-08-23T11:25:38Z</time>
      </trkpt>
      <trkpt lat="47.47593" lon="-2.99874">
        <ele>0.62</ele>
        <time>2016-08-23T11:25:53Z</time>
      </trkpt>
      <trkpt lat="47.47558" lon="-2.99866">
        <ele>-0.34</ele>
        <time>2016-08-23T11:26:11Z</time>
      </trkpt>
      <trkpt lat="47.47525" lon="-2.99856">
        <ele>-0.82</ele>
        <time>2016-08-23T11:26:29Z</time>
      </trkpt>
      <trkpt lat="47.47491" lon="-2.99851">
        <ele>-1.3</ele>
        <time>2016-08-23T11:26:48Z</time>
      </trkpt>
      <trkpt lat="47.47453" lon="-2.9984">
        <ele>-0.34</ele>
        <time>2016-08-23T11:27:09Z</time>
      </trkpt>
      <trkpt lat="47.47418" lon="-2.99834">
        <ele>-0.82</ele>
        <time>2016-08-23T11:27:27Z</time>
      </trkpt>
      <trkpt lat="47.47379" lon="-2.99822">
        <ele>-0.82</ele>
        <time>2016-08-23T11:27:48Z</time>
      </trkpt>
      <trkpt lat="47.4734" lon="-2.99811">
        <ele>-0.34</ele>
        <time>2016-08-23T11:28:08Z</time>
      </trkpt>
      <trkpt lat="47.47303" lon="-2.998">
        <ele>-1.3</ele>
        <time>2016-08-23T11:28:27Z</time>
      </trkpt>
      <trkpt lat="47.47261" lon="-2.99787">
        <ele>-0.82</ele>
        <time>2016-08-23T11:28:49Z</time>
      </trkpt>
      <trkpt lat="47.47223" lon="-2.99772">
        <ele>-0.82</ele>
        <time>2016-08-23T11:29:11Z</time>
      </trkpt>
      <trkpt lat="47.47181" lon="-2.99769">
        <ele>-1.3</ele>
        <time>2016-08-23T11:29:33Z</time>
      </trkpt>
      <trkpt lat="47.47136" lon="-2.99765">
        <ele>-0.34</ele>
        <time>2016-08-23T11:29:53Z</time>
      </trkpt>
      <trkpt lat="47.4709" lon="-2.99764">
        <ele>-0.34</ele>
        <time>2016-08-23T11:30:13Z</time>
      </trkpt>
      <trkpt lat="47.47041" lon="-2.99764">
        <ele>-1.3</ele>
        <time>2016-08-23T11:30:34Z</time>
      </trkpt>
      <trkpt lat="47.46997" lon="-2.99759">
        <ele>-1.3</ele>
        <time>2016-08-23T11:30:53Z</time>
      </trkpt>
      <trkpt lat="47.46954" lon="-2.99748">
        <ele>-0.34</ele>
        <time>2016-08-23T11:31:14Z</time>
      </trkpt>
      <trkpt lat="47.46916" lon="-2.99741">
        <ele>0.14</ele>
        <time>2016-08-23T11:31:33Z</time>
      </trkpt>
      <trkpt lat="47.4688" lon="-2.99733">
        <ele>0.14</ele>
        <time>2016-08-23T11:31:52Z</time>
      </trkpt>
      <trkpt lat="47.46878" lon="-2.99732">
        <ele>-0.34</ele>
        <time>2016-08-23T11:31:53Z</time>
      </trkpt>
      <trkpt lat="47.46868" lon="-2.99729">
        <ele>-0.34</ele>
        <time>2016-08-23T11:31:59Z</time>
      </trkpt>
      <trkpt lat="47.46836" lon="-2.99721">
        <ele>0.14</ele>
        <time>2016-08-23T11:32:16Z</time>
      </trkpt>
      <trkpt lat="47.46803" lon="-2.99711">
        <ele>0.14</ele>
        <time>2016-08-23T11:32:34Z</time>
      </trkpt>
      <trkpt lat="47.46778" lon="-2.99705">
        <ele>0.62</ele>
        <time>2016-08-23T11:32:48Z</time>
      </trkpt>
      <trkpt lat="47.46743" lon="-2.99702">
        <ele>0.14</ele>
        <time>2016-08-23T11:33:06Z</time>
      </trkpt>
      <trkpt lat="47.46714" lon="-2.99698">
        <ele>-0.34</ele>
        <time>2016-08-23T11:33:20Z</time>
      </trkpt>
      <trkpt lat="47.4668" lon="-2.9969">
        <ele>-0.82</ele>
        <time>2016-08-23T11:33:38Z</time>
      </trkpt>
      <trkpt lat="47.46649" lon="-2.99685">
        <ele>-0.82</ele>
        <time>2016-08-23T11:33:58Z</time>
      </trkpt>
      <trkpt lat="47.46621" lon="-2.99682">
        <ele>0.14</ele>
        <time>2016-08-23T11:34:15Z</time>
      </trkpt>
      <trkpt lat="47.46619" lon="-2.99682">
        <ele>0.14</ele>
        <time>2016-08-23T11:34:16Z</time>
      </trkpt>
      <trkpt lat="47.46597" lon="-2.9968">
        <ele>-0.82</ele>
        <time>2016-08-23T11:34:30Z</time>
      </trkpt>
      <trkpt lat="47.46573" lon="-2.99678">
        <ele>-0.34</ele>
        <time>2016-08-23T11:34:46Z</time>
      </trkpt>
      <trkpt lat="47.46545" lon="-2.99677">
        <ele>-1.3</ele>
        <time>2016-08-23T11:35:04Z</time>
      </trkpt>
      <trkpt lat="47.46519" lon="-2.99672">
        <ele>-0.34</ele>
        <time>2016-08-23T11:35:22Z</time>
      </trkpt>
      <trkpt lat="47.46516" lon="-2.99671">
        <ele>-0.34</ele>
        <time>2016-08-23T11:35:24Z</time>
      </trkpt>
      <trkpt lat="47.46482" lon="-2.99672">
        <ele>-0.34</ele>
        <time>2016-08-23T11:35:45Z</time>
      </trkpt>
      <trkpt lat="47.46447" lon="-2.99671">
        <ele>-0.82</ele>
        <time>2016-08-23T11:36:05Z</time>
      </trkpt>
      <trkpt lat="47.46419" lon="-2.9967">
        <ele>-1.79</ele>
        <time>2016-08-23T11:36:22Z</time>
      </trkpt>
      <trkpt lat="47.46383" lon="-2.9967">
        <ele>-0.82</ele>
        <time>2016-08-23T11:36:42Z</time>
      </trkpt>
      <trkpt lat="47.46345" lon="-2.9967">
        <ele>-1.3</ele>
        <time>2016-08-23T11:37:03Z</time>
      </trkpt>
      <trkpt lat="47.46318" lon="-2.99669">
        <ele>-1.3</ele>
        <time>2016-08-23T11:37:19Z</time>
      </trkpt>
      <trkpt lat="47.46283" lon="-2.99669">
        <ele>-1.3</ele>
        <time>2016-08-23T11:37:39Z</time>
      </trkpt>
      <trkpt lat="47.46253" lon="-2.99669">
        <ele>-0.34</ele>
        <time>2016-08-23T11:37:56Z</time>
      </trkpt>
      <trkpt lat="47.46217" lon="-2.99667">
        <ele>-0.34</ele>
        <time>2016-08-23T11:38:17Z</time>
      </trkpt>
      <trkpt lat="47.46187" lon="-2.99666">
        <ele>-0.82</ele>
        <time>2016-08-23T11:38:35Z</time>
      </trkpt>
      <trkpt lat="47.46155" lon="-2.99665">
        <ele>-0.34</ele>
        <time>2016-08-23T11:38:55Z</time>
      </trkpt>
      <trkpt lat="47.4612" lon="-2.99668">
        <ele>0.62</ele>
        <time>2016-08-23T11:39:15Z</time>
      </trkpt>
      <trkpt lat="47.46086" lon="-2.99667">
        <ele>1.1</ele>
        <time>2016-08-23T11:39:36Z</time>
      </trkpt>
      <trkpt lat="47.46047" lon="-2.99668">
        <ele>-0.82</ele>
        <time>2016-08-23T11:39:59Z</time>
      </trkpt>
      <trkpt lat="47.46021" lon="-2.99668">
        <ele>-3.71</ele>
        <time>2016-08-23T11:40:14Z</time>
      </trkpt>
      <trkpt lat="47.45988" lon="-2.99673">
        <ele>-3.71</ele>
        <time>2016-08-23T11:40:34Z</time>
      </trkpt>
      <trkpt lat="47.45955" lon="-2.9968">
        <ele>-4.67</ele>
        <time>2016-08-23T11:40:51Z</time>
      </trkpt>
      <trkpt lat="47.45921" lon="-2.99683">
        <ele>-4.67</ele>
        <time>2016-08-23T11:41:10Z</time>
      </trkpt>
      <trkpt lat="47.45882" lon="-2.99684">
        <ele>-3.23</ele>
        <time>2016-08-23T11:41:32Z</time>
      </trkpt>
      <trkpt lat="47.45856" lon="-2.99684">
        <ele>-2.75</ele>
        <time>2016-08-23T11:41:45Z</time>
      </trkpt>
      <trkpt lat="47.45852" lon="-2.99685">
        <ele>-2.75</ele>
        <time>2016-08-23T11:41:47Z</time>
      </trkpt>
      <trkpt lat="47.45841" lon="-2.99684">
        <ele>-3.23</ele>
        <time>2016-08-23T11:41:54Z</time>
      </trkpt>
      <trkpt lat="47.4582" lon="-2.99682">
        <ele>-4.67</ele>
        <time>2016-08-23T11:42:07Z</time>
      </trkpt>
      <trkpt lat="47.45802" lon="-2.99682">
        <ele>-4.19</ele>
        <time>2016-08-23T11:42:20Z</time>
      </trkpt>
      <trkpt lat="47.4579" lon="-2.99683">
        <ele>-4.67</ele>
        <time>2016-08-23T11:42:28Z</time>
      </trkpt>
      <trkpt lat="47.45784" lon="-2.99684">
        <ele>-4.67</ele>
        <time>2016-08-23T11:42:34Z</time>
      </trkpt>
      <trkpt lat="47.45779" lon="-2.99686">
        <ele>-4.67</ele>
        <time>2016-08-23T11:42:38Z</time>
      </trkpt>
      <trkpt lat="47.45742" lon="-2.99694">
        <ele>-2.27</ele>
        <time>2016-08-23T11:42:59Z</time>
      </trkpt>
      <trkpt lat="47.45711" lon="-2.997">
        <ele>-2.27</ele>
        <time>2016-08-23T11:43:16Z</time>
      </trkpt>
      <trkpt lat="47.45686" lon="-2.99705">
        <ele>-1.3</ele>
        <time>2016-08-23T11:43:30Z</time>
      </trkpt>
      <trkpt lat="47.45657" lon="-2.99706">
        <ele>-1.3</ele>
        <time>2016-08-23T11:43:48Z</time>
      </trkpt>
      <trkpt lat="47.45633" lon="-2.99712">
        <ele>-1.3</ele>
        <time>2016-08-23T11:44:02Z</time>
      </trkpt>
      <trkpt lat="47.4561" lon="-2.99713">
        <ele>-1.3</ele>
        <time>2016-08-23T11:44:16Z</time>
      </trkpt>
      <trkpt lat="47.45586" lon="-2.99712">
        <ele>-1.3</ele>
        <time>2016-08-23T11:44:32Z</time>
      </trkpt>
      <trkpt lat="47.45565" lon="-2.99711">
        <ele>-1.3</ele>
        <time>2016-08-23T11:44:47Z</time>
      </trkpt>
      <trkpt lat="47.45537" lon="-2.9971">
        <ele>-1.3</ele>
        <time>2016-08-23T11:45:07Z</time>
      </trkpt>
      <trkpt lat="47.45515" lon="-2.99709">
        <ele>-1.3</ele>
        <time>2016-08-23T11:45:24Z</time>
      </trkpt>
      <trkpt lat="47.45483" lon="-2.99706">
        <ele>-1.3</ele>
        <time>2016-08-23T11:45:48Z</time>
      </trkpt>
      <trkpt lat="47.45459" lon="-2.99704">
        <ele>-1.3</ele>
        <time>2016-08-23T11:46:07Z</time>
      </trkpt>
      <trkpt lat="47.45436" lon="-2.99703">
        <ele>-0.82</ele>
        <time>2016-08-23T11:46:26Z</time>
      </trkpt>
      <trkpt lat="47.45414" lon="-2.99703">
        <ele>-0.82</ele>
        <time>2016-08-23T11:46:44Z</time>
      </trkpt>
      <trkpt lat="47.4539" lon="-2.99702">
        <ele>-0.82</ele>
        <time>2016-08-23T11:47:03Z</time>
      </trkpt>
      <trkpt lat="47.45365" lon="-2.99702">
        <ele>-1.3</ele>
        <time>2016-08-23T11:47:23Z</time>
      </trkpt>
      <trkpt lat="47.45335" lon="-2.99703">
        <ele>-1.3</ele>
        <time>2016-08-23T11:47:45Z</time>
      </trkpt>
      <trkpt lat="47.45313" lon="-2.99703">
        <ele>-0.82</ele>
        <time>2016-08-23T11:48:02Z</time>
      </trkpt>
      <trkpt lat="47.45287" lon="-2.997">
        <ele>-1.79</ele>
        <time>2016-08-23T11:48:23Z</time>
      </trkpt>
      <trkpt lat="47.45274" lon="-2.99698">
        <ele>-1.3</ele>
        <time>2016-08-23T11:48:36Z</time>
      </trkpt>
      <trkpt lat="47.45252" lon="-2.99701">
        <ele>-1.3</ele>
        <time>2016-08-23T11:48:54Z</time>
      </trkpt>
      <trkpt lat="47.45227" lon="-2.997">
        <ele>-1.3</ele>
        <time>2016-08-23T11:49:13Z</time>
      </trkpt>
      <trkpt lat="47.45205" lon="-2.99702">
        <ele>-1.3</ele>
        <time>2016-08-23T11:49:29Z</time>
      </trkpt>
      <trkpt lat="47.45181" lon="-2.99701">
        <ele>-1.3</ele>
        <time>2016-08-23T11:49:47Z</time>
      </trkpt>
      <trkpt lat="47.45151" lon="-2.99702">
        <ele>-1.3</ele>
        <time>2016-08-23T11:50:10Z</time>
      </trkpt>
      <trkpt lat="47.45126" lon="-2.997">
        <ele>-0.34</ele>
        <time>2016-08-23T11:50:31Z</time>
      </trkpt>
      <trkpt lat="47.45102" lon="-2.99703">
        <ele>-1.3</ele>
        <time>2016-08-23T11:50:50Z</time>
      </trkpt>
      <trkpt lat="47.45077" lon="-2.99703">
        <ele>-1.79</ele>
        <time>2016-08-23T11:51:09Z</time>
      </trkpt>
      <trkpt lat="47.45067" lon="-2.99705">
        <ele>-2.27</ele>
        <time>2016-08-23T11:51:16Z</time>
      </trkpt>
      <trkpt lat="47.45053" lon="-2.99703">
        <ele>-3.23</ele>
        <time>2016-08-23T11:51:27Z</time>
      </trkpt>
      <trkpt lat="47.45033" lon="-2.99701">
        <ele>-5.63</ele>
        <time>2016-08-23T11:51:44Z</time>
      </trkpt>
      <trkpt lat="47.45011" lon="-2.99705">
        <ele>-4.19</ele>
        <time>2016-08-23T11:52:02Z</time>
      </trkpt>
      <trkpt lat="47.44989" lon="-2.99708">
        <ele>-3.71</ele>
        <time>2016-08-23T11:52:19Z</time>
      </trkpt>
      <trkpt lat="47.44963" lon="-2.99716">
        <ele>-3.23</ele>
        <time>2016-08-23T11:52:36Z</time>
      </trkpt>
      <trkpt lat="47.44933" lon="-2.99723">
        <ele>-1.3</ele>
        <time>2016-08-23T11:52:56Z</time>
      </trkpt>
      <trkpt lat="47.44909" lon="-2.99726">
        <ele>-1.3</ele>
        <time>2016-08-23T11:53:12Z</time>
      </trkpt>
      <trkpt lat="47.44889" lon="-2.99732">
        <ele>-1.79</ele>
        <time>2016-08-23T11:53:26Z</time>
      </trkpt>
      <trkpt lat="47.44856" lon="-2.99738">
        <ele>-0.82</ele>
        <time>2016-08-23T11:53:47Z</time>
      </trkpt>
      <trkpt lat="47.44839" lon="-2.9974">
        <ele>-0.82</ele>
        <time>2016-08-23T11:54:01Z</time>
      </trkpt>
      <trkpt lat="47.4482" lon="-2.99746">
        <ele>-1.79</ele>
        <time>2016-08-23T11:54:14Z</time>
      </trkpt>
      <trkpt lat="47.44801" lon="-2.9975">
        <ele>-2.27</ele>
        <time>2016-08-23T11:54:27Z</time>
      </trkpt>
      <trkpt lat="47.44779" lon="-2.99756">
        <ele>-2.27</ele>
        <time>2016-08-23T11:54:42Z</time>
      </trkpt>
      <trkpt lat="47.44753" lon="-2.99769">
        <ele>-0.82</ele>
        <time>2016-08-23T11:54:59Z</time>
      </trkpt>
      <trkpt lat="47.4472" lon="-2.99786">
        <ele>0.14</ele>
        <time>2016-08-23T11:55:21Z</time>
      </trkpt>
      <trkpt lat="47.44689" lon="-2.998">
        <ele>-0.34</ele>
        <time>2016-08-23T11:55:40Z</time>
      </trkpt>
      <trkpt lat="47.44656" lon="-2.99817">
        <ele>0.62</ele>
        <time>2016-08-23T11:56:02Z</time>
      </trkpt>
      <trkpt lat="47.44625" lon="-2.99834">
        <ele>-0.34</ele>
        <time>2016-08-23T11:56:22Z</time>
      </trkpt>
      <trkpt lat="47.4462" lon="-2.99839">
        <ele>-0.82</ele>
        <time>2016-08-23T11:56:25Z</time>
      </trkpt>
      <trkpt lat="47.44608" lon="-2.99851">
        <ele>-2.75</ele>
        <time>2016-08-23T11:56:34Z</time>
      </trkpt>
      <trkpt lat="47.44589" lon="-2.9986">
        <ele>-5.15</ele>
        <time>2016-08-23T11:56:49Z</time>
      </trkpt>
      <trkpt lat="47.44575" lon="-2.99869">
        <ele>-6.11</ele>
        <time>2016-08-23T11:57:00Z</time>
      </trkpt>
      <trkpt lat="47.44562" lon="-2.99876">
        <ele>-6.11</ele>
        <time>2016-08-23T11:57:13Z</time>
      </trkpt>
      <trkpt lat="47.44534" lon="-2.99882">
        <ele>-6.59</ele>
        <time>2016-08-23T11:57:35Z</time>
      </trkpt>
      <trkpt lat="47.44505" lon="-2.99882">
        <ele>-6.59</ele>
        <time>2016-08-23T11:57:57Z</time>
      </trkpt>
      <trkpt lat="47.44497" lon="-2.9988">
        <ele>-5.15</ele>
        <time>2016-08-23T11:58:04Z</time>
      </trkpt>
      <trkpt lat="47.44475" lon="-2.99881">
        <ele>-3.23</ele>
        <time>2016-08-23T11:58:23Z</time>
      </trkpt>
      <trkpt lat="47.44461" lon="-2.99881">
        <ele>-3.71</ele>
        <time>2016-08-23T11:58:34Z</time>
      </trkpt>
      <trkpt lat="47.44441" lon="-2.99881">
        <ele>-5.63</ele>
        <time>2016-08-23T11:58:51Z</time>
      </trkpt>
      <trkpt lat="47.44432" lon="-2.99881">
        <ele>-5.15</ele>
        <time>2016-08-23T11:58:59Z</time>
      </trkpt>
      <trkpt lat="47.44418" lon="-2.9988">
        <ele>-5.15</ele>
        <time>2016-08-23T11:59:11Z</time>
      </trkpt>
      <trkpt lat="47.44414" lon="-2.99881">
        <ele>-5.15</ele>
        <time>2016-08-23T11:59:14Z</time>
      </trkpt>
      <trkpt lat="47.44412" lon="-2.99879">
        <ele>-5.15</ele>
        <time>2016-08-23T11:59:16Z</time>
      </trkpt>
      <trkpt lat="47.44407" lon="-2.99879">
        <ele>-5.15</ele>
        <time>2016-08-23T11:59:21Z</time>
      </trkpt>
      <trkpt lat="47.44384" lon="-2.9988">
        <ele>-3.23</ele>
        <time>2016-08-23T11:59:41Z</time>
      </trkpt>
      <trkpt lat="47.44364" lon="-2.99879">
        <ele>-2.27</ele>
        <time>2016-08-23T12:00:00Z</time>
      </trkpt>
      <trkpt lat="47.44348" lon="-2.99876">
        <ele>-2.27</ele>
        <time>2016-08-23T12:00:16Z</time>
      </trkpt>
      <trkpt lat="47.44329" lon="-2.99875">
        <ele>-2.75</ele>
        <time>2016-08-23T12:00:35Z</time>
      </trkpt>
      <trkpt lat="47.44311" lon="-2.99872">
        <ele>-2.27</ele>
        <time>2016-08-23T12:00:54Z</time>
      </trkpt>
      <trkpt lat="47.44292" lon="-2.99869">
        <ele>-2.27</ele>
        <time>2016-08-23T12:01:14Z</time>
      </trkpt>
      <trkpt lat="47.44278" lon="-2.99865">
        <ele>-1.79</ele>
        <time>2016-08-23T12:01:32Z</time>
      </trkpt>
      <trkpt lat="47.44264" lon="-2.99862">
        <ele>-0.82</ele>
        <time>2016-08-23T12:01:50Z</time>
      </trkpt>
      <trkpt lat="47.44247" lon="-2.99859">
        <ele>-0.34</ele>
        <time>2016-08-23T12:02:09Z</time>
      </trkpt>
      <trkpt lat="47.44231" lon="-2.99857">
        <ele>-0.82</ele>
        <time>2016-08-23T12:02:27Z</time>
      </trkpt>
      <trkpt lat="47.44217" lon="-2.99854">
        <ele>-1.3</ele>
        <time>2016-08-23T12:02:42Z</time>
      </trkpt>
      <trkpt lat="47.44202" lon="-2.99851">
        <ele>-1.79</ele>
        <time>2016-08-23T12:02:59Z</time>
      </trkpt>
      <trkpt lat="47.44183" lon="-2.9985">
        <ele>-2.27</ele>
        <time>2016-08-23T12:03:19Z</time>
      </trkpt>
      <trkpt lat="47.44168" lon="-2.99849">
        <ele>-1.79</ele>
        <time>2016-08-23T12:03:35Z</time>
      </trkpt>
      <trkpt lat="47.44151" lon="-2.99846">
        <ele>-1.79</ele>
        <time>2016-08-23T12:03:54Z</time>
      </trkpt>
      <trkpt lat="47.44134" lon="-2.99843">
        <ele>-1.79</ele>
        <time>2016-08-23T12:04:15Z</time>
      </trkpt>
      <trkpt lat="47.44118" lon="-2.99838">
        <ele>-1.3</ele>
        <time>2016-08-23T12:04:39Z</time>
      </trkpt>
      <trkpt lat="47.44102" lon="-2.99837">
        <ele>-1.3</ele>
        <time>2016-08-23T12:05:04Z</time>
      </trkpt>
      <trkpt lat="47.44093" lon="-2.99837">
        <ele>-1.3</ele>
        <time>2016-08-23T12:05:15Z</time>
      </trkpt>
      <trkpt lat="47.44074" lon="-2.9984">
        <ele>-1.3</ele>
        <time>2016-08-23T12:05:36Z</time>
      </trkpt>
      <trkpt lat="47.44057" lon="-2.99839">
        <ele>-1.79</ele>
        <time>2016-08-23T12:05:55Z</time>
      </trkpt>
      <trkpt lat="47.4404" lon="-2.99838">
        <ele>-0.82</ele>
        <time>2016-08-23T12:06:14Z</time>
      </trkpt>
      <trkpt lat="47.44026" lon="-2.99836">
        <ele>-1.79</ele>
        <time>2016-08-23T12:06:34Z</time>
      </trkpt>
      <trkpt lat="47.44011" lon="-2.99837">
        <ele>-1.79</ele>
        <time>2016-08-23T12:06:53Z</time>
      </trkpt>
      <trkpt lat="47.43996" lon="-2.99836">
        <ele>-1.79</ele>
        <time>2016-08-23T12:07:12Z</time>
      </trkpt>
      <trkpt lat="47.43981" lon="-2.99834">
        <ele>-0.82</ele>
        <time>2016-08-23T12:07:30Z</time>
      </trkpt>
      <trkpt lat="47.43961" lon="-2.99832">
        <ele>-0.82</ele>
        <time>2016-08-23T12:07:53Z</time>
      </trkpt>
      <trkpt lat="47.4395" lon="-2.99829">
        <ele>-0.34</ele>
        <time>2016-08-23T12:08:08Z</time>
      </trkpt>
      <trkpt lat="47.43937" lon="-2.99827">
        <ele>-0.82</ele>
        <time>2016-08-23T12:08:26Z</time>
      </trkpt>
      <trkpt lat="47.43919" lon="-2.99827">
        <ele>-0.82</ele>
        <time>2016-08-23T12:08:48Z</time>
      </trkpt>
      <trkpt lat="47.43908" lon="-2.99824">
        <ele>-1.3</ele>
        <time>2016-08-23T12:09:02Z</time>
      </trkpt>
      <trkpt lat="47.43903" lon="-2.99825">
        <ele>-1.3</ele>
        <time>2016-08-23T12:09:09Z</time>
      </trkpt>
      <trkpt lat="47.43886" lon="-2.99827">
        <ele>-0.34</ele>
        <time>2016-08-23T12:09:27Z</time>
      </trkpt>
      <trkpt lat="47.43868" lon="-2.99829">
        <ele>-0.34</ele>
        <time>2016-08-23T12:09:45Z</time>
      </trkpt>
      <trkpt lat="47.43852" lon="-2.99826">
        <ele>-0.34</ele>
        <time>2016-08-23T12:10:04Z</time>
      </trkpt>
      <trkpt lat="47.43841" lon="-2.99824">
        <ele>-1.79</ele>
        <time>2016-08-23T12:10:19Z</time>
      </trkpt>
      <trkpt lat="47.43828" lon="-2.99822">
        <ele>-3.23</ele>
        <time>2016-08-23T12:10:38Z</time>
      </trkpt>
      <trkpt lat="47.43818" lon="-2.99819">
        <ele>-3.23</ele>
        <time>2016-08-23T12:10:59Z</time>
      </trkpt>
      <trkpt lat="47.4381" lon="-2.9982">
        <ele>-2.75</ele>
        <time>2016-08-23T12:11:15Z</time>
      </trkpt>
      <trkpt lat="47.43798" lon="-2.9982">
        <ele>-1.79</ele>
        <time>2016-08-23T12:11:32Z</time>
      </trkpt>
      <trkpt lat="47.43785" lon="-2.99818">
        <ele>-2.27</ele>
        <time>2016-08-23T12:11:50Z</time>
      </trkpt>
      <trkpt lat="47.43776" lon="-2.99816">
        <ele>-1.79</ele>
        <time>2016-08-23T12:12:03Z</time>
      </trkpt>
      <trkpt lat="47.43764" lon="-2.99815">
        <ele>-1.3</ele>
        <time>2016-08-23T12:12:20Z</time>
      </trkpt>
      <trkpt lat="47.43749" lon="-2.99814">
        <ele>-1.79</ele>
        <time>2016-08-23T12:12:39Z</time>
      </trkpt>
      <trkpt lat="47.43748" lon="-2.99814">
        <ele>-1.79</ele>
        <time>2016-08-23T12:12:40Z</time>
      </trkpt>
      <trkpt lat="47.4373" lon="-2.99813">
        <ele>-2.27</ele>
        <time>2016-08-23T12:13:00Z</time>
      </trkpt>
      <trkpt lat="47.43712" lon="-2.99811">
        <ele>-2.27</ele>
        <time>2016-08-23T12:13:21Z</time>
      </trkpt>
      <trkpt lat="47.43692" lon="-2.99808">
        <ele>-5.15</ele>
        <time>2016-08-23T12:13:44Z</time>
      </trkpt>
      <trkpt lat="47.43682" lon="-2.99805">
        <ele>-4.67</ele>
        <time>2016-08-23T12:13:57Z</time>
      </trkpt>
      <trkpt lat="47.43663" lon="-2.99801">
        <ele>-3.23</ele>
        <time>2016-08-23T12:14:18Z</time>
      </trkpt>
      <trkpt lat="47.43644" lon="-2.99797">
        <ele>-2.75</ele>
        <time>2016-08-23T12:14:38Z</time>
      </trkpt>
      <trkpt lat="47.43626" lon="-2.99793">
        <ele>-2.75</ele>
        <time>2016-08-23T12:14:56Z</time>
      </trkpt>
      <trkpt lat="47.43608" lon="-2.99789">
        <ele>-2.75</ele>
        <time>2016-08-23T12:15:14Z</time>
      </trkpt>
      <trkpt lat="47.43585" lon="-2.99788">
        <ele>-1.79</ele>
        <time>2016-08-23T12:15:33Z</time>
      </trkpt>
      <trkpt lat="47.43565" lon="-2.99785">
        <ele>-1.79</ele>
        <time>2016-08-23T12:15:50Z</time>
      </trkpt>
      <trkpt lat="47.43548" lon="-2.99782">
        <ele>-1.79</ele>
        <time>2016-08-23T12:16:05Z</time>
      </trkpt>
      <trkpt lat="47.43524" lon="-2.99779">
        <ele>-1.79</ele>
        <time>2016-08-23T12:16:24Z</time>
      </trkpt>
      <trkpt lat="47.43493" lon="-2.99776">
        <ele>-3.23</ele>
        <time>2016-08-23T12:16:47Z</time>
      </trkpt>
      <trkpt lat="47.43469" lon="-2.99772">
        <ele>-3.71</ele>
        <time>2016-08-23T12:17:04Z</time>
      </trkpt>
      <trkpt lat="47.4344" lon="-2.99763">
        <ele>-4.19</ele>
        <time>2016-08-23T12:17:25Z</time>
      </trkpt>
      <trkpt lat="47.43416" lon="-2.99755">
        <ele>-5.15</ele>
        <time>2016-08-23T12:17:43Z</time>
      </trkpt>
      <trkpt lat="47.43389" lon="-2.99747">
        <ele>-5.63</ele>
        <time>2016-08-23T12:18:02Z</time>
      </trkpt>
      <trkpt lat="47.43364" lon="-2.99737">
        <ele>-6.11</ele>
        <time>2016-08-23T12:18:20Z</time>
      </trkpt>
      <trkpt lat="47.43345" lon="-2.99728">
        <ele>-5.63</ele>
        <time>2016-08-23T12:18:35Z</time>
      </trkpt>
      <trkpt lat="47.43329" lon="-2.99723">
        <ele>-6.11</ele>
        <time>2016-08-23T12:18:47Z</time>
      </trkpt>
      <trkpt lat="47.43305" lon="-2.99708">
        <ele>-5.63</ele>
        <time>2016-08-23T12:19:08Z</time>
      </trkpt>
      <trkpt lat="47.43281" lon="-2.99694">
        <ele>-6.59</ele>
        <time>2016-08-23T12:19:29Z</time>
      </trkpt>
      <trkpt lat="47.43248" lon="-2.99674">
        <ele>-6.11</ele>
        <time>2016-08-23T12:19:57Z</time>
      </trkpt>
      <trkpt lat="47.43221" lon="-2.99656">
        <ele>-6.11</ele>
        <time>2016-08-23T12:20:22Z</time>
      </trkpt>
      <trkpt lat="47.43189" lon="-2.99641">
        <ele>-4.67</ele>
        <time>2016-08-23T12:20:48Z</time>
      </trkpt>
      <trkpt lat="47.43163" lon="-2.9962">
        <ele>-4.19</ele>
        <time>2016-08-23T12:21:15Z</time>
      </trkpt>
      <trkpt lat="47.43141" lon="-2.99609">
        <ele>-3.71</ele>
        <time>2016-08-23T12:21:36Z</time>
      </trkpt>
      <trkpt lat="47.43125" lon="-2.996">
        <ele>-2.75</ele>
        <time>2016-08-23T12:21:52Z</time>
      </trkpt>
      <trkpt lat="47.43108" lon="-2.99589">
        <ele>-2.75</ele>
        <time>2016-08-23T12:22:10Z</time>
      </trkpt>
      <trkpt lat="47.43088" lon="-2.99573">
        <ele>-1.79</ele>
        <time>2016-08-23T12:22:33Z</time>
      </trkpt>
      <trkpt lat="47.43065" lon="-2.99559">
        <ele>-1.79</ele>
        <time>2016-08-23T12:22:57Z</time>
      </trkpt>
      <trkpt lat="47.43043" lon="-2.99542">
        <ele>-1.79</ele>
        <time>2016-08-23T12:23:23Z</time>
      </trkpt>
      <trkpt lat="47.43025" lon="-2.99533">
        <ele>-2.27</ele>
        <time>2016-08-23T12:23:42Z</time>
      </trkpt>
      <trkpt lat="47.43002" lon="-2.99518">
        <ele>-2.75</ele>
        <time>2016-08-23T12:24:06Z</time>
      </trkpt>
      <trkpt lat="47.42984" lon="-2.99503">
        <ele>-2.75</ele>
        <time>2016-08-23T12:24:29Z</time>
      </trkpt>
      <trkpt lat="47.42965" lon="-2.99492">
        <ele>-2.27</ele>
        <time>2016-08-23T12:24:52Z</time>
      </trkpt>
      <trkpt lat="47.42947" lon="-2.99479">
        <ele>-1.79</ele>
        <time>2016-08-23T12:25:17Z</time>
      </trkpt>
      <trkpt lat="47.42932" lon="-2.99469">
        <ele>-2.75</ele>
        <time>2016-08-23T12:25:39Z</time>
      </trkpt>
      <trkpt lat="47.42917" lon="-2.99462">
        <ele>-2.75</ele>
        <time>2016-08-23T12:25:59Z</time>
      </trkpt>
      <trkpt lat="47.42902" lon="-2.99454">
        <ele>-2.75</ele>
        <time>2016-08-23T12:26:18Z</time>
      </trkpt>
      <trkpt lat="47.42883" lon="-2.99446">
        <ele>-2.75</ele>
        <time>2016-08-23T12:26:38Z</time>
      </trkpt>
      <trkpt lat="47.42861" lon="-2.99435">
        <ele>-2.27</ele>
        <time>2016-08-23T12:27:01Z</time>
      </trkpt>
      <trkpt lat="47.4284" lon="-2.99427">
        <ele>-1.79</ele>
        <time>2016-08-23T12:27:21Z</time>
      </trkpt>
      <trkpt lat="47.42816" lon="-2.99417">
        <ele>-1.79</ele>
        <time>2016-08-23T12:27:41Z</time>
      </trkpt>
      <trkpt lat="47.42794" lon="-2.99405">
        <ele>-1.79</ele>
        <time>2016-08-23T12:28:04Z</time>
      </trkpt>
      <trkpt lat="47.42774" lon="-2.99395">
        <ele>-1.79</ele>
        <time>2016-08-23T12:28:26Z</time>
      </trkpt>
      <trkpt lat="47.42752" lon="-2.99387">
        <ele>-1.79</ele>
        <time>2016-08-23T12:28:48Z</time>
      </trkpt>
      <trkpt lat="47.42727" lon="-2.99378">
        <ele>-1.79</ele>
        <time>2016-08-23T12:29:08Z</time>
      </trkpt>
      <trkpt lat="47.42707" lon="-2.99365">
        <ele>-1.3</ele>
        <time>2016-08-23T12:29:28Z</time>
      </trkpt>
      <trkpt lat="47.42683" lon="-2.99356">
        <ele>-1.79</ele>
        <time>2016-08-23T12:29:50Z</time>
      </trkpt>
      <trkpt lat="47.4266" lon="-2.99346">
        <ele>-2.27</ele>
        <time>2016-08-23T12:30:10Z</time>
      </trkpt>
      <trkpt lat="47.42639" lon="-2.99336">
        <ele>-1.3</ele>
        <time>2016-08-23T12:30:30Z</time>
      </trkpt>
      <trkpt lat="47.42624" lon="-2.99328">
        <ele>-1.3</ele>
        <time>2016-08-23T12:30:46Z</time>
      </trkpt>
      <trkpt lat="47.42611" lon="-2.99316">
        <ele>-0.82</ele>
        <time>2016-08-23T12:31:08Z</time>
      </trkpt>
      <trkpt lat="47.426" lon="-2.99316">
        <ele>-1.79</ele>
        <time>2016-08-23T12:31:23Z</time>
      </trkpt>
      <trkpt lat="47.4258" lon="-2.99312">
        <ele>-0.34</ele>
        <time>2016-08-23T12:31:42Z</time>
      </trkpt>
      <trkpt lat="47.42557" lon="-2.99304">
        <ele>0.14</ele>
        <time>2016-08-23T12:32:01Z</time>
      </trkpt>
      <trkpt lat="47.42534" lon="-2.99295">
        <ele>-0.82</ele>
        <time>2016-08-23T12:32:20Z</time>
      </trkpt>
      <trkpt lat="47.42521" lon="-2.99288">
        <ele>-1.79</ele>
        <time>2016-08-23T12:32:32Z</time>
      </trkpt>
      <trkpt lat="47.42502" lon="-2.99281">
        <ele>-2.27</ele>
        <time>2016-08-23T12:32:50Z</time>
      </trkpt>
      <trkpt lat="47.42486" lon="-2.99275">
        <ele>-1.3</ele>
        <time>2016-08-23T12:33:04Z</time>
      </trkpt>
      <trkpt lat="47.42484" lon="-2.99274">
        <ele>-1.3</ele>
        <time>2016-08-23T12:33:06Z</time>
      </trkpt>
      <trkpt lat="47.42465" lon="-2.99262">
        <ele>-1.3</ele>
        <time>2016-08-23T12:33:26Z</time>
      </trkpt>
      <trkpt lat="47.42446" lon="-2.99253">
        <ele>-1.79</ele>
        <time>2016-08-23T12:33:46Z</time>
      </trkpt>
      <trkpt lat="47.42426" lon="-2.99243">
        <ele>-1.3</ele>
        <time>2016-08-23T12:34:05Z</time>
      </trkpt>
      <trkpt lat="47.42409" lon="-2.99234">
        <ele>-1.3</ele>
        <time>2016-08-23T12:34:23Z</time>
      </trkpt>
      <trkpt lat="47.42392" lon="-2.99227">
        <ele>-1.3</ele>
        <time>2016-08-23T12:34:42Z</time>
      </trkpt>
      <trkpt lat="47.42374" lon="-2.99219">
        <ele>-0.82</ele>
        <time>2016-08-23T12:35:00Z</time>
      </trkpt>
      <trkpt lat="47.42354" lon="-2.99213">
        <ele>-0.34</ele>
        <time>2016-08-23T12:35:20Z</time>
      </trkpt>
      <trkpt lat="47.42333" lon="-2.99204">
        <ele>-1.3</ele>
        <time>2016-08-23T12:35:39Z</time>
      </trkpt>
      <trkpt lat="47.42318" lon="-2.99196">
        <ele>-1.3</ele>
        <time>2016-08-23T12:35:56Z</time>
      </trkpt>
      <trkpt lat="47.42299" lon="-2.9919">
        <ele>-1.3</ele>
        <time>2016-08-23T12:36:16Z</time>
      </trkpt>
      <trkpt lat="47.42284" lon="-2.99184">
        <ele>-1.3</ele>
        <time>2016-08-23T12:36:33Z</time>
      </trkpt>
      <trkpt lat="47.42271" lon="-2.9918">
        <ele>-1.79</ele>
        <time>2016-08-23T12:36:47Z</time>
      </trkpt>
      <trkpt lat="47.42253" lon="-2.99176">
        <ele>-2.27</ele>
        <time>2016-08-23T12:37:05Z</time>
      </trkpt>
      <trkpt lat="47.42239" lon="-2.99175">
        <ele>-1.79</ele>
        <time>2016-08-23T12:37:17Z</time>
      </trkpt>
      <trkpt lat="47.42217" lon="-2.99167">
        <ele>-3.23</ele>
        <time>2016-08-23T12:37:37Z</time>
      </trkpt>
      <trkpt lat="47.422" lon="-2.9916">
        <ele>-2.27</ele>
        <time>2016-08-23T12:37:53Z</time>
      </trkpt>
      <trkpt lat="47.42183" lon="-2.99153">
        <ele>-1.79</ele>
        <time>2016-08-23T12:38:12Z</time>
      </trkpt>
      <trkpt lat="47.42164" lon="-2.99147">
        <ele>-1.3</ele>
        <time>2016-08-23T12:38:33Z</time>
      </trkpt>
      <trkpt lat="47.42145" lon="-2.99143">
        <ele>-1.3</ele>
        <time>2016-08-23T12:38:51Z</time>
      </trkpt>
      <trkpt lat="47.42123" lon="-2.99132">
        <ele>-0.82</ele>
        <time>2016-08-23T12:39:14Z</time>
      </trkpt>
      <trkpt lat="47.42114" lon="-2.99128">
        <ele>-0.82</ele>
        <time>2016-08-23T12:39:24Z</time>
      </trkpt>
      <trkpt lat="47.42099" lon="-2.99122">
        <ele>-1.3</ele>
        <time>2016-08-23T12:39:39Z</time>
      </trkpt>
      <trkpt lat="47.42077" lon="-2.99111">
        <ele>-0.34</ele>
        <time>2016-08-23T12:40:03Z</time>
      </trkpt>
      <trkpt lat="47.42061" lon="-2.99104">
        <ele>0.14</ele>
        <time>2016-08-23T12:40:22Z</time>
      </trkpt>
      <trkpt lat="47.42038" lon="-2.99099">
        <ele>-0.34</ele>
        <time>2016-08-23T12:40:44Z</time>
      </trkpt>
      <trkpt lat="47.4201" lon="-2.99093">
        <ele>0.14</ele>
        <time>2016-08-23T12:41:03Z</time>
      </trkpt>
      <trkpt lat="47.41984" lon="-2.9908">
        <ele>0.14</ele>
        <time>2016-08-23T12:41:22Z</time>
      </trkpt>
      <trkpt lat="47.41958" lon="-2.99069">
        <ele>-0.34</ele>
        <time>2016-08-23T12:41:42Z</time>
      </trkpt>
      <trkpt lat="47.41932" lon="-2.99058">
        <ele>-0.82</ele>
        <time>2016-08-23T12:42:03Z</time>
      </trkpt>
      <trkpt lat="47.41904" lon="-2.99044">
        <ele>-0.82</ele>
        <time>2016-08-23T12:42:25Z</time>
      </trkpt>
      <trkpt lat="47.41879" lon="-2.99033">
        <ele>-0.82</ele>
        <time>2016-08-23T12:42:46Z</time>
      </trkpt>
      <trkpt lat="47.41854" lon="-2.99023">
        <ele>-1.79</ele>
        <time>2016-08-23T12:43:04Z</time>
      </trkpt>
      <trkpt lat="47.41826" lon="-2.99012">
        <ele>-1.3</ele>
        <time>2016-08-23T12:43:23Z</time>
      </trkpt>
      <trkpt lat="47.41791" lon="-2.98998">
        <ele>-0.82</ele>
        <time>2016-08-23T12:43:46Z</time>
      </trkpt>
      <trkpt lat="47.41764" lon="-2.98984">
        <ele>-0.82</ele>
        <time>2016-08-23T12:44:05Z</time>
      </trkpt>
      <trkpt lat="47.41739" lon="-2.98968">
        <ele>-0.34</ele>
        <time>2016-08-23T12:44:25Z</time>
      </trkpt>
      <trkpt lat="47.41713" lon="-2.98954">
        <ele>-0.82</ele>
        <time>2016-08-23T12:44:47Z</time>
      </trkpt>
      <trkpt lat="47.4169" lon="-2.98943">
        <ele>-0.82</ele>
        <time>2016-08-23T12:45:05Z</time>
      </trkpt>
      <trkpt lat="47.41667" lon="-2.98929">
        <ele>-0.34</ele>
        <time>2016-08-23T12:45:25Z</time>
      </trkpt>
      <trkpt lat="47.41646" lon="-2.98916">
        <ele>-0.82</ele>
        <time>2016-08-23T12:45:45Z</time>
      </trkpt>
      <trkpt lat="47.41627" lon="-2.98905">
        <ele>-1.3</ele>
        <time>2016-08-23T12:46:03Z</time>
      </trkpt>
      <trkpt lat="47.41605" lon="-2.98887">
        <ele>-2.27</ele>
        <time>2016-08-23T12:46:27Z</time>
      </trkpt>
      <trkpt lat="47.41587" lon="-2.98879">
        <ele>-0.82</ele>
        <time>2016-08-23T12:46:43Z</time>
      </trkpt>
      <trkpt lat="47.4157" lon="-2.98863">
        <ele>-0.82</ele>
        <time>2016-08-23T12:47:03Z</time>
      </trkpt>
      <trkpt lat="47.4155" lon="-2.98851">
        <ele>-1.3</ele>
        <time>2016-08-23T12:47:22Z</time>
      </trkpt>
      <trkpt lat="47.4153" lon="-2.98837">
        <ele>-0.82</ele>
        <time>2016-08-23T12:47:39Z</time>
      </trkpt>
      <trkpt lat="47.41505" lon="-2.98817">
        <ele>-2.27</ele>
        <time>2016-08-23T12:48:01Z</time>
      </trkpt>
      <trkpt lat="47.41477" lon="-2.98801">
        <ele>-2.27</ele>
        <time>2016-08-23T12:48:23Z</time>
      </trkpt>
      <trkpt lat="47.41452" lon="-2.98783">
        <ele>-2.75</ele>
        <time>2016-08-23T12:48:43Z</time>
      </trkpt>
      <trkpt lat="47.41426" lon="-2.98765">
        <ele>-2.75</ele>
        <time>2016-08-23T12:49:03Z</time>
      </trkpt>
      <trkpt lat="47.41402" lon="-2.98749">
        <ele>-2.75</ele>
        <time>2016-08-23T12:49:21Z</time>
      </trkpt>
      <trkpt lat="47.41382" lon="-2.9873">
        <ele>-2.75</ele>
        <time>2016-08-23T12:49:39Z</time>
      </trkpt>
      <trkpt lat="47.41366" lon="-2.98717">
        <ele>-1.79</ele>
        <time>2016-08-23T12:49:53Z</time>
      </trkpt>
      <trkpt lat="47.41341" lon="-2.98701">
        <ele>-1.79</ele>
        <time>2016-08-23T12:50:13Z</time>
      </trkpt>
      <trkpt lat="47.41322" lon="-2.98685">
        <ele>-2.75</ele>
        <time>2016-08-23T12:50:29Z</time>
      </trkpt>
      <trkpt lat="47.41299" lon="-2.98671">
        <ele>-3.23</ele>
        <time>2016-08-23T12:50:47Z</time>
      </trkpt>
      <trkpt lat="47.41287" lon="-2.9866">
        <ele>-2.27</ele>
        <time>2016-08-23T12:50:57Z</time>
      </trkpt>
      <trkpt lat="47.41269" lon="-2.98645">
        <ele>-1.79</ele>
        <time>2016-08-23T12:51:12Z</time>
      </trkpt>
      <trkpt lat="47.4125" lon="-2.98632">
        <ele>-1.3</ele>
        <time>2016-08-23T12:51:29Z</time>
      </trkpt>
      <trkpt lat="47.41226" lon="-2.98615">
        <ele>-1.79</ele>
        <time>2016-08-23T12:51:49Z</time>
      </trkpt>
      <trkpt lat="47.41206" lon="-2.98604">
        <ele>-2.27</ele>
        <time>2016-08-23T12:52:04Z</time>
      </trkpt>
      <trkpt lat="47.41176" lon="-2.98585">
        <ele>-2.75</ele>
        <time>2016-08-23T12:52:24Z</time>
      </trkpt>
      <trkpt lat="47.41151" lon="-2.9857">
        <ele>-2.75</ele>
        <time>2016-08-23T12:52:42Z</time>
      </trkpt>
      <trkpt lat="47.41134" lon="-2.98556">
        <ele>-1.79</ele>
        <time>2016-08-23T12:52:55Z</time>
      </trkpt>
      <trkpt lat="47.41111" lon="-2.98538">
        <ele>-2.27</ele>
        <time>2016-08-23T12:53:14Z</time>
      </trkpt>
      <trkpt lat="47.41091" lon="-2.98518">
        <ele>-2.27</ele>
        <time>2016-08-23T12:53:33Z</time>
      </trkpt>
      <trkpt lat="47.41077" lon="-2.98504">
        <ele>-1.79</ele>
        <time>2016-08-23T12:53:48Z</time>
      </trkpt>
      <trkpt lat="47.41066" lon="-2.98495">
        <ele>-1.79</ele>
        <time>2016-08-23T12:53:58Z</time>
      </trkpt>
      <trkpt lat="47.41049" lon="-2.98481">
        <ele>-1.79</ele>
        <time>2016-08-23T12:54:14Z</time>
      </trkpt>
      <trkpt lat="47.41029" lon="-2.98466">
        <ele>-0.82</ele>
        <time>2016-08-23T12:54:31Z</time>
      </trkpt>
      <trkpt lat="47.41003" lon="-2.9845">
        <ele>-0.82</ele>
        <time>2016-08-23T12:54:50Z</time>
      </trkpt>
      <trkpt lat="47.40983" lon="-2.98432">
        <ele>-0.82</ele>
        <time>2016-08-23T12:55:07Z</time>
      </trkpt>
      <trkpt lat="47.40961" lon="-2.98415">
        <ele>0.14</ele>
        <time>2016-08-23T12:55:26Z</time>
      </trkpt>
      <trkpt lat="47.40948" lon="-2.98407">
        <ele>-0.34</ele>
        <time>2016-08-23T12:55:37Z</time>
      </trkpt>
      <trkpt lat="47.40932" lon="-2.98398">
        <ele>-0.82</ele>
        <time>2016-08-23T12:55:52Z</time>
      </trkpt>
      <trkpt lat="47.4093" lon="-2.98397">
        <ele>-0.82</ele>
        <time>2016-08-23T12:55:53Z</time>
      </trkpt>
      <trkpt lat="47.40907" lon="-2.98382">
        <ele>1.58</ele>
        <time>2016-08-23T12:56:13Z</time>
      </trkpt>
      <trkpt lat="47.40886" lon="-2.98366">
        <ele>0.14</ele>
        <time>2016-08-23T12:56:31Z</time>
      </trkpt>
      <trkpt lat="47.40867" lon="-2.9835">
        <ele>-1.3</ele>
        <time>2016-08-23T12:56:49Z</time>
      </trkpt>
      <trkpt lat="47.40851" lon="-2.98336">
        <ele>-0.82</ele>
        <time>2016-08-23T12:57:08Z</time>
      </trkpt>
      <trkpt lat="47.40837" lon="-2.98328">
        <ele>-2.27</ele>
        <time>2016-08-23T12:57:24Z</time>
      </trkpt>
      <trkpt lat="47.40831" lon="-2.98326">
        <ele>-1.79</ele>
        <time>2016-08-23T12:57:30Z</time>
      </trkpt>
      <trkpt lat="47.40825" lon="-2.98323">
        <ele>-1.3</ele>
        <time>2016-08-23T12:57:35Z</time>
      </trkpt>
      <trkpt lat="47.4082" lon="-2.9832">
        <ele>-1.3</ele>
        <time>2016-08-23T12:57:41Z</time>
      </trkpt>
      <trkpt lat="47.40815" lon="-2.98316">
        <ele>-1.79</ele>
        <time>2016-08-23T12:57:46Z</time>
      </trkpt>
      <trkpt lat="47.40799" lon="-2.98307">
        <ele>-2.27</ele>
        <time>2016-08-23T12:58:02Z</time>
      </trkpt>
      <trkpt lat="47.40779" lon="-2.98297">
        <ele>-1.3</ele>
        <time>2016-08-23T12:58:22Z</time>
      </trkpt>
      <trkpt lat="47.40768" lon="-2.98292">
        <ele>-1.79</ele>
        <time>2016-08-23T12:58:38Z</time>
      </trkpt>
      <trkpt lat="47.40741" lon="-2.98293">
        <ele>-1.3</ele>
        <time>2016-08-23T12:58:58Z</time>
      </trkpt>
      <trkpt lat="47.40725" lon="-2.98286">
        <ele>-1.3</ele>
        <time>2016-08-23T12:59:13Z</time>
      </trkpt>
      <trkpt lat="47.40699" lon="-2.9828">
        <ele>-1.3</ele>
        <time>2016-08-23T12:59:31Z</time>
      </trkpt>
      <trkpt lat="47.40682" lon="-2.98275">
        <ele>-1.3</ele>
        <time>2016-08-23T12:59:41Z</time>
      </trkpt>
      <trkpt lat="47.40674" lon="-2.98273">
        <ele>-1.3</ele>
        <time>2016-08-23T12:59:46Z</time>
      </trkpt>
      <trkpt lat="47.40642" lon="-2.98267">
        <ele>-2.75</ele>
        <time>2016-08-23T13:00:04Z</time>
      </trkpt>
      <trkpt lat="47.40611" lon="-2.98267">
        <ele>-1.79</ele>
        <time>2016-08-23T13:00:24Z</time>
      </trkpt>
      <trkpt lat="47.40584" lon="-2.98265">
        <ele>-1.3</ele>
        <time>2016-08-23T13:00:41Z</time>
      </trkpt>
      <trkpt lat="47.40552" lon="-2.98264">
        <ele>-1.3</ele>
        <time>2016-08-23T13:01:00Z</time>
      </trkpt>
      <trkpt lat="47.40516" lon="-2.9826">
        <ele>0.14</ele>
        <time>2016-08-23T13:01:20Z</time>
      </trkpt>
      <trkpt lat="47.40481" lon="-2.98259">
        <ele>0.14</ele>
        <time>2016-08-23T13:01:39Z</time>
      </trkpt>
      <trkpt lat="47.40452" lon="-2.98256">
        <ele>-0.82</ele>
        <time>2016-08-23T13:01:55Z</time>
      </trkpt>
      <trkpt lat="47.40417" lon="-2.98254">
        <ele>-1.3</ele>
        <time>2016-08-23T13:02:15Z</time>
      </trkpt>
      <trkpt lat="47.40386" lon="-2.9825">
        <ele>-1.3</ele>
        <time>2016-08-23T13:02:33Z</time>
      </trkpt>
      <trkpt lat="47.40358" lon="-2.98252">
        <ele>-0.34</ele>
        <time>2016-08-23T13:02:50Z</time>
      </trkpt>
      <trkpt lat="47.40323" lon="-2.98244">
        <ele>-1.3</ele>
        <time>2016-08-23T13:03:10Z</time>
      </trkpt>
      <trkpt lat="47.40299" lon="-2.98235">
        <ele>-0.82</ele>
        <time>2016-08-23T13:03:25Z</time>
      </trkpt>
      <trkpt lat="47.40297" lon="-2.98231">
        <ele>-0.82</ele>
        <time>2016-08-23T13:03:28Z</time>
      </trkpt>
      <trkpt lat="47.40303" lon="-2.98203">
        <ele>-1.79</ele>
        <time>2016-08-23T13:03:42Z</time>
      </trkpt>
      <trkpt lat="47.40304" lon="-2.98169">
        <ele>-2.27</ele>
        <time>2016-08-23T13:03:59Z</time>
      </trkpt>
      <trkpt lat="47.40306" lon="-2.98153">
        <ele>-2.27</ele>
        <time>2016-08-23T13:04:06Z</time>
      </trkpt>
      <trkpt lat="47.40306" lon="-2.98151">
        <ele>-2.27</ele>
        <time>2016-08-23T13:04:08Z</time>
      </trkpt>
      <trkpt lat="47.40308" lon="-2.98128">
        <ele>-0.82</ele>
        <time>2016-08-23T13:04:20Z</time>
      </trkpt>
      <trkpt lat="47.40308" lon="-2.98119">
        <ele>0.14</ele>
        <time>2016-08-23T13:04:25Z</time>
      </trkpt>
      <trkpt lat="47.40311" lon="-2.98083">
        <ele>0.14</ele>
        <time>2016-08-23T13:04:43Z</time>
      </trkpt>
      <trkpt lat="47.40308" lon="-2.98068">
        <ele>-0.82</ele>
        <time>2016-08-23T13:05:01Z</time>
      </trkpt>
      <trkpt lat="47.40313" lon="-2.98056">
        <ele>-0.34</ele>
        <time>2016-08-23T13:05:08Z</time>
      </trkpt>
      <trkpt lat="47.40317" lon="-2.98013">
        <ele>0.14</ele>
        <time>2016-08-23T13:05:27Z</time>
      </trkpt>
      <trkpt lat="47.40321" lon="-2.97964">
        <ele>-0.34</ele>
        <time>2016-08-23T13:05:47Z</time>
      </trkpt>
      <trkpt lat="47.40325" lon="-2.97914">
        <ele>-0.34</ele>
        <time>2016-08-23T13:06:07Z</time>
      </trkpt>
      <trkpt lat="47.40327" lon="-2.97856">
        <ele>0.14</ele>
        <time>2016-08-23T13:06:27Z</time>
      </trkpt>
      <trkpt lat="47.40334" lon="-2.97794">
        <ele>0.62</ele>
        <time>2016-08-23T13:06:49Z</time>
      </trkpt>
      <trkpt lat="47.40331" lon="-2.97753">
        <ele>-0.34</ele>
        <time>2016-08-23T13:07:03Z</time>
      </trkpt>
      <trkpt lat="47.40327" lon="-2.97704">
        <ele>0.14</ele>
        <time>2016-08-23T13:07:24Z</time>
      </trkpt>
      <trkpt lat="47.40325" lon="-2.97674">
        <ele>-1.3</ele>
        <time>2016-08-23T13:07:37Z</time>
      </trkpt>
      <trkpt lat="47.40325" lon="-2.97629">
        <ele>-0.34</ele>
        <time>2016-08-23T13:07:56Z</time>
      </trkpt>
      <trkpt lat="47.40325" lon="-2.97563">
        <ele>0.14</ele>
        <time>2016-08-23T13:08:20Z</time>
      </trkpt>
      <trkpt lat="47.40322" lon="-2.97502">
        <ele>1.1</ele>
        <time>2016-08-23T13:08:42Z</time>
      </trkpt>
      <trkpt lat="47.4032" lon="-2.97446">
        <ele>0.14</ele>
        <time>2016-08-23T13:09:03Z</time>
      </trkpt>
      <trkpt lat="47.40316" lon="-2.97385">
        <ele>0.14</ele>
        <time>2016-08-23T13:09:25Z</time>
      </trkpt>
      <trkpt lat="47.40314" lon="-2.97326">
        <ele>0.14</ele>
        <time>2016-08-23T13:09:47Z</time>
      </trkpt>
      <trkpt lat="47.40313" lon="-2.97264">
        <ele>0.14</ele>
        <time>2016-08-23T13:10:09Z</time>
      </trkpt>
      <trkpt lat="47.40313" lon="-2.97207">
        <ele>0.14</ele>
        <time>2016-08-23T13:10:28Z</time>
      </trkpt>
      <trkpt lat="47.40312" lon="-2.97156">
        <ele>1.1</ele>
        <time>2016-08-23T13:10:46Z</time>
      </trkpt>
      <trkpt lat="47.40309" lon="-2.97105">
        <ele>0.14</ele>
        <time>2016-08-23T13:11:06Z</time>
      </trkpt>
      <trkpt lat="47.40305" lon="-2.97067">
        <ele>-0.34</ele>
        <time>2016-08-23T13:11:22Z</time>
      </trkpt>
      <trkpt lat="47.40303" lon="-2.9701">
        <ele>0.62</ele>
        <time>2016-08-23T13:11:43Z</time>
      </trkpt>
      <trkpt lat="47.40296" lon="-2.96965">
        <ele>0.62</ele>
        <time>2016-08-23T13:12:01Z</time>
      </trkpt>
      <trkpt lat="47.40291" lon="-2.96918">
        <ele>0.14</ele>
        <time>2016-08-23T13:12:22Z</time>
      </trkpt>
      <trkpt lat="47.40292" lon="-2.96862">
        <ele>0.62</ele>
        <time>2016-08-23T13:12:43Z</time>
      </trkpt>
      <trkpt lat="47.40291" lon="-2.96798">
        <ele>1.1</ele>
        <time>2016-08-23T13:13:06Z</time>
      </trkpt>
      <trkpt lat="47.40287" lon="-2.96744">
        <ele>1.1</ele>
        <time>2016-08-23T13:13:25Z</time>
      </trkpt>
      <trkpt lat="47.40285" lon="-2.96695">
        <ele>1.1</ele>
        <time>2016-08-23T13:13:44Z</time>
      </trkpt>
      <trkpt lat="47.40284" lon="-2.96661">
        <ele>0.62</ele>
        <time>2016-08-23T13:13:57Z</time>
      </trkpt>
      <trkpt lat="47.40279" lon="-2.9661">
        <ele>1.58</ele>
        <time>2016-08-23T13:14:19Z</time>
      </trkpt>
      <trkpt lat="47.40278" lon="-2.96566">
        <ele>2.06</ele>
        <time>2016-08-23T13:14:42Z</time>
      </trkpt>
      <trkpt lat="47.40277" lon="-2.96528">
        <ele>1.1</ele>
        <time>2016-08-23T13:15:01Z</time>
      </trkpt>
      <trkpt lat="47.40281" lon="-2.96474">
        <ele>1.58</ele>
        <time>2016-08-23T13:15:22Z</time>
      </trkpt>
      <trkpt lat="47.4029" lon="-2.96425">
        <ele>0.62</ele>
        <time>2016-08-23T13:15:40Z</time>
      </trkpt>
      <trkpt lat="47.40295" lon="-2.96374">
        <ele>1.58</ele>
        <time>2016-08-23T13:15:59Z</time>
      </trkpt>
      <trkpt lat="47.40293" lon="-2.9633">
        <ele>1.1</ele>
        <time>2016-08-23T13:16:17Z</time>
      </trkpt>
      <trkpt lat="47.40289" lon="-2.96293">
        <ele>0.62</ele>
        <time>2016-08-23T13:16:34Z</time>
      </trkpt>
      <trkpt lat="47.40285" lon="-2.96239">
        <ele>1.58</ele>
        <time>2016-08-23T13:16:59Z</time>
      </trkpt>
      <trkpt lat="47.40278" lon="-2.96189">
        <ele>0.14</ele>
        <time>2016-08-23T13:17:23Z</time>
      </trkpt>
      <trkpt lat="47.40276" lon="-2.9618">
        <ele>0.62</ele>
        <time>2016-08-23T13:17:28Z</time>
      </trkpt>
      <trkpt lat="47.40274" lon="-2.96171">
        <ele>0.62</ele>
        <time>2016-08-23T13:17:33Z</time>
      </trkpt>
      <trkpt lat="47.40268" lon="-2.96139">
        <ele>-0.34</ele>
        <time>2016-08-23T13:17:55Z</time>
      </trkpt>
      <trkpt lat="47.40268" lon="-2.96133">
        <ele>0.14</ele>
        <time>2016-08-23T13:17:59Z</time>
      </trkpt>
      <trkpt lat="47.40266" lon="-2.96122">
        <ele>0.14</ele>
        <time>2016-08-23T13:18:07Z</time>
      </trkpt>
      <trkpt lat="47.40263" lon="-2.96104">
        <ele>0.62</ele>
        <time>2016-08-23T13:18:20Z</time>
      </trkpt>
      <trkpt lat="47.40258" lon="-2.96075">
        <ele>-0.34</ele>
        <time>2016-08-23T13:18:40Z</time>
      </trkpt>
      <trkpt lat="47.40257" lon="-2.96063">
        <ele>-0.82</ele>
        <time>2016-08-23T13:18:51Z</time>
      </trkpt>
      <trkpt lat="47.40253" lon="-2.96044">
        <ele>-0.82</ele>
        <time>2016-08-23T13:19:06Z</time>
      </trkpt>
      <trkpt lat="47.40241" lon="-2.96012">
        <ele>-0.34</ele>
        <time>2016-08-23T13:19:24Z</time>
      </trkpt>
      <trkpt lat="47.40227" lon="-2.95986">
        <ele>-0.34</ele>
        <time>2016-08-23T13:19:38Z</time>
      </trkpt>
      <trkpt lat="47.40211" lon="-2.95967">
        <ele>0.14</ele>
        <time>2016-08-23T13:19:51Z</time>
      </trkpt>
      <trkpt lat="47.40195" lon="-2.95942">
        <ele>0.62</ele>
        <time>2016-08-23T13:20:05Z</time>
      </trkpt>
      <trkpt lat="47.40184" lon="-2.95921">
        <ele>0.14</ele>
        <time>2016-08-23T13:20:16Z</time>
      </trkpt>
      <trkpt lat="47.40166" lon="-2.95891">
        <ele>-0.34</ele>
        <time>2016-08-23T13:20:32Z</time>
      </trkpt>
      <trkpt lat="47.4015" lon="-2.95862">
        <ele>-0.82</ele>
        <time>2016-08-23T13:20:46Z</time>
      </trkpt>
      <trkpt lat="47.40133" lon="-2.95844">
        <ele>-1.3</ele>
        <time>2016-08-23T13:20:59Z</time>
      </trkpt>
      <trkpt lat="47.40124" lon="-2.95832">
        <ele>-2.27</ele>
        <time>2016-08-23T13:21:06Z</time>
      </trkpt>
      <trkpt lat="47.40117" lon="-2.95821">
        <ele>-0.82</ele>
        <time>2016-08-23T13:21:13Z</time>
      </trkpt>
      <trkpt lat="47.40094" lon="-2.95783">
        <ele>-1.3</ele>
        <time>2016-08-23T13:21:33Z</time>
      </trkpt>
      <trkpt lat="47.40075" lon="-2.95756">
        <ele>-0.34</ele>
        <time>2016-08-23T13:21:50Z</time>
      </trkpt>
      <trkpt lat="47.40057" lon="-2.95719">
        <ele>-0.82</ele>
        <time>2016-08-23T13:22:08Z</time>
      </trkpt>
      <trkpt lat="47.40056" lon="-2.95718">
        <ele>-0.82</ele>
        <time>2016-08-23T13:22:09Z</time>
      </trkpt>
      <trkpt lat="47.40051" lon="-2.95708">
        <ele>-1.79</ele>
        <time>2016-08-23T13:22:14Z</time>
      </trkpt>
      <trkpt lat="47.4003" lon="-2.95669">
        <ele>-2.75</ele>
        <time>2016-08-23T13:22:34Z</time>
      </trkpt>
      <trkpt lat="47.40016" lon="-2.95649">
        <ele>0.14</ele>
        <time>2016-08-23T13:22:46Z</time>
      </trkpt>
      <trkpt lat="47.40003" lon="-2.95623">
        <ele>-2.75</ele>
        <time>2016-08-23T13:23:00Z</time>
      </trkpt>
      <trkpt lat="47.39986" lon="-2.95591">
        <ele>-3.71</ele>
        <time>2016-08-23T13:23:17Z</time>
      </trkpt>
      <trkpt lat="47.39979" lon="-2.95577">
        <ele>-2.75</ele>
        <time>2016-08-23T13:23:24Z</time>
      </trkpt>
      <trkpt lat="47.39967" lon="-2.95552">
        <ele>-1.3</ele>
        <time>2016-08-23T13:23:37Z</time>
      </trkpt>
      <trkpt lat="47.39948" lon="-2.95524">
        <ele>-0.34</ele>
        <time>2016-08-23T13:23:53Z</time>
      </trkpt>
      <trkpt lat="47.39926" lon="-2.955">
        <ele>0.14</ele>
        <time>2016-08-23T13:24:10Z</time>
      </trkpt>
      <trkpt lat="47.399" lon="-2.95465">
        <ele>-0.34</ele>
        <time>2016-08-23T13:24:31Z</time>
      </trkpt>
      <trkpt lat="47.39882" lon="-2.95438">
        <ele>-0.34</ele>
        <time>2016-08-23T13:24:45Z</time>
      </trkpt>
      <trkpt lat="47.39865" lon="-2.95412">
        <ele>-0.82</ele>
        <time>2016-08-23T13:24:58Z</time>
      </trkpt>
      <trkpt lat="47.39849" lon="-2.95385">
        <ele>-0.34</ele>
        <time>2016-08-23T13:25:12Z</time>
      </trkpt>
      <trkpt lat="47.39833" lon="-2.9536">
        <ele>-0.82</ele>
        <time>2016-08-23T13:25:26Z</time>
      </trkpt>
      <trkpt lat="47.39811" lon="-2.9533">
        <ele>-0.82</ele>
        <time>2016-08-23T13:25:43Z</time>
      </trkpt>
      <trkpt lat="47.39788" lon="-2.95285">
        <ele>0.14</ele>
        <time>2016-08-23T13:26:04Z</time>
      </trkpt>
      <trkpt lat="47.39772" lon="-2.95241">
        <ele>1.1</ele>
        <time>2016-08-23T13:26:22Z</time>
      </trkpt>
      <trkpt lat="47.39764" lon="-2.95199">
        <ele>0.14</ele>
        <time>2016-08-23T13:26:37Z</time>
      </trkpt>
      <trkpt lat="47.39758" lon="-2.95151">
        <ele>0.14</ele>
        <time>2016-08-23T13:26:54Z</time>
      </trkpt>
      <trkpt lat="47.39751" lon="-2.95095">
        <ele>0.14</ele>
        <time>2016-08-23T13:27:13Z</time>
      </trkpt>
      <trkpt lat="47.39739" lon="-2.95025">
        <ele>-0.82</ele>
        <time>2016-08-23T13:27:36Z</time>
      </trkpt>
      <trkpt lat="47.39729" lon="-2.94967">
        <ele>-0.34</ele>
        <time>2016-08-23T13:27:56Z</time>
      </trkpt>
      <trkpt lat="47.39721" lon="-2.94913">
        <ele>0.14</ele>
        <time>2016-08-23T13:28:15Z</time>
      </trkpt>
      <trkpt lat="47.39714" lon="-2.94879">
        <ele>-0.34</ele>
        <time>2016-08-23T13:28:31Z</time>
      </trkpt>
      <trkpt lat="47.39701" lon="-2.94861">
        <ele>-1.3</ele>
        <time>2016-08-23T13:28:50Z</time>
      </trkpt>
      <trkpt lat="47.3969" lon="-2.94852">
        <ele>-2.27</ele>
        <time>2016-08-23T13:29:05Z</time>
      </trkpt>
      <trkpt lat="47.39682" lon="-2.94843">
        <ele>-2.75</ele>
        <time>2016-08-23T13:29:19Z</time>
      </trkpt>
      <trkpt lat="47.39675" lon="-2.94831">
        <ele>-2.27</ele>
        <time>2016-08-23T13:29:36Z</time>
      </trkpt>
      <trkpt lat="47.39667" lon="-2.94818">
        <ele>-1.3</ele>
        <time>2016-08-23T13:29:53Z</time>
      </trkpt>
      <trkpt lat="47.39662" lon="-2.94803">
        <ele>-1.3</ele>
        <time>2016-08-23T13:30:11Z</time>
      </trkpt>
      <trkpt lat="47.39659" lon="-2.94792">
        <ele>-1.3</ele>
        <time>2016-08-23T13:30:22Z</time>
      </trkpt>
      <trkpt lat="47.3965" lon="-2.94767">
        <ele>-1.79</ele>
        <time>2016-08-23T13:30:42Z</time>
      </trkpt>
      <trkpt lat="47.39642" lon="-2.94739">
        <ele>-1.79</ele>
        <time>2016-08-23T13:31:02Z</time>
      </trkpt>
      <trkpt lat="47.3963" lon="-2.94714">
        <ele>-2.27</ele>
        <time>2016-08-23T13:31:23Z</time>
      </trkpt>
      <trkpt lat="47.39625" lon="-2.94707">
        <ele>-2.27</ele>
        <time>2016-08-23T13:31:32Z</time>
      </trkpt>
      <trkpt lat="47.39624" lon="-2.94705">
        <ele>-2.27</ele>
        <time>2016-08-23T13:31:34Z</time>
      </trkpt>
      <trkpt lat="47.39613" lon="-2.94692">
        <ele>-1.79</ele>
        <time>2016-08-23T13:31:51Z</time>
      </trkpt>
      <trkpt lat="47.39606" lon="-2.9468">
        <ele>-0.82</ele>
        <time>2016-08-23T13:32:07Z</time>
      </trkpt>
      <trkpt lat="47.39598" lon="-2.94665">
        <ele>-1.3</ele>
        <time>2016-08-23T13:32:23Z</time>
      </trkpt>
      <trkpt lat="47.39594" lon="-2.94659">
        <ele>-1.79</ele>
        <time>2016-08-23T13:32:31Z</time>
      </trkpt>
      <trkpt lat="47.39584" lon="-2.9464">
        <ele>-0.82</ele>
        <time>2016-08-23T13:32:46Z</time>
      </trkpt>
      <trkpt lat="47.3957" lon="-2.94619">
        <ele>-1.3</ele>
        <time>2016-08-23T13:33:02Z</time>
      </trkpt>
      <trkpt lat="47.39558" lon="-2.94599">
        <ele>-1.79</ele>
        <time>2016-08-23T13:33:18Z</time>
      </trkpt>
      <trkpt lat="47.39553" lon="-2.94589">
        <ele>-1.3</ele>
        <time>2016-08-23T13:33:27Z</time>
      </trkpt>
      <trkpt lat="47.39552" lon="-2.94585">
        <ele>-1.79</ele>
        <time>2016-08-23T13:33:30Z</time>
      </trkpt>
      <trkpt lat="47.39545" lon="-2.94572">
        <ele>-2.27</ele>
        <time>2016-08-23T13:33:45Z</time>
      </trkpt>
      <trkpt lat="47.39544" lon="-2.9457">
        <ele>-2.27</ele>
        <time>2016-08-23T13:34:01Z</time>
      </trkpt>
      <trkpt lat="47.39543" lon="-2.94568">
        <ele>-1.79</ele>
        <time>2016-08-23T13:34:24Z</time>
      </trkpt>
      <trkpt lat="47.39542" lon="-2.94565">
        <ele>-1.3</ele>
        <time>2016-08-23T13:34:43Z</time>
      </trkpt>
      <trkpt lat="47.39544" lon="-2.94555">
        <ele>-2.27</ele>
        <time>2016-08-23T13:35:02Z</time>
      </trkpt>
      <trkpt lat="47.39542" lon="-2.94545">
        <ele>-2.75</ele>
        <time>2016-08-23T13:35:23Z</time>
      </trkpt>
      <trkpt lat="47.39537" lon="-2.94535">
        <ele>-1.79</ele>
        <time>2016-08-23T13:35:42Z</time>
      </trkpt>
      <trkpt lat="47.39535" lon="-2.94532">
        <ele>-0.82</ele>
        <time>2016-08-23T13:35:55Z</time>
      </trkpt>
      <trkpt lat="47.39535" lon="-2.94529">
        <ele>-0.34</ele>
        <time>2016-08-23T13:36:06Z</time>
      </trkpt>
      <trkpt lat="47.39535" lon="-2.94527">
        <ele>-0.34</ele>
        <time>2016-08-23T13:36:25Z</time>
      </trkpt>
      <trkpt lat="47.39527" lon="-2.94514">
        <ele>0.14</ele>
        <time>2016-08-23T13:36:38Z</time>
      </trkpt>
      <trkpt lat="47.39512" lon="-2.94499">
        <ele>-0.82</ele>
        <time>2016-08-23T13:36:54Z</time>
      </trkpt>
      <trkpt lat="47.39495" lon="-2.94487">
        <ele>-0.82</ele>
        <time>2016-08-23T13:37:13Z</time>
      </trkpt>
      <trkpt lat="47.39486" lon="-2.94483">
        <ele>-0.82</ele>
        <time>2016-08-23T13:37:26Z</time>
      </trkpt>
      <trkpt lat="47.39476" lon="-2.94478">
        <ele>-0.34</ele>
        <time>2016-08-23T13:37:43Z</time>
      </trkpt>
      <trkpt lat="47.39473" lon="-2.94476">
        <ele>-0.34</ele>
        <time>2016-08-23T13:37:55Z</time>
      </trkpt>
      <trkpt lat="47.3947" lon="-2.94473">
        <ele>-0.34</ele>
        <time>2016-08-23T13:38:09Z</time>
      </trkpt>
      <trkpt lat="47.39468" lon="-2.94472">
        <ele>0.14</ele>
        <time>2016-08-23T13:38:31Z</time>
      </trkpt>
      <trkpt lat="47.39468" lon="-2.94476">
        <ele>0.14</ele>
        <time>2016-08-23T13:38:50Z</time>
      </trkpt>
      <trkpt lat="47.39468" lon="-2.94478">
        <ele>0.14</ele>
        <time>2016-08-23T13:39:06Z</time>
      </trkpt>
      <trkpt lat="47.39467" lon="-2.94481">
        <ele>0.62</ele>
        <time>2016-08-23T13:39:25Z</time>
      </trkpt>
      <trkpt lat="47.39468" lon="-2.94483">
        <ele>0.14</ele>
        <time>2016-08-23T13:39:42Z</time>
      </trkpt>
      <trkpt lat="47.39469" lon="-2.94484">
        <ele>-0.34</ele>
        <time>2016-08-23T13:40:00Z</time>
      </trkpt>
      <trkpt lat="47.39473" lon="-2.94483">
        <ele>-0.34</ele>
        <time>2016-08-23T13:40:09Z</time>
      </trkpt>
      <trkpt lat="47.39474" lon="-2.94483">
        <ele>-0.34</ele>
        <time>2016-08-23T13:40:16Z</time>
      </trkpt>
      <trkpt lat="47.39476" lon="-2.94482">
        <ele>-0.34</ele>
        <time>2016-08-23T13:40:28Z</time>
      </trkpt>
      <trkpt lat="47.39477" lon="-2.94481">
        <ele>-0.34</ele>
        <time>2016-08-23T13:40:47Z</time>
      </trkpt>
      <trkpt lat="47.39479" lon="-2.94479">
        <ele>-0.34</ele>
        <time>2016-08-23T13:41:03Z</time>
      </trkpt>
      <trkpt lat="47.3948" lon="-2.94478">
        <ele>-0.34</ele>
        <time>2016-08-23T13:41:21Z</time>
      </trkpt>
      <trkpt lat="47.39482" lon="-2.94475">
        <ele>0.14</ele>
        <time>2016-08-23T13:41:44Z</time>
      </trkpt>
      <trkpt lat="47.39482" lon="-2.94474">
        <ele>0.14</ele>
        <time>2016-08-23T13:42:00Z</time>
      </trkpt>
      <trkpt lat="47.39482" lon="-2.94473">
        <ele>0.14</ele>
        <time>2016-08-23T13:42:15Z</time>
      </trkpt>
      <trkpt lat="47.39482" lon="-2.94473">
        <ele>0.14</ele>
        <time>2016-08-23T13:42:37Z</time>
      </trkpt>
      <trkpt lat="47.39482" lon="-2.94473">
        <ele>0.14</ele>
        <time>2016-08-23T13:42:55Z</time>
      </trkpt>
      <trkpt lat="47.39482" lon="-2.94474">
        <ele>0.14</ele>
        <time>2016-08-23T13:43:22Z</time>
      </trkpt>
      <trkpt lat="47.39483" lon="-2.94476">
        <ele>0.14</ele>
        <time>2016-08-23T13:43:34Z</time>
      </trkpt>
      <trkpt lat="47.39483" lon="-2.94476">
        <ele>0.14</ele>
        <time>2016-08-23T13:43:36Z</time>
      </trkpt>
      <trkpt lat="47.39471" lon="-2.94466">
        <ele>3.5</ele>
        <time>2016-08-23T15:33:32Z</time>
      </trkpt>
      <trkpt lat="47.39477" lon="-2.94461">
        <ele>1.1</ele>
        <time>2016-08-23T15:33:53Z</time>
      </trkpt>
      <trkpt lat="47.39482" lon="-2.94463">
        <ele>1.58</ele>
        <time>2016-08-23T15:34:09Z</time>
      </trkpt>
      <trkpt lat="47.39503" lon="-2.94496">
        <ele>1.58</ele>
        <time>2016-08-23T15:34:30Z</time>
      </trkpt>
      <trkpt lat="47.39528" lon="-2.94559">
        <ele>1.58</ele>
        <time>2016-08-23T15:34:57Z</time>
      </trkpt>
      <trkpt lat="47.39531" lon="-2.94612">
        <ele>1.1</ele>
        <time>2016-08-23T15:35:19Z</time>
      </trkpt>
      <trkpt lat="47.39537" lon="-2.94661">
        <ele>1.1</ele>
        <time>2016-08-23T15:35:40Z</time>
      </trkpt>
      <trkpt lat="47.39544" lon="-2.94716">
        <ele>1.1</ele>
        <time>2016-08-23T15:36:04Z</time>
      </trkpt>
      <trkpt lat="47.39551" lon="-2.94769">
        <ele>1.58</ele>
        <time>2016-08-23T15:36:26Z</time>
      </trkpt>
      <trkpt lat="47.39556" lon="-2.94811">
        <ele>1.58</ele>
        <time>2016-08-23T15:36:44Z</time>
      </trkpt>
      <trkpt lat="47.39559" lon="-2.94846">
        <ele>2.06</ele>
        <time>2016-08-23T15:36:59Z</time>
      </trkpt>
      <trkpt lat="47.3956" lon="-2.9486">
        <ele>1.58</ele>
        <time>2016-08-23T15:37:05Z</time>
      </trkpt>
      <trkpt lat="47.39561" lon="-2.94881">
        <ele>1.58</ele>
        <time>2016-08-23T15:37:15Z</time>
      </trkpt>
      <trkpt lat="47.39561" lon="-2.94928">
        <ele>2.06</ele>
        <time>2016-08-23T15:37:36Z</time>
      </trkpt>
      <trkpt lat="47.39539" lon="-2.94957">
        <ele>3.02</ele>
        <time>2016-08-23T15:37:57Z</time>
      </trkpt>
      <trkpt lat="47.39507" lon="-2.94988">
        <ele>3.02</ele>
        <time>2016-08-23T15:38:21Z</time>
      </trkpt>
      <trkpt lat="47.39482" lon="-2.95019">
        <ele>3.02</ele>
        <time>2016-08-23T15:38:43Z</time>
      </trkpt>
      <trkpt lat="47.39449" lon="-2.9506">
        <ele>3.02</ele>
        <time>2016-08-23T15:39:11Z</time>
      </trkpt>
      <trkpt lat="47.39422" lon="-2.95091">
        <ele>3.98</ele>
        <time>2016-08-23T15:39:34Z</time>
      </trkpt>
      <trkpt lat="47.3941" lon="-2.95105">
        <ele>3.5</ele>
        <time>2016-08-23T15:39:57Z</time>
      </trkpt>
      <trkpt lat="47.39404" lon="-2.95114">
        <ele>3.5</ele>
        <time>2016-08-23T15:40:22Z</time>
      </trkpt>
      <trkpt lat="47.39404" lon="-2.95116">
        <ele>3.98</ele>
        <time>2016-08-23T15:40:48Z</time>
      </trkpt>
      <trkpt lat="47.39404" lon="-2.95114">
        <ele>3.5</ele>
        <time>2016-08-23T15:41:11Z</time>
      </trkpt>
      <trkpt lat="47.39405" lon="-2.95111">
        <ele>3.5</ele>
        <time>2016-08-23T15:41:38Z</time>
      </trkpt>
      <trkpt lat="47.39407" lon="-2.95108">
        <ele>3.5</ele>
        <time>2016-08-23T15:42:00Z</time>
      </trkpt>
      <trkpt lat="47.39409" lon="-2.95106">
        <ele>2.54</ele>
        <time>2016-08-23T15:42:20Z</time>
      </trkpt>
      <trkpt lat="47.3941" lon="-2.95106">
        <ele>2.06</ele>
        <time>2016-08-23T15:42:43Z</time>
      </trkpt>
      <trkpt lat="47.39411" lon="-2.95107">
        <ele>1.58</ele>
        <time>2016-08-23T15:43:04Z</time>
      </trkpt>
      <trkpt lat="47.39413" lon="-2.95109">
        <ele>1.58</ele>
        <time>2016-08-23T15:43:27Z</time>
      </trkpt>
      <trkpt lat="47.39414" lon="-2.95112">
        <ele>0.62</ele>
        <time>2016-08-23T15:43:47Z</time>
      </trkpt>
      <trkpt lat="47.39415" lon="-2.95114">
        <ele>0.62</ele>
        <time>2016-08-23T15:44:10Z</time>
      </trkpt>
      <trkpt lat="47.39416" lon="-2.95114">
        <ele>0.62</ele>
        <time>2016-08-23T15:44:36Z</time>
      </trkpt>
      <trkpt lat="47.39416" lon="-2.95115">
        <ele>1.1</ele>
        <time>2016-08-23T15:45:02Z</time>
      </trkpt>
      <trkpt lat="47.39422" lon="-2.95113">
        <ele>1.58</ele>
        <time>2016-08-23T15:45:29Z</time>
      </trkpt>
      <trkpt lat="47.39413" lon="-2.95117">
        <ele>1.1</ele>
        <time>2016-08-23T15:45:48Z</time>
      </trkpt>
      <trkpt lat="47.39403" lon="-2.95132">
        <ele>1.58</ele>
        <time>2016-08-23T15:46:07Z</time>
      </trkpt>
      <trkpt lat="47.3939" lon="-2.95154">
        <ele>3.02</ele>
        <time>2016-08-23T15:46:30Z</time>
      </trkpt>
      <trkpt lat="47.39378" lon="-2.95186">
        <ele>3.5</ele>
        <time>2016-08-23T15:46:53Z</time>
      </trkpt>
      <trkpt lat="47.39362" lon="-2.95241">
        <ele>3.02</ele>
        <time>2016-08-23T15:47:17Z</time>
      </trkpt>
      <trkpt lat="47.39343" lon="-2.95291">
        <ele>2.54</ele>
        <time>2016-08-23T15:47:38Z</time>
      </trkpt>
      <trkpt lat="47.39328" lon="-2.95343">
        <ele>3.02</ele>
        <time>2016-08-23T15:48:00Z</time>
      </trkpt>
      <trkpt lat="47.39317" lon="-2.95378">
        <ele>3.02</ele>
        <time>2016-08-23T15:48:18Z</time>
      </trkpt>
      <trkpt lat="47.39305" lon="-2.95421">
        <ele>3.5</ele>
        <time>2016-08-23T15:48:38Z</time>
      </trkpt>
      <trkpt lat="47.39292" lon="-2.95459">
        <ele>3.5</ele>
        <time>2016-08-23T15:48:54Z</time>
      </trkpt>
      <trkpt lat="47.39273" lon="-2.95499">
        <ele>3.02</ele>
        <time>2016-08-23T15:49:12Z</time>
      </trkpt>
      <trkpt lat="47.39262" lon="-2.95545">
        <ele>3.02</ele>
        <time>2016-08-23T15:49:34Z</time>
      </trkpt>
      <trkpt lat="47.39271" lon="-2.95598">
        <ele>3.5</ele>
        <time>2016-08-23T15:50:03Z</time>
      </trkpt>
      <trkpt lat="47.39278" lon="-2.95627">
        <ele>3.98</ele>
        <time>2016-08-23T15:50:27Z</time>
      </trkpt>
      <trkpt lat="47.39281" lon="-2.95629">
        <ele>4.46</ele>
        <time>2016-08-23T15:50:50Z</time>
      </trkpt>
      <trkpt lat="47.39273" lon="-2.95612">
        <ele>3.98</ele>
        <time>2016-08-23T15:51:16Z</time>
      </trkpt>
      <trkpt lat="47.39263" lon="-2.95589">
        <ele>3.98</ele>
        <time>2016-08-23T15:51:48Z</time>
      </trkpt>
      <trkpt lat="47.39268" lon="-2.9559">
        <ele>3.98</ele>
        <time>2016-08-23T15:52:11Z</time>
      </trkpt>
      <trkpt lat="47.39275" lon="-2.95589">
        <ele>3.5</ele>
        <time>2016-08-23T15:52:32Z</time>
      </trkpt>
      <trkpt lat="47.39276" lon="-2.95589">
        <ele>2.06</ele>
        <time>2016-08-23T15:52:59Z</time>
      </trkpt>
      <trkpt lat="47.39278" lon="-2.95587">
        <ele>2.54</ele>
        <time>2016-08-23T15:53:25Z</time>
      </trkpt>
      <trkpt lat="47.39278" lon="-2.95587">
        <ele>2.54</ele>
        <time>2016-08-23T15:53:53Z</time>
      </trkpt>
      <trkpt lat="47.39277" lon="-2.95587">
        <ele>2.06</ele>
        <time>2016-08-23T15:54:14Z</time>
      </trkpt>
      <trkpt lat="47.39278" lon="-2.95587">
        <ele>1.58</ele>
        <time>2016-08-23T15:54:36Z</time>
      </trkpt>
      <trkpt lat="47.39278" lon="-2.95586">
        <ele>1.1</ele>
        <time>2016-08-23T15:54:58Z</time>
      </trkpt>
      <trkpt lat="47.39278" lon="-2.95586">
        <ele>0.14</ele>
        <time>2016-08-23T15:55:26Z</time>
      </trkpt>
      <trkpt lat="47.39278" lon="-2.95586">
        <ele>-0.34</ele>
        <time>2016-08-23T15:55:53Z</time>
      </trkpt>
      <trkpt lat="47.39278" lon="-2.95586">
        <ele>-0.82</ele>
        <time>2016-08-23T15:56:16Z</time>
      </trkpt>
      <trkpt lat="47.39279" lon="-2.95585">
        <ele>-1.3</ele>
        <time>2016-08-23T15:56:43Z</time>
      </trkpt>
      <trkpt lat="47.39279" lon="-2.95585">
        <ele>-1.3</ele>
        <time>2016-08-23T15:57:07Z</time>
      </trkpt>
      <trkpt lat="47.39278" lon="-2.95585">
        <ele>-1.3</ele>
        <time>2016-08-23T15:57:27Z</time>
      </trkpt>
      <trkpt lat="47.39278" lon="-2.95585">
        <ele>-1.79</ele>
        <time>2016-08-23T15:57:52Z</time>
      </trkpt>
      <trkpt lat="47.39278" lon="-2.95584">
        <ele>-1.79</ele>
        <time>2016-08-23T15:58:22Z</time>
      </trkpt>
      <trkpt lat="47.39278" lon="-2.95584">
        <ele>-1.79</ele>
        <time>2016-08-23T15:58:46Z</time>
      </trkpt>
      <trkpt lat="47.39279" lon="-2.95585">
        <ele>-1.3</ele>
        <time>2016-08-23T15:59:15Z</time>
      </trkpt>
      <trkpt lat="47.39278" lon="-2.95586">
        <ele>-1.3</ele>
        <time>2016-08-23T15:59:44Z</time>
      </trkpt>
      <trkpt lat="47.39278" lon="-2.95585">
        <ele>-0.82</ele>
        <time>2016-08-23T16:00:09Z</time>
      </trkpt>
      <trkpt lat="47.39278" lon="-2.95585">
        <ele>-0.34</ele>
        <time>2016-08-23T16:00:31Z</time>
      </trkpt>
      <trkpt lat="47.39277" lon="-2.95585">
        <ele>-0.82</ele>
        <time>2016-08-23T16:00:50Z</time>
      </trkpt>
      <trkpt lat="47.39277" lon="-2.95586">
        <ele>-0.34</ele>
        <time>2016-08-23T16:01:09Z</time>
      </trkpt>
      <trkpt lat="47.39277" lon="-2.95586">
        <ele>-0.34</ele>
        <time>2016-08-23T16:01:12Z</time>
      </trkpt>
      <trkpt lat="47.39312" lon="-2.95777">
        <ele>3.02</ele>
        <time>2016-08-23T16:14:53Z</time>
      </trkpt>
      <trkpt lat="47.39312" lon="-2.9578">
        <ele>3.5</ele>
        <time>2016-08-23T16:14:54Z</time>
      </trkpt>
      <trkpt lat="47.393" lon="-2.9579">
        <ele>6.39</ele>
        <time>2016-08-23T16:15:12Z</time>
      </trkpt>
      <trkpt lat="47.3929" lon="-2.95802">
        <ele>7.35</ele>
        <time>2016-08-23T16:15:29Z</time>
      </trkpt>
      <trkpt lat="47.39281" lon="-2.95815">
        <ele>6.87</ele>
        <time>2016-08-23T16:15:46Z</time>
      </trkpt>
      <trkpt lat="47.39271" lon="-2.95829">
        <ele>5.42</ele>
        <time>2016-08-23T16:16:02Z</time>
      </trkpt>
      <trkpt lat="47.3926" lon="-2.95838">
        <ele>6.39</ele>
        <time>2016-08-23T16:16:18Z</time>
      </trkpt>
      <trkpt lat="47.39253" lon="-2.95843">
        <ele>7.35</ele>
        <time>2016-08-23T16:16:34Z</time>
      </trkpt>
      <trkpt lat="47.3925" lon="-2.95847">
        <ele>7.83</ele>
        <time>2016-08-23T16:16:50Z</time>
      </trkpt>
      <trkpt lat="47.39248" lon="-2.9585">
        <ele>8.79</ele>
        <time>2016-08-23T16:17:05Z</time>
      </trkpt>
      <trkpt lat="47.3924" lon="-2.95861">
        <ele>10.23</ele>
        <time>2016-08-23T16:17:18Z</time>
      </trkpt>
      <trkpt lat="47.39238" lon="-2.95869">
        <ele>11.67</ele>
        <time>2016-08-23T16:17:27Z</time>
      </trkpt>
      <trkpt lat="47.39233" lon="-2.95874">
        <ele>12.63</ele>
        <time>2016-08-23T16:17:36Z</time>
      </trkpt>
      <trkpt lat="47.39229" lon="-2.95879">
        <ele>11.19</ele>
        <time>2016-08-23T16:17:42Z</time>
      </trkpt>
      <trkpt lat="47.39217" lon="-2.95896">
        <ele>10.23</ele>
        <time>2016-08-23T16:17:58Z</time>
      </trkpt>
      <trkpt lat="47.39205" lon="-2.95914">
        <ele>12.15</ele>
        <time>2016-08-23T16:18:13Z</time>
      </trkpt>
      <trkpt lat="47.39206" lon="-2.95923">
        <ele>12.15</ele>
        <time>2016-08-23T16:18:22Z</time>
      </trkpt>
      <trkpt lat="47.39213" lon="-2.95915">
        <ele>11.19</ele>
        <time>2016-08-23T16:18:31Z</time>
      </trkpt>
      <trkpt lat="47.39219" lon="-2.95914">
        <ele>10.71</ele>
        <time>2016-08-23T16:18:47Z</time>
      </trkpt>
      <trkpt lat="47.39219" lon="-2.95914">
        <ele>10.23</ele>
        <time>2016-08-23T16:18:57Z</time>
      </trkpt>
      <trkpt lat="47.39216" lon="-2.95916">
        <ele>10.23</ele>
        <time>2016-08-23T16:19:02Z</time>
      </trkpt>
      <trkpt lat="47.39212" lon="-2.95921">
        <ele>9.27</ele>
        <time>2016-08-23T16:19:07Z</time>
      </trkpt>
      <trkpt lat="47.3921" lon="-2.95922">
        <ele>8.79</ele>
        <time>2016-08-23T16:19:09Z</time>
      </trkpt>
      <trkpt lat="47.39195" lon="-2.95928">
        <ele>8.31</ele>
        <time>2016-08-23T16:19:22Z</time>
      </trkpt>
      <trkpt lat="47.39188" lon="-2.95933">
        <ele>9.75</ele>
        <time>2016-08-23T16:19:29Z</time>
      </trkpt>
      <trkpt lat="47.39173" lon="-2.95953">
        <ele>14.08</ele>
        <time>2016-08-23T16:19:46Z</time>
      </trkpt>
      <trkpt lat="47.39159" lon="-2.9597">
        <ele>15.04</ele>
        <time>2016-08-23T16:20:01Z</time>
      </trkpt>
      <trkpt lat="47.39155" lon="-2.95973">
        <ele>16.96</ele>
        <time>2016-08-23T16:20:05Z</time>
      </trkpt>
      <trkpt lat="47.39152" lon="-2.95974">
        <ele>17.44</ele>
        <time>2016-08-23T16:20:07Z</time>
      </trkpt>
      <trkpt lat="47.39149" lon="-2.95975">
        <ele>17.92</ele>
        <time>2016-08-23T16:20:10Z</time>
      </trkpt>
      <trkpt lat="47.39138" lon="-2.95978">
        <ele>19.84</ele>
        <time>2016-08-23T16:20:20Z</time>
      </trkpt>
      <trkpt lat="47.39128" lon="-2.9598">
        <ele>22.73</ele>
        <time>2016-08-23T16:20:30Z</time>
      </trkpt>
      <trkpt lat="47.39117" lon="-2.95985">
        <ele>23.69</ele>
        <time>2016-08-23T16:20:40Z</time>
      </trkpt>
      <trkpt lat="47.39111" lon="-2.95987">
        <ele>23.69</ele>
        <time>2016-08-23T16:20:44Z</time>
      </trkpt>
      <trkpt lat="47.3911" lon="-2.95988">
        <ele>24.17</ele>
        <time>2016-08-23T16:20:46Z</time>
      </trkpt>
      <trkpt lat="47.39103" lon="-2.95987">
        <ele>26.09</ele>
        <time>2016-08-23T16:20:53Z</time>
      </trkpt>
      <trkpt lat="47.39097" lon="-2.95984">
        <ele>27.53</ele>
        <time>2016-08-23T16:20:59Z</time>
      </trkpt>
      <trkpt lat="47.39084" lon="-2.95986">
        <ele>27.53</ele>
        <time>2016-08-23T16:21:10Z</time>
      </trkpt>
      <trkpt lat="47.39075" lon="-2.95982">
        <ele>27.53</ele>
        <time>2016-08-23T16:21:19Z</time>
      </trkpt>
      <trkpt lat="47.39075" lon="-2.95984">
        <ele>27.53</ele>
        <time>2016-08-23T16:21:29Z</time>
      </trkpt>
      <trkpt lat="47.39067" lon="-2.95973">
        <ele>27.53</ele>
        <time>2016-08-23T16:21:40Z</time>
      </trkpt>
      <trkpt lat="47.39058" lon="-2.95957">
        <ele>28.5</ele>
        <time>2016-08-23T16:21:51Z</time>
      </trkpt>
      <trkpt lat="47.39057" lon="-2.95955">
        <ele>28.98</ele>
        <time>2016-08-23T16:21:52Z</time>
      </trkpt>
      <trkpt lat="47.39055" lon="-2.95948">
        <ele>29.94</ele>
        <time>2016-08-23T16:21:57Z</time>
      </trkpt>
      <trkpt lat="47.39049" lon="-2.95943">
        <ele>30.42</ele>
        <time>2016-08-23T16:22:01Z</time>
      </trkpt>
      <trkpt lat="47.39042" lon="-2.95942">
        <ele>29.94</ele>
        <time>2016-08-23T16:22:13Z</time>
      </trkpt>
      <trkpt lat="47.39044" lon="-2.95942">
        <ele>29.94</ele>
        <time>2016-08-23T16:22:30Z</time>
      </trkpt>
      <trkpt lat="47.39038" lon="-2.9594">
        <ele>29.94</ele>
        <time>2016-08-23T16:22:40Z</time>
      </trkpt>
      <trkpt lat="47.39028" lon="-2.9594">
        <ele>27.53</ele>
        <time>2016-08-23T16:22:51Z</time>
      </trkpt>
      <trkpt lat="47.39027" lon="-2.95943">
        <ele>27.53</ele>
        <time>2016-08-23T16:22:57Z</time>
      </trkpt>
      <trkpt lat="47.3903" lon="-2.95947">
        <ele>28.02</ele>
        <time>2016-08-23T16:23:01Z</time>
      </trkpt>
      <trkpt lat="47.39031" lon="-2.95952">
        <ele>27.53</ele>
        <time>2016-08-23T16:23:05Z</time>
      </trkpt>
      <trkpt lat="47.39032" lon="-2.95955">
        <ele>28.02</ele>
        <time>2016-08-23T16:23:13Z</time>
      </trkpt>
      <trkpt lat="47.39031" lon="-2.95967">
        <ele>27.53</ele>
        <time>2016-08-23T16:23:21Z</time>
      </trkpt>
      <trkpt lat="47.39031" lon="-2.95967">
        <ele>27.53</ele>
        <time>2016-08-23T16:23:24Z</time>
      </trkpt>
      <trkpt lat="47.39032" lon="-2.95986">
        <ele>27.53</ele>
        <time>2016-08-23T16:23:34Z</time>
      </trkpt>
      <trkpt lat="47.39033" lon="-2.96005">
        <ele>28.98</ele>
        <time>2016-08-23T16:23:44Z</time>
      </trkpt>
      <trkpt lat="47.39034" lon="-2.96018">
        <ele>29.46</ele>
        <time>2016-08-23T16:23:52Z</time>
      </trkpt>
      <trkpt lat="47.39032" lon="-2.96032">
        <ele>28.5</ele>
        <time>2016-08-23T16:24:00Z</time>
      </trkpt>
      <trkpt lat="47.39028" lon="-2.96042">
        <ele>28.5</ele>
        <time>2016-08-23T16:24:07Z</time>
      </trkpt>
      <trkpt lat="47.3902" lon="-2.96059">
        <ele>28.98</ele>
        <time>2016-08-23T16:24:20Z</time>
      </trkpt>
      <trkpt lat="47.39014" lon="-2.96068">
        <ele>29.46</ele>
        <time>2016-08-23T16:24:29Z</time>
      </trkpt>
      <trkpt lat="47.38998" lon="-2.96081">
        <ele>29.94</ele>
        <time>2016-08-23T16:24:42Z</time>
      </trkpt>
      <trkpt lat="47.38996" lon="-2.96081">
        <ele>29.46</ele>
        <time>2016-08-23T16:24:45Z</time>
      </trkpt>
      <trkpt lat="47.38988" lon="-2.96087">
        <ele>28.98</ele>
        <time>2016-08-23T16:24:55Z</time>
      </trkpt>
      <trkpt lat="47.38978" lon="-2.96093">
        <ele>29.94</ele>
        <time>2016-08-23T16:25:01Z</time>
      </trkpt>
      <trkpt lat="47.38977" lon="-2.96095">
        <ele>29.46</ele>
        <time>2016-08-23T16:25:05Z</time>
      </trkpt>
      <trkpt lat="47.38971" lon="-2.96098">
        <ele>29.94</ele>
        <time>2016-08-23T16:25:10Z</time>
      </trkpt>
      <trkpt lat="47.38956" lon="-2.96106">
        <ele>29.94</ele>
        <time>2016-08-23T16:25:24Z</time>
      </trkpt>
      <trkpt lat="47.38953" lon="-2.96107">
        <ele>29.94</ele>
        <time>2016-08-23T16:25:27Z</time>
      </trkpt>
      <trkpt lat="47.38949" lon="-2.96107">
        <ele>30.42</ele>
        <time>2016-08-23T16:25:31Z</time>
      </trkpt>
      <trkpt lat="47.38943" lon="-2.96111">
        <ele>30.42</ele>
        <time>2016-08-23T16:25:37Z</time>
      </trkpt>
      <trkpt lat="47.38932" lon="-2.96116">
        <ele>31.86</ele>
        <time>2016-08-23T16:25:48Z</time>
      </trkpt>
      <trkpt lat="47.38923" lon="-2.96119">
        <ele>30.9</ele>
        <time>2016-08-23T16:25:59Z</time>
      </trkpt>
      <trkpt lat="47.3892" lon="-2.96119">
        <ele>30.9</ele>
        <time>2016-08-23T16:26:09Z</time>
      </trkpt>
      <trkpt lat="47.38914" lon="-2.96122">
        <ele>31.86</ele>
        <time>2016-08-23T16:26:20Z</time>
      </trkpt>
      <trkpt lat="47.38914" lon="-2.96122">
        <ele>31.86</ele>
        <time>2016-08-23T16:26:22Z</time>
      </trkpt>
      <trkpt lat="47.38922" lon="-2.9612">
        <ele>29.94</ele>
        <time>2016-08-23T16:26:31Z</time>
      </trkpt>
      <trkpt lat="47.38919" lon="-2.96115">
        <ele>29.94</ele>
        <time>2016-08-23T16:26:34Z</time>
      </trkpt>
      <trkpt lat="47.38914" lon="-2.96122">
        <ele>31.86</ele>
        <time>2016-08-23T16:26:42Z</time>
      </trkpt>
      <trkpt lat="47.38899" lon="-2.96131">
        <ele>31.86</ele>
        <time>2016-08-23T16:26:56Z</time>
      </trkpt>
      <trkpt lat="47.3889" lon="-2.96137">
        <ele>32.34</ele>
        <time>2016-08-23T16:27:05Z</time>
      </trkpt>
      <trkpt lat="47.38887" lon="-2.96138">
        <ele>32.82</ele>
        <time>2016-08-23T16:27:08Z</time>
      </trkpt>
      <trkpt lat="47.38885" lon="-2.9614">
        <ele>32.82</ele>
        <time>2016-08-23T16:27:10Z</time>
      </trkpt>
      <trkpt lat="47.38875" lon="-2.96142">
        <ele>33.78</ele>
        <time>2016-08-23T16:27:19Z</time>
      </trkpt>
      <trkpt lat="47.38865" lon="-2.96115">
        <ele>34.74</ele>
        <time>2016-08-23T16:27:31Z</time>
      </trkpt>
      <trkpt lat="47.38861" lon="-2.96094">
        <ele>33.3</ele>
        <time>2016-08-23T16:27:43Z</time>
      </trkpt>
      <trkpt lat="47.38855" lon="-2.9608">
        <ele>33.3</ele>
        <time>2016-08-23T16:27:53Z</time>
      </trkpt>
      <trkpt lat="47.38851" lon="-2.96073">
        <ele>33.78</ele>
        <time>2016-08-23T16:27:59Z</time>
      </trkpt>
      <trkpt lat="47.38846" lon="-2.9607">
        <ele>33.78</ele>
        <time>2016-08-23T16:28:02Z</time>
      </trkpt>
      <trkpt lat="47.38843" lon="-2.96068">
        <ele>33.3</ele>
        <time>2016-08-23T16:28:09Z</time>
      </trkpt>
      <trkpt lat="47.38836" lon="-2.96069">
        <ele>33.3</ele>
        <time>2016-08-23T16:28:13Z</time>
      </trkpt>
      <trkpt lat="47.38833" lon="-2.96068">
        <ele>33.3</ele>
        <time>2016-08-23T16:28:17Z</time>
      </trkpt>
      <trkpt lat="47.38828" lon="-2.9607">
        <ele>33.3</ele>
        <time>2016-08-23T16:28:22Z</time>
      </trkpt>
      <trkpt lat="47.38821" lon="-2.9607">
        <ele>33.78</ele>
        <time>2016-08-23T16:28:28Z</time>
      </trkpt>
      <trkpt lat="47.38816" lon="-2.96071">
        <ele>33.78</ele>
        <time>2016-08-23T16:28:33Z</time>
      </trkpt>
      <trkpt lat="47.38809" lon="-2.96075">
        <ele>33.78</ele>
        <time>2016-08-23T16:28:38Z</time>
      </trkpt>
      <trkpt lat="47.38799" lon="-2.96081">
        <ele>33.78</ele>
        <time>2016-08-23T16:28:49Z</time>
      </trkpt>
      <trkpt lat="47.38796" lon="-2.96084">
        <ele>34.74</ele>
        <time>2016-08-23T16:28:53Z</time>
      </trkpt>
      <trkpt lat="47.38794" lon="-2.96088">
        <ele>34.74</ele>
        <time>2016-08-23T16:29:02Z</time>
      </trkpt>
      <trkpt lat="47.38799" lon="-2.96099">
        <ele>36.19</ele>
        <time>2016-08-23T16:29:09Z</time>
      </trkpt>
      <trkpt lat="47.38801" lon="-2.96102">
        <ele>36.19</ele>
        <time>2016-08-23T16:29:13Z</time>
      </trkpt>
      <trkpt lat="47.38801" lon="-2.96107">
        <ele>36.67</ele>
        <time>2016-08-23T16:29:16Z</time>
      </trkpt>
      <trkpt lat="47.38802" lon="-2.96111">
        <ele>36.67</ele>
        <time>2016-08-23T16:29:19Z</time>
      </trkpt>
      <trkpt lat="47.38801" lon="-2.96115">
        <ele>36.67</ele>
        <time>2016-08-23T16:29:22Z</time>
      </trkpt>
      <trkpt lat="47.388" lon="-2.96119">
        <ele>36.67</ele>
        <time>2016-08-23T16:29:34Z</time>
      </trkpt>
      <trkpt lat="47.38799" lon="-2.96119">
        <ele>36.67</ele>
        <time>2016-08-23T16:29:36Z</time>
      </trkpt>
      <trkpt lat="47.38794" lon="-2.96106">
        <ele>36.67</ele>
        <time>2016-08-23T16:29:44Z</time>
      </trkpt>
      <trkpt lat="47.38794" lon="-2.96099">
        <ele>37.15</ele>
        <time>2016-08-23T16:29:48Z</time>
      </trkpt>
      <trkpt lat="47.3879" lon="-2.96089">
        <ele>36.67</ele>
        <time>2016-08-23T16:29:52Z</time>
      </trkpt>
      <trkpt lat="47.38781" lon="-2.96086">
        <ele>35.23</ele>
        <time>2016-08-23T16:30:01Z</time>
      </trkpt>
      <trkpt lat="47.38767" lon="-2.96094">
        <ele>35.71</ele>
        <time>2016-08-23T16:30:12Z</time>
      </trkpt>
      <trkpt lat="47.38765" lon="-2.96094">
        <ele>35.71</ele>
        <time>2016-08-23T16:30:18Z</time>
      </trkpt>
      <trkpt lat="47.38754" lon="-2.96097">
        <ele>35.23</ele>
        <time>2016-08-23T16:30:24Z</time>
      </trkpt>
      <trkpt lat="47.38743" lon="-2.96098">
        <ele>35.23</ele>
        <time>2016-08-23T16:30:35Z</time>
      </trkpt>
      <trkpt lat="47.38738" lon="-2.961">
        <ele>34.74</ele>
        <time>2016-08-23T16:30:39Z</time>
      </trkpt>
      <trkpt lat="47.38726" lon="-2.96103">
        <ele>32.82</ele>
        <time>2016-08-23T16:30:50Z</time>
      </trkpt>
      <trkpt lat="47.38714" lon="-2.96107">
        <ele>33.3</ele>
        <time>2016-08-23T16:31:01Z</time>
      </trkpt>
      <trkpt lat="47.387" lon="-2.96112">
        <ele>34.74</ele>
        <time>2016-08-23T16:31:12Z</time>
      </trkpt>
      <trkpt lat="47.38691" lon="-2.96118">
        <ele>36.19</ele>
        <time>2016-08-23T16:31:20Z</time>
      </trkpt>
      <trkpt lat="47.38689" lon="-2.96128">
        <ele>36.67</ele>
        <time>2016-08-23T16:31:27Z</time>
      </trkpt>
      <trkpt lat="47.38689" lon="-2.96139">
        <ele>37.15</ele>
        <time>2016-08-23T16:31:35Z</time>
      </trkpt>
      <trkpt lat="47.3869" lon="-2.96164">
        <ele>37.15</ele>
        <time>2016-08-23T16:31:50Z</time>
      </trkpt>
      <trkpt lat="47.38695" lon="-2.96196">
        <ele>38.11</ele>
        <time>2016-08-23T16:32:08Z</time>
      </trkpt>
      <trkpt lat="47.38696" lon="-2.96207">
        <ele>38.11</ele>
        <time>2016-08-23T16:32:14Z</time>
      </trkpt>
      <trkpt lat="47.38698" lon="-2.96214">
        <ele>38.11</ele>
        <time>2016-08-23T16:32:21Z</time>
      </trkpt>
      <trkpt lat="47.38698" lon="-2.9621">
        <ele>37.63</ele>
        <time>2016-08-23T16:32:24Z</time>
      </trkpt>
      <trkpt lat="47.38701" lon="-2.96234">
        <ele>37.63</ele>
        <time>2016-08-23T16:32:37Z</time>
      </trkpt>
      <trkpt lat="47.38702" lon="-2.96244">
        <ele>38.59</ele>
        <time>2016-08-23T16:32:43Z</time>
      </trkpt>
      <trkpt lat="47.38701" lon="-2.96258">
        <ele>37.15</ele>
        <time>2016-08-23T16:32:50Z</time>
      </trkpt>
      <trkpt lat="47.38701" lon="-2.96274">
        <ele>36.19</ele>
        <time>2016-08-23T16:33:01Z</time>
      </trkpt>
      <trkpt lat="47.387" lon="-2.96288">
        <ele>36.19</ele>
        <time>2016-08-23T16:33:09Z</time>
      </trkpt>
      <trkpt lat="47.387" lon="-2.96307">
        <ele>37.15</ele>
        <time>2016-08-23T16:33:20Z</time>
      </trkpt>
      <trkpt lat="47.38702" lon="-2.96317">
        <ele>37.15</ele>
        <time>2016-08-23T16:33:29Z</time>
      </trkpt>
      <trkpt lat="47.38706" lon="-2.96332">
        <ele>37.63</ele>
        <time>2016-08-23T16:33:39Z</time>
      </trkpt>
      <trkpt lat="47.38707" lon="-2.96337">
        <ele>38.59</ele>
        <time>2016-08-23T16:33:53Z</time>
      </trkpt>
      <trkpt lat="47.38707" lon="-2.96337">
        <ele>38.59</ele>
        <time>2016-08-23T16:33:55Z</time>
      </trkpt>
      <trkpt lat="47.38716" lon="-2.96349">
        <ele>38.59</ele>
        <time>2016-08-23T16:34:04Z</time>
      </trkpt>
      <trkpt lat="47.38727" lon="-2.96349">
        <ele>38.59</ele>
        <time>2016-08-23T16:34:14Z</time>
      </trkpt>
      <trkpt lat="47.38741" lon="-2.96343">
        <ele>39.07</ele>
        <time>2016-08-23T16:34:25Z</time>
      </trkpt>
      <trkpt lat="47.38746" lon="-2.9634">
        <ele>38.59</ele>
        <time>2016-08-23T16:34:30Z</time>
      </trkpt>
      <trkpt lat="47.38759" lon="-2.96336">
        <ele>37.63</ele>
        <time>2016-08-23T16:34:41Z</time>
      </trkpt>
      <trkpt lat="47.38774" lon="-2.96331">
        <ele>38.11</ele>
        <time>2016-08-23T16:34:51Z</time>
      </trkpt>
      <trkpt lat="47.38791" lon="-2.96334">
        <ele>36.19</ele>
        <time>2016-08-23T16:35:04Z</time>
      </trkpt>
      <trkpt lat="47.38793" lon="-2.96332">
        <ele>36.19</ele>
        <time>2016-08-23T16:35:07Z</time>
      </trkpt>
      <trkpt lat="47.38795" lon="-2.96331">
        <ele>35.71</ele>
        <time>2016-08-23T16:35:09Z</time>
      </trkpt>
      <trkpt lat="47.38796" lon="-2.96311">
        <ele>35.71</ele>
        <time>2016-08-23T16:35:20Z</time>
      </trkpt>
      <trkpt lat="47.38795" lon="-2.96329">
        <ele>35.23</ele>
        <time>2016-08-23T16:35:31Z</time>
      </trkpt>
      <trkpt lat="47.38795" lon="-2.96328">
        <ele>36.19</ele>
        <time>2016-08-23T16:35:34Z</time>
      </trkpt>
      <trkpt lat="47.38796" lon="-2.96311">
        <ele>36.67</ele>
        <time>2016-08-23T16:35:45Z</time>
      </trkpt>
      <trkpt lat="47.38811" lon="-2.96285">
        <ele>36.19</ele>
        <time>2016-08-23T16:35:57Z</time>
      </trkpt>
      <trkpt lat="47.38814" lon="-2.9628">
        <ele>32.82</ele>
        <time>2016-08-23T16:36:06Z</time>
      </trkpt>
      <trkpt lat="47.38814" lon="-2.96277">
        <ele>32.34</ele>
        <time>2016-08-23T16:36:09Z</time>
      </trkpt>
      <trkpt lat="47.38812" lon="-2.96265">
        <ele>32.82</ele>
        <time>2016-08-23T16:36:19Z</time>
      </trkpt>
      <trkpt lat="47.38806" lon="-2.96244">
        <ele>34.26</ele>
        <time>2016-08-23T16:36:31Z</time>
      </trkpt>
      <trkpt lat="47.38802" lon="-2.96238">
        <ele>35.71</ele>
        <time>2016-08-23T16:36:37Z</time>
      </trkpt>
      <trkpt lat="47.38794" lon="-2.96225">
        <ele>36.67</ele>
        <time>2016-08-23T16:36:48Z</time>
      </trkpt>
      <trkpt lat="47.38785" lon="-2.96217">
        <ele>35.23</ele>
        <time>2016-08-23T16:37:01Z</time>
      </trkpt>
      <trkpt lat="47.38784" lon="-2.96207">
        <ele>35.71</ele>
        <time>2016-08-23T16:37:15Z</time>
      </trkpt>
      <trkpt lat="47.38784" lon="-2.96207">
        <ele>35.23</ele>
        <time>2016-08-23T16:37:22Z</time>
      </trkpt>
      <trkpt lat="47.38785" lon="-2.96212">
        <ele>35.23</ele>
        <time>2016-08-23T16:37:25Z</time>
      </trkpt>
      <trkpt lat="47.38787" lon="-2.96216">
        <ele>35.23</ele>
        <time>2016-08-23T16:37:27Z</time>
      </trkpt>
      <trkpt lat="47.38789" lon="-2.96225">
        <ele>36.67</ele>
        <time>2016-08-23T16:37:33Z</time>
      </trkpt>
      <trkpt lat="47.38782" lon="-2.96225">
        <ele>36.67</ele>
        <time>2016-08-23T16:37:41Z</time>
      </trkpt>
      <trkpt lat="47.3878" lon="-2.96225">
        <ele>36.67</ele>
        <time>2016-08-23T16:37:43Z</time>
      </trkpt>
      <trkpt lat="47.38772" lon="-2.96226">
        <ele>36.67</ele>
        <time>2016-08-23T16:37:53Z</time>
      </trkpt>
      <trkpt lat="47.3877" lon="-2.96226">
        <ele>36.67</ele>
        <time>2016-08-23T16:38:03Z</time>
      </trkpt>
      <trkpt lat="47.38769" lon="-2.96225">
        <ele>36.67</ele>
        <time>2016-08-23T16:38:12Z</time>
      </trkpt>
      <trkpt lat="47.38769" lon="-2.96225">
        <ele>36.67</ele>
        <time>2016-08-23T16:38:24Z</time>
      </trkpt>
      <trkpt lat="47.3877" lon="-2.96226">
        <ele>37.15</ele>
        <time>2016-08-23T16:38:41Z</time>
      </trkpt>
      <trkpt lat="47.38772" lon="-2.96224">
        <ele>36.67</ele>
        <time>2016-08-23T16:38:54Z</time>
      </trkpt>
      <trkpt lat="47.38784" lon="-2.9622">
        <ele>37.63</ele>
        <time>2016-08-23T16:39:06Z</time>
      </trkpt>
      <trkpt lat="47.38787" lon="-2.96214">
        <ele>38.11</ele>
        <time>2016-08-23T16:39:12Z</time>
      </trkpt>
      <trkpt lat="47.38784" lon="-2.96208">
        <ele>37.63</ele>
        <time>2016-08-23T16:39:24Z</time>
      </trkpt>
      <trkpt lat="47.38784" lon="-2.96208">
        <ele>37.63</ele>
        <time>2016-08-23T16:39:28Z</time>
      </trkpt>
      <trkpt lat="47.38787" lon="-2.96218">
        <ele>36.67</ele>
        <time>2016-08-23T16:39:35Z</time>
      </trkpt>
      <trkpt lat="47.38786" lon="-2.96225">
        <ele>35.71</ele>
        <time>2016-08-23T16:39:46Z</time>
      </trkpt>
      <trkpt lat="47.38785" lon="-2.96233">
        <ele>35.23</ele>
        <time>2016-08-23T16:39:53Z</time>
      </trkpt>
      <trkpt lat="47.38785" lon="-2.96223">
        <ele>35.23</ele>
        <time>2016-08-23T16:39:59Z</time>
      </trkpt>
      <trkpt lat="47.38779" lon="-2.96224">
        <ele>35.23</ele>
        <time>2016-08-23T16:40:12Z</time>
      </trkpt>
      <trkpt lat="47.38773" lon="-2.96223">
        <ele>35.23</ele>
        <time>2016-08-23T16:40:23Z</time>
      </trkpt>
      <trkpt lat="47.38779" lon="-2.96222">
        <ele>35.23</ele>
        <time>2016-08-23T16:40:28Z</time>
      </trkpt>
      <trkpt lat="47.38784" lon="-2.96221">
        <ele>34.74</ele>
        <time>2016-08-23T16:40:32Z</time>
      </trkpt>
      <trkpt lat="47.3879" lon="-2.96224">
        <ele>34.74</ele>
        <time>2016-08-23T16:40:39Z</time>
      </trkpt>
      <trkpt lat="47.38804" lon="-2.9622">
        <ele>37.15</ele>
        <time>2016-08-23T16:40:53Z</time>
      </trkpt>
      <trkpt lat="47.38805" lon="-2.96208">
        <ele>39.55</ele>
        <time>2016-08-23T16:41:06Z</time>
      </trkpt>
      <trkpt lat="47.38808" lon="-2.96198">
        <ele>41.95</ele>
        <time>2016-08-23T16:41:19Z</time>
      </trkpt>
      <trkpt lat="47.38806" lon="-2.96199">
        <ele>41.95</ele>
        <time>2016-08-23T16:41:31Z</time>
      </trkpt>
      <trkpt lat="47.38805" lon="-2.96203">
        <ele>40.99</ele>
        <time>2016-08-23T16:41:35Z</time>
      </trkpt>
      <trkpt lat="47.38806" lon="-2.96216">
        <ele>38.11</ele>
        <time>2016-08-23T16:41:48Z</time>
      </trkpt>
      <trkpt lat="47.38805" lon="-2.96218">
        <ele>38.11</ele>
        <time>2016-08-23T16:41:49Z</time>
      </trkpt>
      <trkpt lat="47.38804" lon="-2.96236">
        <ele>35.71</ele>
        <time>2016-08-23T16:42:01Z</time>
      </trkpt>
      <trkpt lat="47.38812" lon="-2.96254">
        <ele>34.26</ele>
        <time>2016-08-23T16:42:10Z</time>
      </trkpt>
      <trkpt lat="47.38813" lon="-2.96268">
        <ele>35.23</ele>
        <time>2016-08-23T16:42:19Z</time>
      </trkpt>
      <trkpt lat="47.38812" lon="-2.9627">
        <ele>35.23</ele>
        <time>2016-08-23T16:42:22Z</time>
      </trkpt>
      <trkpt lat="47.38812" lon="-2.96272">
        <ele>35.23</ele>
        <time>2016-08-23T16:42:24Z</time>
      </trkpt>
      <trkpt lat="47.38813" lon="-2.96277">
        <ele>34.74</ele>
        <time>2016-08-23T16:42:33Z</time>
      </trkpt>
      <trkpt lat="47.38815" lon="-2.96287">
        <ele>34.26</ele>
        <time>2016-08-23T16:42:42Z</time>
      </trkpt>
      <trkpt lat="47.38812" lon="-2.96293">
        <ele>34.74</ele>
        <time>2016-08-23T16:42:46Z</time>
      </trkpt>
      <trkpt lat="47.38807" lon="-2.96299">
        <ele>35.23</ele>
        <time>2016-08-23T16:42:54Z</time>
      </trkpt>
      <trkpt lat="47.38802" lon="-2.96302">
        <ele>35.71</ele>
        <time>2016-08-23T16:42:58Z</time>
      </trkpt>
      <trkpt lat="47.38799" lon="-2.96312">
        <ele>37.15</ele>
        <time>2016-08-23T16:43:05Z</time>
      </trkpt>
      <trkpt lat="47.38796" lon="-2.96326">
        <ele>37.15</ele>
        <time>2016-08-23T16:43:12Z</time>
      </trkpt>
      <trkpt lat="47.38791" lon="-2.96351">
        <ele>35.71</ele>
        <time>2016-08-23T16:43:27Z</time>
      </trkpt>
      <trkpt lat="47.38792" lon="-2.96354">
        <ele>35.23</ele>
        <time>2016-08-23T16:43:35Z</time>
      </trkpt>
      <trkpt lat="47.38793" lon="-2.9634">
        <ele>35.23</ele>
        <time>2016-08-23T16:43:42Z</time>
      </trkpt>
      <trkpt lat="47.38787" lon="-2.96333">
        <ele>35.71</ele>
        <time>2016-08-23T16:43:50Z</time>
      </trkpt>
      <trkpt lat="47.3878" lon="-2.96334">
        <ele>36.19</ele>
        <time>2016-08-23T16:43:54Z</time>
      </trkpt>
      <trkpt lat="47.38777" lon="-2.96334">
        <ele>36.67</ele>
        <time>2016-08-23T16:43:57Z</time>
      </trkpt>
      <trkpt lat="47.38767" lon="-2.96335">
        <ele>38.11</ele>
        <time>2016-08-23T16:44:03Z</time>
      </trkpt>
      <trkpt lat="47.38764" lon="-2.96334">
        <ele>38.59</ele>
        <time>2016-08-23T16:44:07Z</time>
      </trkpt>
      <trkpt lat="47.38753" lon="-2.96337">
        <ele>38.59</ele>
        <time>2016-08-23T16:44:19Z</time>
      </trkpt>
      <trkpt lat="47.3874" lon="-2.96345">
        <ele>39.07</ele>
        <time>2016-08-23T16:44:30Z</time>
      </trkpt>
      <trkpt lat="47.38728" lon="-2.96351">
        <ele>39.07</ele>
        <time>2016-08-23T16:44:39Z</time>
      </trkpt>
      <trkpt lat="47.38716" lon="-2.96349">
        <ele>39.55</ele>
        <time>2016-08-23T16:44:48Z</time>
      </trkpt>
      <trkpt lat="47.38714" lon="-2.96348">
        <ele>39.55</ele>
        <time>2016-08-23T16:44:50Z</time>
      </trkpt>
      <trkpt lat="47.38712" lon="-2.96349">
        <ele>38.59</ele>
        <time>2016-08-23T16:44:55Z</time>
      </trkpt>
      <trkpt lat="47.38718" lon="-2.9635">
        <ele>38.11</ele>
        <time>2016-08-23T16:45:01Z</time>
      </trkpt>
      <trkpt lat="47.38717" lon="-2.96348">
        <ele>38.11</ele>
        <time>2016-08-23T16:45:04Z</time>
      </trkpt>
      <trkpt lat="47.38714" lon="-2.96348">
        <ele>38.11</ele>
        <time>2016-08-23T16:45:06Z</time>
      </trkpt>
      <trkpt lat="47.38706" lon="-2.96357">
        <ele>38.11</ele>
        <time>2016-08-23T16:45:14Z</time>
      </trkpt>
      <trkpt lat="47.38692" lon="-2.9637">
        <ele>36.19</ele>
        <time>2016-08-23T16:45:24Z</time>
      </trkpt>
      <trkpt lat="47.38686" lon="-2.96378">
        <ele>34.74</ele>
        <time>2016-08-23T16:45:36Z</time>
      </trkpt>
      <trkpt lat="47.38668" lon="-2.9638">
        <ele>33.3</ele>
        <time>2016-08-23T16:45:50Z</time>
      </trkpt>
      <trkpt lat="47.38662" lon="-2.96376">
        <ele>32.82</ele>
        <time>2016-08-23T16:45:57Z</time>
      </trkpt>
      <trkpt lat="47.38652" lon="-2.96362">
        <ele>32.82</ele>
        <time>2016-08-23T16:46:06Z</time>
      </trkpt>
      <trkpt lat="47.38641" lon="-2.96348">
        <ele>32.34</ele>
        <time>2016-08-23T16:46:15Z</time>
      </trkpt>
      <trkpt lat="47.38641" lon="-2.96348">
        <ele>32.82</ele>
        <time>2016-08-23T16:46:19Z</time>
      </trkpt>
      <trkpt lat="47.38637" lon="-2.96348">
        <ele>33.78</ele>
        <time>2016-08-23T16:46:25Z</time>
      </trkpt>
      <trkpt lat="47.38635" lon="-2.96348">
        <ele>34.26</ele>
        <time>2016-08-23T16:46:28Z</time>
      </trkpt>
      <trkpt lat="47.3863" lon="-2.96342">
        <ele>32.34</ele>
        <time>2016-08-23T16:46:34Z</time>
      </trkpt>
      <trkpt lat="47.38617" lon="-2.96326">
        <ele>31.38</ele>
        <time>2016-08-23T16:46:48Z</time>
      </trkpt>
      <trkpt lat="47.38608" lon="-2.96318">
        <ele>30.42</ele>
        <time>2016-08-23T16:46:57Z</time>
      </trkpt>
      <trkpt lat="47.38603" lon="-2.96311">
        <ele>29.94</ele>
        <time>2016-08-23T16:47:00Z</time>
      </trkpt>
      <trkpt lat="47.38595" lon="-2.96305">
        <ele>29.94</ele>
        <time>2016-08-23T16:47:08Z</time>
      </trkpt>
      <trkpt lat="47.38582" lon="-2.96296">
        <ele>29.94</ele>
        <time>2016-08-23T16:47:19Z</time>
      </trkpt>
      <trkpt lat="47.38566" lon="-2.96288">
        <ele>29.94</ele>
        <time>2016-08-23T16:47:30Z</time>
      </trkpt>
      <trkpt lat="47.38556" lon="-2.96287">
        <ele>29.94</ele>
        <time>2016-08-23T16:47:39Z</time>
      </trkpt>
      <trkpt lat="47.38544" lon="-2.96288">
        <ele>30.9</ele>
        <time>2016-08-23T16:47:47Z</time>
      </trkpt>
      <trkpt lat="47.38538" lon="-2.96289">
        <ele>30.9</ele>
        <time>2016-08-23T16:47:53Z</time>
      </trkpt>
      <trkpt lat="47.38536" lon="-2.96294">
        <ele>30.42</ele>
        <time>2016-08-23T16:47:57Z</time>
      </trkpt>
      <trkpt lat="47.3852" lon="-2.96308">
        <ele>29.94</ele>
        <time>2016-08-23T16:48:11Z</time>
      </trkpt>
      <trkpt lat="47.38516" lon="-2.96308">
        <ele>28.98</ele>
        <time>2016-08-23T16:48:23Z</time>
      </trkpt>
      <trkpt lat="47.38515" lon="-2.96309">
        <ele>29.46</ele>
        <time>2016-08-23T16:48:28Z</time>
      </trkpt>
      <trkpt lat="47.38515" lon="-2.96313">
        <ele>29.46</ele>
        <time>2016-08-23T16:48:30Z</time>
      </trkpt>
      <trkpt lat="47.38516" lon="-2.96326">
        <ele>28.98</ele>
        <time>2016-08-23T16:48:40Z</time>
      </trkpt>
      <trkpt lat="47.38511" lon="-2.9634">
        <ele>29.46</ele>
        <time>2016-08-23T16:48:48Z</time>
      </trkpt>
      <trkpt lat="47.38502" lon="-2.96352">
        <ele>28.02</ele>
        <time>2016-08-23T16:48:58Z</time>
      </trkpt>
      <trkpt lat="47.38501" lon="-2.96354">
        <ele>27.53</ele>
        <time>2016-08-23T16:49:02Z</time>
      </trkpt>
      <trkpt lat="47.38493" lon="-2.96354">
        <ele>26.57</ele>
        <time>2016-08-23T16:49:06Z</time>
      </trkpt>
      <trkpt lat="47.3849" lon="-2.96356">
        <ele>26.57</ele>
        <time>2016-08-23T16:49:13Z</time>
      </trkpt>
      <trkpt lat="47.38491" lon="-2.96361">
        <ele>26.09</ele>
        <time>2016-08-23T16:49:17Z</time>
      </trkpt>
      <trkpt lat="47.38487" lon="-2.96355">
        <ele>26.09</ele>
        <time>2016-08-23T16:49:28Z</time>
      </trkpt>
      <trkpt lat="47.38496" lon="-2.96374">
        <ele>24.65</ele>
        <time>2016-08-23T16:49:42Z</time>
      </trkpt>
      <trkpt lat="47.38495" lon="-2.96382">
        <ele>23.69</ele>
        <time>2016-08-23T16:49:49Z</time>
      </trkpt>
      <trkpt lat="47.38486" lon="-2.96383">
        <ele>19.84</ele>
        <time>2016-08-23T16:50:03Z</time>
      </trkpt>
      <trkpt lat="47.38485" lon="-2.96383">
        <ele>19.36</ele>
        <time>2016-08-23T16:50:17Z</time>
      </trkpt>
      <trkpt lat="47.38486" lon="-2.96383">
        <ele>19.36</ele>
        <time>2016-08-23T16:50:27Z</time>
      </trkpt>
      <trkpt lat="47.38486" lon="-2.96382">
        <ele>19.36</ele>
        <time>2016-08-23T16:50:28Z</time>
      </trkpt>
      <trkpt lat="47.38488" lon="-2.96381">
        <ele>20.32</ele>
        <time>2016-08-23T16:50:30Z</time>
      </trkpt>
      <trkpt lat="47.38488" lon="-2.96376">
        <ele>22.25</ele>
        <time>2016-08-23T16:50:33Z</time>
      </trkpt>
      <trkpt lat="47.38491" lon="-2.96363">
        <ele>25.13</ele>
        <time>2016-08-23T16:50:41Z</time>
      </trkpt>
      <trkpt lat="47.38491" lon="-2.96363">
        <ele>25.13</ele>
        <time>2016-08-23T16:50:42Z</time>
      </trkpt>
      <trkpt lat="47.38485" lon="-2.96349">
        <ele>26.57</ele>
        <time>2016-08-23T16:50:51Z</time>
      </trkpt>
      <trkpt lat="47.38484" lon="-2.96346">
        <ele>26.57</ele>
        <time>2016-08-23T16:50:57Z</time>
      </trkpt>
      <trkpt lat="47.38477" lon="-2.96339">
        <ele>26.57</ele>
        <time>2016-08-23T16:51:08Z</time>
      </trkpt>
      <trkpt lat="47.38475" lon="-2.96339">
        <ele>26.09</ele>
        <time>2016-08-23T16:51:12Z</time>
      </trkpt>
      <trkpt lat="47.38474" lon="-2.96344">
        <ele>26.09</ele>
        <time>2016-08-23T16:51:16Z</time>
      </trkpt>
      <trkpt lat="47.3847" lon="-2.96347">
        <ele>24.17</ele>
        <time>2016-08-23T16:51:24Z</time>
      </trkpt>
      <trkpt lat="47.38467" lon="-2.96347">
        <ele>24.17</ele>
        <time>2016-08-23T16:51:26Z</time>
      </trkpt>
      <trkpt lat="47.38464" lon="-2.96352">
        <ele>23.69</ele>
        <time>2016-08-23T16:51:40Z</time>
      </trkpt>
      <trkpt lat="47.38465" lon="-2.9635">
        <ele>23.21</ele>
        <time>2016-08-23T16:51:51Z</time>
      </trkpt>
      <trkpt lat="47.38466" lon="-2.96349">
        <ele>23.21</ele>
        <time>2016-08-23T16:51:53Z</time>
      </trkpt>
      <trkpt lat="47.38466" lon="-2.96346">
        <ele>23.21</ele>
        <time>2016-08-23T16:51:56Z</time>
      </trkpt>
      <trkpt lat="47.38458" lon="-2.96341">
        <ele>23.69</ele>
        <time>2016-08-23T16:52:04Z</time>
      </trkpt>
      <trkpt lat="47.38457" lon="-2.9634">
        <ele>23.21</ele>
        <time>2016-08-23T16:52:07Z</time>
      </trkpt>
      <trkpt lat="47.38457" lon="-2.96344">
        <ele>23.21</ele>
        <time>2016-08-23T16:52:18Z</time>
      </trkpt>
      <trkpt lat="47.38455" lon="-2.96346">
        <ele>23.21</ele>
        <time>2016-08-23T16:52:21Z</time>
      </trkpt>
      <trkpt lat="47.3845" lon="-2.9635">
        <ele>22.73</ele>
        <time>2016-08-23T16:52:27Z</time>
      </trkpt>
      <trkpt lat="47.38448" lon="-2.96343">
        <ele>21.29</ele>
        <time>2016-08-23T16:52:36Z</time>
      </trkpt>
      <trkpt lat="47.38448" lon="-2.96343">
        <ele>22.25</ele>
        <time>2016-08-23T16:52:59Z</time>
      </trkpt>
      <trkpt lat="47.38448" lon="-2.96342">
        <ele>22.73</ele>
        <time>2016-08-23T16:53:20Z</time>
      </trkpt>
      <trkpt lat="47.38448" lon="-2.96343">
        <ele>22.73</ele>
        <time>2016-08-23T16:53:24Z</time>
      </trkpt>
      <trkpt lat="47.38449" lon="-2.96342">
        <ele>22.73</ele>
        <time>2016-08-23T16:53:34Z</time>
      </trkpt>
      <trkpt lat="47.38451" lon="-2.96331">
        <ele>23.21</ele>
        <time>2016-08-23T16:53:45Z</time>
      </trkpt>
      <trkpt lat="47.38451" lon="-2.96332">
        <ele>23.21</ele>
        <time>2016-08-23T16:53:55Z</time>
      </trkpt>
      <trkpt lat="47.38451" lon="-2.9633">
        <ele>22.73</ele>
        <time>2016-08-23T16:54:16Z</time>
      </trkpt>
      <trkpt lat="47.38453" lon="-2.96321">
        <ele>22.73</ele>
        <time>2016-08-23T16:54:23Z</time>
      </trkpt>
      <trkpt lat="47.38455" lon="-2.96315">
        <ele>22.25</ele>
        <time>2016-08-23T16:54:25Z</time>
      </trkpt>
      <trkpt lat="47.3846" lon="-2.96313">
        <ele>21.77</ele>
        <time>2016-08-23T16:54:32Z</time>
      </trkpt>
      <trkpt lat="47.38466" lon="-2.96306">
        <ele>21.77</ele>
        <time>2016-08-23T16:54:39Z</time>
      </trkpt>
      <trkpt lat="47.38464" lon="-2.96289">
        <ele>23.21</ele>
        <time>2016-08-23T16:54:45Z</time>
      </trkpt>
      <trkpt lat="47.3846" lon="-2.96283">
        <ele>23.21</ele>
        <time>2016-08-23T16:54:54Z</time>
      </trkpt>
      <trkpt lat="47.38443" lon="-2.96273">
        <ele>24.17</ele>
        <time>2016-08-23T16:55:05Z</time>
      </trkpt>
      <trkpt lat="47.38434" lon="-2.96265">
        <ele>24.65</ele>
        <time>2016-08-23T16:55:15Z</time>
      </trkpt>
      <trkpt lat="47.38425" lon="-2.96255">
        <ele>23.69</ele>
        <time>2016-08-23T16:55:25Z</time>
      </trkpt>
      <trkpt lat="47.38426" lon="-2.96255">
        <ele>23.69</ele>
        <time>2016-08-23T16:55:30Z</time>
      </trkpt>
      <trkpt lat="47.38438" lon="-2.96266">
        <ele>23.69</ele>
        <time>2016-08-23T16:55:39Z</time>
      </trkpt>
      <trkpt lat="47.38426" lon="-2.96256">
        <ele>23.21</ele>
        <time>2016-08-23T16:55:49Z</time>
      </trkpt>
      <trkpt lat="47.38425" lon="-2.96252">
        <ele>23.21</ele>
        <time>2016-08-23T16:56:01Z</time>
      </trkpt>
      <trkpt lat="47.38425" lon="-2.96252">
        <ele>23.21</ele>
        <time>2016-08-23T16:56:06Z</time>
      </trkpt>
      <trkpt lat="47.38423" lon="-2.96246">
        <ele>23.21</ele>
        <time>2016-08-23T16:56:14Z</time>
      </trkpt>
      <trkpt lat="47.38424" lon="-2.96245">
        <ele>22.73</ele>
        <time>2016-08-23T16:56:23Z</time>
      </trkpt>
      <trkpt lat="47.38424" lon="-2.96245">
        <ele>22.73</ele>
        <time>2016-08-23T16:56:24Z</time>
      </trkpt>
      <trkpt lat="47.38423" lon="-2.96229">
        <ele>22.73</ele>
        <time>2016-08-23T16:56:34Z</time>
      </trkpt>
      <trkpt lat="47.38421" lon="-2.96203">
        <ele>21.29</ele>
        <time>2016-08-23T16:56:46Z</time>
      </trkpt>
      <trkpt lat="47.38425" lon="-2.96177">
        <ele>19.84</ele>
        <time>2016-08-23T16:56:55Z</time>
      </trkpt>
      <trkpt lat="47.38426" lon="-2.96177">
        <ele>20.32</ele>
        <time>2016-08-23T16:57:05Z</time>
      </trkpt>
      <trkpt lat="47.38426" lon="-2.96165">
        <ele>20.32</ele>
        <time>2016-08-23T16:57:17Z</time>
      </trkpt>
      <trkpt lat="47.3843" lon="-2.96145">
        <ele>19.84</ele>
        <time>2016-08-23T16:57:28Z</time>
      </trkpt>
      <trkpt lat="47.38436" lon="-2.96121">
        <ele>20.32</ele>
        <time>2016-08-23T16:57:39Z</time>
      </trkpt>
      <trkpt lat="47.38437" lon="-2.96117">
        <ele>21.29</ele>
        <time>2016-08-23T16:57:42Z</time>
      </trkpt>
      <trkpt lat="47.38436" lon="-2.96118">
        <ele>21.29</ele>
        <time>2016-08-23T16:57:45Z</time>
      </trkpt>
      <trkpt lat="47.38435" lon="-2.96125">
        <ele>20.81</ele>
        <time>2016-08-23T16:57:52Z</time>
      </trkpt>
      <trkpt lat="47.38435" lon="-2.96124">
        <ele>20.81</ele>
        <time>2016-08-23T16:57:54Z</time>
      </trkpt>
      <trkpt lat="47.38442" lon="-2.96112">
        <ele>21.77</ele>
        <time>2016-08-23T16:58:05Z</time>
      </trkpt>
      <trkpt lat="47.38448" lon="-2.96095">
        <ele>20.81</ele>
        <time>2016-08-23T16:58:13Z</time>
      </trkpt>
      <trkpt lat="47.38449" lon="-2.96093">
        <ele>20.81</ele>
        <time>2016-08-23T16:58:18Z</time>
      </trkpt>
      <trkpt lat="47.38455" lon="-2.96084">
        <ele>20.81</ele>
        <time>2016-08-23T16:58:25Z</time>
      </trkpt>
      <trkpt lat="47.38457" lon="-2.96082">
        <ele>20.81</ele>
        <time>2016-08-23T16:58:29Z</time>
      </trkpt>
      <trkpt lat="47.3846" lon="-2.96071">
        <ele>19.36</ele>
        <time>2016-08-23T16:58:39Z</time>
      </trkpt>
      <trkpt lat="47.38466" lon="-2.96044">
        <ele>19.36</ele>
        <time>2016-08-23T16:58:48Z</time>
      </trkpt>
      <trkpt lat="47.38465" lon="-2.96047">
        <ele>19.84</ele>
        <time>2016-08-23T16:58:51Z</time>
      </trkpt>
      <trkpt lat="47.38464" lon="-2.96049">
        <ele>19.84</ele>
        <time>2016-08-23T16:59:02Z</time>
      </trkpt>
      <trkpt lat="47.38465" lon="-2.96048">
        <ele>19.84</ele>
        <time>2016-08-23T16:59:03Z</time>
      </trkpt>
      <trkpt lat="47.3847" lon="-2.96038">
        <ele>18.4</ele>
        <time>2016-08-23T16:59:13Z</time>
      </trkpt>
      <trkpt lat="47.3847" lon="-2.96023">
        <ele>16.96</ele>
        <time>2016-08-23T16:59:23Z</time>
      </trkpt>
      <trkpt lat="47.3847" lon="-2.96022">
        <ele>16.48</ele>
        <time>2016-08-23T16:59:26Z</time>
      </trkpt>
      <trkpt lat="47.38472" lon="-2.96019">
        <ele>16</ele>
        <time>2016-08-23T16:59:30Z</time>
      </trkpt>
      <trkpt lat="47.38474" lon="-2.96008">
        <ele>15.04</ele>
        <time>2016-08-23T16:59:38Z</time>
      </trkpt>
      <trkpt lat="47.38478" lon="-2.95981">
        <ele>18.4</ele>
        <time>2016-08-23T16:59:49Z</time>
      </trkpt>
      <trkpt lat="47.38469" lon="-2.95985">
        <ele>14.08</ele>
        <time>2016-08-23T17:00:01Z</time>
      </trkpt>
      <trkpt lat="47.38461" lon="-2.95983">
        <ele>10.23</ele>
        <time>2016-08-23T17:00:10Z</time>
      </trkpt>
      <trkpt lat="47.38447" lon="-2.95986">
        <ele>7.35</ele>
        <time>2016-08-23T17:00:22Z</time>
      </trkpt>
      <trkpt lat="47.38435" lon="-2.95994">
        <ele>5.91</ele>
        <time>2016-08-23T17:00:31Z</time>
      </trkpt>
      <trkpt lat="47.38425" lon="-2.96003">
        <ele>4.94</ele>
        <time>2016-08-23T17:00:41Z</time>
      </trkpt>
      <trkpt lat="47.38428" lon="-2.95999">
        <ele>3.98</ele>
        <time>2016-08-23T17:00:53Z</time>
      </trkpt>
      <trkpt lat="47.38426" lon="-2.96">
        <ele>3.5</ele>
        <time>2016-08-23T17:01:04Z</time>
      </trkpt>
      <trkpt lat="47.38426" lon="-2.96">
        <ele>3.5</ele>
        <time>2016-08-23T17:01:16Z</time>
      </trkpt>
      <trkpt lat="47.38424" lon="-2.95999">
        <ele>3.5</ele>
        <time>2016-08-23T17:01:27Z</time>
      </trkpt>
      <trkpt lat="47.38424" lon="-2.96001">
        <ele>2.54</ele>
        <time>2016-08-23T17:01:31Z</time>
      </trkpt>
      <trkpt lat="47.38427" lon="-2.96006">
        <ele>1.58</ele>
        <time>2016-08-23T17:01:41Z</time>
      </trkpt>
      <trkpt lat="47.38428" lon="-2.95997">
        <ele>1.58</ele>
        <time>2016-08-23T17:01:50Z</time>
      </trkpt>
      <trkpt lat="47.38432" lon="-2.95995">
        <ele>2.06</ele>
        <time>2016-08-23T17:01:59Z</time>
      </trkpt>
      <trkpt lat="47.38425" lon="-2.96003">
        <ele>3.02</ele>
        <time>2016-08-23T17:02:09Z</time>
      </trkpt>
      <trkpt lat="47.38425" lon="-2.96002">
        <ele>3.5</ele>
        <time>2016-08-23T17:02:21Z</time>
      </trkpt>
      <trkpt lat="47.38425" lon="-2.95998">
        <ele>3.5</ele>
        <time>2016-08-23T17:02:34Z</time>
      </trkpt>
      <trkpt lat="47.38427" lon="-2.95997">
        <ele>3.5</ele>
        <time>2016-08-23T17:02:41Z</time>
      </trkpt>
      <trkpt lat="47.38426" lon="-2.95993">
        <ele>4.46</ele>
        <time>2016-08-23T17:02:49Z</time>
      </trkpt>
      <trkpt lat="47.38425" lon="-2.95992">
        <ele>4.46</ele>
        <time>2016-08-23T17:02:59Z</time>
      </trkpt>
      <trkpt lat="47.38427" lon="-2.95992">
        <ele>4.94</ele>
        <time>2016-08-23T17:03:14Z</time>
      </trkpt>
      <trkpt lat="47.38427" lon="-2.95991">
        <ele>5.42</ele>
        <time>2016-08-23T17:03:21Z</time>
      </trkpt>
      <trkpt lat="47.38424" lon="-2.95985">
        <ele>5.42</ele>
        <time>2016-08-23T17:03:26Z</time>
      </trkpt>
      <trkpt lat="47.38422" lon="-2.95981">
        <ele>5.91</ele>
        <time>2016-08-23T17:03:32Z</time>
      </trkpt>
      <trkpt lat="47.38427" lon="-2.95987">
        <ele>5.91</ele>
        <time>2016-08-23T17:03:44Z</time>
      </trkpt>
      <trkpt lat="47.38428" lon="-2.95987">
        <ele>5.91</ele>
        <time>2016-08-23T17:03:45Z</time>
      </trkpt>
      <trkpt lat="47.38428" lon="-2.95989">
        <ele>6.87</ele>
        <time>2016-08-23T17:03:57Z</time>
      </trkpt>
      <trkpt lat="47.38429" lon="-2.9599">
        <ele>6.87</ele>
        <time>2016-08-23T17:04:00Z</time>
      </trkpt>
      <trkpt lat="47.38444" lon="-2.95979">
        <ele>6.39</ele>
        <time>2016-08-23T17:04:14Z</time>
      </trkpt>
      <trkpt lat="47.38465" lon="-2.95972">
        <ele>6.87</ele>
        <time>2016-08-23T17:04:33Z</time>
      </trkpt>
      <trkpt lat="47.38475" lon="-2.95966">
        <ele>8.79</ele>
        <time>2016-08-23T17:04:47Z</time>
      </trkpt>
      <trkpt lat="47.38486" lon="-2.95971">
        <ele>11.67</ele>
        <time>2016-08-23T17:05:01Z</time>
      </trkpt>
      <trkpt lat="47.38484" lon="-2.95966">
        <ele>12.63</ele>
        <time>2016-08-23T17:05:11Z</time>
      </trkpt>
      <trkpt lat="47.38482" lon="-2.95965">
        <ele>13.12</ele>
        <time>2016-08-23T17:05:23Z</time>
      </trkpt>
      <trkpt lat="47.38487" lon="-2.95968">
        <ele>13.12</ele>
        <time>2016-08-23T17:05:28Z</time>
      </trkpt>
      <trkpt lat="47.38501" lon="-2.95959">
        <ele>13.6</ele>
        <time>2016-08-23T17:05:41Z</time>
      </trkpt>
      <trkpt lat="47.38511" lon="-2.95949">
        <ele>13.12</ele>
        <time>2016-08-23T17:05:51Z</time>
      </trkpt>
      <trkpt lat="47.38522" lon="-2.95938">
        <ele>14.08</ele>
        <time>2016-08-23T17:06:02Z</time>
      </trkpt>
      <trkpt lat="47.38533" lon="-2.9593">
        <ele>14.56</ele>
        <time>2016-08-23T17:06:13Z</time>
      </trkpt>
      <trkpt lat="47.3854" lon="-2.95922">
        <ele>16</ele>
        <time>2016-08-23T17:06:21Z</time>
      </trkpt>
      <trkpt lat="47.38542" lon="-2.95917">
        <ele>16</ele>
        <time>2016-08-23T17:06:24Z</time>
      </trkpt>
      <trkpt lat="47.38544" lon="-2.95914">
        <ele>15.52</ele>
        <time>2016-08-23T17:06:36Z</time>
      </trkpt>
      <trkpt lat="47.38544" lon="-2.95914">
        <ele>16</ele>
        <time>2016-08-23T17:06:41Z</time>
      </trkpt>
      <trkpt lat="47.38545" lon="-2.95909">
        <ele>16</ele>
        <time>2016-08-23T17:06:47Z</time>
      </trkpt>
      <trkpt lat="47.38544" lon="-2.95905">
        <ele>15.52</ele>
        <time>2016-08-23T17:06:50Z</time>
      </trkpt>
      <trkpt lat="47.38545" lon="-2.95917">
        <ele>16.48</ele>
        <time>2016-08-23T17:06:55Z</time>
      </trkpt>
      <trkpt lat="47.38542" lon="-2.95918">
        <ele>16.48</ele>
        <time>2016-08-23T17:07:06Z</time>
      </trkpt>
      <trkpt lat="47.3854" lon="-2.95919">
        <ele>16.96</ele>
        <time>2016-08-23T17:07:15Z</time>
      </trkpt>
      <trkpt lat="47.38543" lon="-2.95912">
        <ele>16.48</ele>
        <time>2016-08-23T17:07:21Z</time>
      </trkpt>
      <trkpt lat="47.38544" lon="-2.95901">
        <ele>16.48</ele>
        <time>2016-08-23T17:07:31Z</time>
      </trkpt>
      <trkpt lat="47.38544" lon="-2.95891">
        <ele>16.48</ele>
        <time>2016-08-23T17:07:41Z</time>
      </trkpt>
      <trkpt lat="47.38543" lon="-2.95874">
        <ele>16.96</ele>
        <time>2016-08-23T17:07:51Z</time>
      </trkpt>
      <trkpt lat="47.38543" lon="-2.95867">
        <ele>17.92</ele>
        <time>2016-08-23T17:07:56Z</time>
      </trkpt>
      <trkpt lat="47.38545" lon="-2.95864">
        <ele>17.92</ele>
        <time>2016-08-23T17:08:01Z</time>
      </trkpt>
      <trkpt lat="47.38548" lon="-2.95845">
        <ele>19.36</ele>
        <time>2016-08-23T17:08:11Z</time>
      </trkpt>
      <trkpt lat="47.38552" lon="-2.9583">
        <ele>21.77</ele>
        <time>2016-08-23T17:08:19Z</time>
      </trkpt>
      <trkpt lat="47.38555" lon="-2.95829">
        <ele>22.25</ele>
        <time>2016-08-23T17:08:22Z</time>
      </trkpt>
      <trkpt lat="47.38554" lon="-2.95815">
        <ele>22.25</ele>
        <time>2016-08-23T17:08:30Z</time>
      </trkpt>
      <trkpt lat="47.38555" lon="-2.95809">
        <ele>22.73</ele>
        <time>2016-08-23T17:08:34Z</time>
      </trkpt>
      <trkpt lat="47.38559" lon="-2.9579">
        <ele>22.73</ele>
        <time>2016-08-23T17:08:45Z</time>
      </trkpt>
      <trkpt lat="47.38563" lon="-2.95768">
        <ele>24.65</ele>
        <time>2016-08-23T17:08:57Z</time>
      </trkpt>
      <trkpt lat="47.38563" lon="-2.95764">
        <ele>25.13</ele>
        <time>2016-08-23T17:09:00Z</time>
      </trkpt>
      <trkpt lat="47.38563" lon="-2.9576">
        <ele>25.13</ele>
        <time>2016-08-23T17:09:03Z</time>
      </trkpt>
      <trkpt lat="47.38567" lon="-2.95744">
        <ele>24.65</ele>
        <time>2016-08-23T17:09:16Z</time>
      </trkpt>
      <trkpt lat="47.38567" lon="-2.95721">
        <ele>25.61</ele>
        <time>2016-08-23T17:09:27Z</time>
      </trkpt>
      <trkpt lat="47.38566" lon="-2.9571">
        <ele>26.57</ele>
        <time>2016-08-23T17:09:35Z</time>
      </trkpt>
      <trkpt lat="47.38564" lon="-2.95703">
        <ele>26.57</ele>
        <time>2016-08-23T17:09:41Z</time>
      </trkpt>
      <trkpt lat="47.38565" lon="-2.95702">
        <ele>26.09</ele>
        <time>2016-08-23T17:09:47Z</time>
      </trkpt>
      <trkpt lat="47.38561" lon="-2.95677">
        <ele>25.61</ele>
        <time>2016-08-23T17:09:58Z</time>
      </trkpt>
      <trkpt lat="47.38565" lon="-2.95668">
        <ele>25.61</ele>
        <time>2016-08-23T17:10:04Z</time>
      </trkpt>
      <trkpt lat="47.38577" lon="-2.9565">
        <ele>27.05</ele>
        <time>2016-08-23T17:10:17Z</time>
      </trkpt>
      <trkpt lat="47.38581" lon="-2.9564">
        <ele>27.05</ele>
        <time>2016-08-23T17:10:28Z</time>
      </trkpt>
      <trkpt lat="47.38594" lon="-2.9561">
        <ele>25.61</ele>
        <time>2016-08-23T17:10:46Z</time>
      </trkpt>
      <trkpt lat="47.38592" lon="-2.9561">
        <ele>26.57</ele>
        <time>2016-08-23T17:10:54Z</time>
      </trkpt>
      <trkpt lat="47.386" lon="-2.95597">
        <ele>26.57</ele>
        <time>2016-08-23T17:11:06Z</time>
      </trkpt>
      <trkpt lat="47.3861" lon="-2.95574">
        <ele>26.57</ele>
        <time>2016-08-23T17:11:23Z</time>
      </trkpt>
      <trkpt lat="47.38617" lon="-2.95562">
        <ele>26.57</ele>
        <time>2016-08-23T17:11:35Z</time>
      </trkpt>
      <trkpt lat="47.38619" lon="-2.95557">
        <ele>26.57</ele>
        <time>2016-08-23T17:11:45Z</time>
      </trkpt>
      <trkpt lat="47.38631" lon="-2.95547">
        <ele>26.57</ele>
        <time>2016-08-23T17:11:58Z</time>
      </trkpt>
      <trkpt lat="47.38643" lon="-2.95543">
        <ele>27.05</ele>
        <time>2016-08-23T17:12:10Z</time>
      </trkpt>
      <trkpt lat="47.38657" lon="-2.95546">
        <ele>26.09</ele>
        <time>2016-08-23T17:12:23Z</time>
      </trkpt>
      <trkpt lat="47.3866" lon="-2.95545">
        <ele>26.57</ele>
        <time>2016-08-23T17:12:27Z</time>
      </trkpt>
      <trkpt lat="47.3868" lon="-2.95549">
        <ele>27.53</ele>
        <time>2016-08-23T17:12:44Z</time>
      </trkpt>
      <trkpt lat="47.38694" lon="-2.95552">
        <ele>26.57</ele>
        <time>2016-08-23T17:12:56Z</time>
      </trkpt>
      <trkpt lat="47.38711" lon="-2.95551">
        <ele>28.5</ele>
        <time>2016-08-23T17:13:10Z</time>
      </trkpt>
      <trkpt lat="47.38711" lon="-2.9555">
        <ele>28.02</ele>
        <time>2016-08-23T17:13:21Z</time>
      </trkpt>
      <trkpt lat="47.38713" lon="-2.95547">
        <ele>28.98</ele>
        <time>2016-08-23T17:13:31Z</time>
      </trkpt>
      <trkpt lat="47.38719" lon="-2.9555">
        <ele>29.46</ele>
        <time>2016-08-23T17:13:37Z</time>
      </trkpt>
      <trkpt lat="47.38738" lon="-2.95548">
        <ele>27.05</ele>
        <time>2016-08-23T17:13:50Z</time>
      </trkpt>
      <trkpt lat="47.38741" lon="-2.95547">
        <ele>27.05</ele>
        <time>2016-08-23T17:13:55Z</time>
      </trkpt>
      <trkpt lat="47.38758" lon="-2.95545">
        <ele>27.05</ele>
        <time>2016-08-23T17:14:09Z</time>
      </trkpt>
      <trkpt lat="47.38773" lon="-2.95545">
        <ele>28.98</ele>
        <time>2016-08-23T17:14:19Z</time>
      </trkpt>
      <trkpt lat="47.38777" lon="-2.95546">
        <ele>29.94</ele>
        <time>2016-08-23T17:14:31Z</time>
      </trkpt>
      <trkpt lat="47.3879" lon="-2.95546">
        <ele>29.46</ele>
        <time>2016-08-23T17:14:41Z</time>
      </trkpt>
      <trkpt lat="47.38794" lon="-2.95546">
        <ele>30.42</ele>
        <time>2016-08-23T17:14:43Z</time>
      </trkpt>
      <trkpt lat="47.38813" lon="-2.95549">
        <ele>31.38</ele>
        <time>2016-08-23T17:14:58Z</time>
      </trkpt>
      <trkpt lat="47.38816" lon="-2.95551">
        <ele>27.53</ele>
        <time>2016-08-23T17:15:08Z</time>
      </trkpt>
      <trkpt lat="47.38828" lon="-2.95554">
        <ele>23.69</ele>
        <time>2016-08-23T17:15:19Z</time>
      </trkpt>
      <trkpt lat="47.3884" lon="-2.95554">
        <ele>22.73</ele>
        <time>2016-08-23T17:15:29Z</time>
      </trkpt>
      <trkpt lat="47.38856" lon="-2.95549">
        <ele>23.21</ele>
        <time>2016-08-23T17:15:41Z</time>
      </trkpt>
      <trkpt lat="47.38866" lon="-2.95549">
        <ele>24.17</ele>
        <time>2016-08-23T17:15:50Z</time>
      </trkpt>
      <trkpt lat="47.38873" lon="-2.95548">
        <ele>24.17</ele>
        <time>2016-08-23T17:16:00Z</time>
      </trkpt>
      <trkpt lat="47.38882" lon="-2.95538">
        <ele>23.69</ele>
        <time>2016-08-23T17:16:12Z</time>
      </trkpt>
      <trkpt lat="47.38883" lon="-2.95529">
        <ele>24.17</ele>
        <time>2016-08-23T17:16:17Z</time>
      </trkpt>
      <trkpt lat="47.38883" lon="-2.95529">
        <ele>24.17</ele>
        <time>2016-08-23T17:16:20Z</time>
      </trkpt>
      <trkpt lat="47.38884" lon="-2.95524">
        <ele>24.17</ele>
        <time>2016-08-23T17:16:29Z</time>
      </trkpt>
      <trkpt lat="47.38884" lon="-2.95523">
        <ele>23.69</ele>
        <time>2016-08-23T17:16:31Z</time>
      </trkpt>
      <trkpt lat="47.38888" lon="-2.95504">
        <ele>24.17</ele>
        <time>2016-08-23T17:16:42Z</time>
      </trkpt>
      <trkpt lat="47.3889" lon="-2.95489">
        <ele>24.65</ele>
        <time>2016-08-23T17:16:49Z</time>
      </trkpt>
      <trkpt lat="47.38889" lon="-2.95472">
        <ele>24.65</ele>
        <time>2016-08-23T17:16:58Z</time>
      </trkpt>
      <trkpt lat="47.38889" lon="-2.95458">
        <ele>25.61</ele>
        <time>2016-08-23T17:17:07Z</time>
      </trkpt>
      <trkpt lat="47.38888" lon="-2.95457">
        <ele>25.61</ele>
        <time>2016-08-23T17:17:12Z</time>
      </trkpt>
      <trkpt lat="47.38888" lon="-2.9544">
        <ele>25.13</ele>
        <time>2016-08-23T17:17:21Z</time>
      </trkpt>
      <trkpt lat="47.38887" lon="-2.95423">
        <ele>25.61</ele>
        <time>2016-08-23T17:17:31Z</time>
      </trkpt>
      <trkpt lat="47.38886" lon="-2.95414">
        <ele>25.61</ele>
        <time>2016-08-23T17:17:37Z</time>
      </trkpt>
      <trkpt lat="47.38887" lon="-2.95392">
        <ele>25.13</ele>
        <time>2016-08-23T17:17:47Z</time>
      </trkpt>
      <trkpt lat="47.38887" lon="-2.95392">
        <ele>25.13</ele>
        <time>2016-08-23T17:17:49Z</time>
      </trkpt>
      <trkpt lat="47.38886" lon="-2.95371">
        <ele>26.09</ele>
        <time>2016-08-23T17:18:00Z</time>
      </trkpt>
      <trkpt lat="47.3888" lon="-2.95354">
        <ele>26.09</ele>
        <time>2016-08-23T17:18:09Z</time>
      </trkpt>
      <trkpt lat="47.3888" lon="-2.95354">
        <ele>26.09</ele>
        <time>2016-08-23T17:18:11Z</time>
      </trkpt>
      <trkpt lat="47.38872" lon="-2.95337">
        <ele>26.57</ele>
        <time>2016-08-23T17:18:23Z</time>
      </trkpt>
      <trkpt lat="47.38864" lon="-2.9532">
        <ele>26.57</ele>
        <time>2016-08-23T17:18:36Z</time>
      </trkpt>
      <trkpt lat="47.38861" lon="-2.95315">
        <ele>26.57</ele>
        <time>2016-08-23T17:18:38Z</time>
      </trkpt>
      <trkpt lat="47.38857" lon="-2.95309">
        <ele>27.53</ele>
        <time>2016-08-23T17:18:42Z</time>
      </trkpt>
      <trkpt lat="47.38856" lon="-2.95305">
        <ele>27.05</ele>
        <time>2016-08-23T17:18:45Z</time>
      </trkpt>
      <trkpt lat="47.38861" lon="-2.95301">
        <ele>27.05</ele>
        <time>2016-08-23T17:18:50Z</time>
      </trkpt>
      <trkpt lat="47.3887" lon="-2.95299">
        <ele>26.57</ele>
        <time>2016-08-23T17:18:57Z</time>
      </trkpt>
      <trkpt lat="47.38879" lon="-2.953">
        <ele>24.65</ele>
        <time>2016-08-23T17:19:11Z</time>
      </trkpt>
      <trkpt lat="47.38878" lon="-2.95299">
        <ele>24.65</ele>
        <time>2016-08-23T17:19:25Z</time>
      </trkpt>
      <trkpt lat="47.38882" lon="-2.95299">
        <ele>25.13</ele>
        <time>2016-08-23T17:19:38Z</time>
      </trkpt>
      <trkpt lat="47.38883" lon="-2.95288">
        <ele>24.17</ele>
        <time>2016-08-23T17:19:50Z</time>
      </trkpt>
      <trkpt lat="47.3889" lon="-2.95301">
        <ele>23.21</ele>
        <time>2016-08-23T17:19:59Z</time>
      </trkpt>
      <trkpt lat="47.38894" lon="-2.95297">
        <ele>22.25</ele>
        <time>2016-08-23T17:20:10Z</time>
      </trkpt>
      <trkpt lat="47.38897" lon="-2.95293">
        <ele>22.25</ele>
        <time>2016-08-23T17:20:15Z</time>
      </trkpt>
      <trkpt lat="47.38898" lon="-2.95269">
        <ele>24.17</ele>
        <time>2016-08-23T17:20:27Z</time>
      </trkpt>
      <trkpt lat="47.38899" lon="-2.95248">
        <ele>25.61</ele>
        <time>2016-08-23T17:20:38Z</time>
      </trkpt>
      <trkpt lat="47.38899" lon="-2.95244">
        <ele>25.61</ele>
        <time>2016-08-23T17:20:41Z</time>
      </trkpt>
      <trkpt lat="47.38903" lon="-2.9524">
        <ele>25.13</ele>
        <time>2016-08-23T17:20:51Z</time>
      </trkpt>
      <trkpt lat="47.38904" lon="-2.95236">
        <ele>25.61</ele>
        <time>2016-08-23T17:21:02Z</time>
      </trkpt>
      <trkpt lat="47.38909" lon="-2.95237">
        <ele>26.09</ele>
        <time>2016-08-23T17:21:07Z</time>
      </trkpt>
      <trkpt lat="47.38916" lon="-2.95237">
        <ele>26.09</ele>
        <time>2016-08-23T17:21:13Z</time>
      </trkpt>
      <trkpt lat="47.38921" lon="-2.95224">
        <ele>27.53</ele>
        <time>2016-08-23T17:21:21Z</time>
      </trkpt>
      <trkpt lat="47.38923" lon="-2.95211">
        <ele>26.57</ele>
        <time>2016-08-23T17:21:30Z</time>
      </trkpt>
      <trkpt lat="47.38923" lon="-2.95196">
        <ele>25.61</ele>
        <time>2016-08-23T17:21:38Z</time>
      </trkpt>
      <trkpt lat="47.38913" lon="-2.95193">
        <ele>24.17</ele>
        <time>2016-08-23T17:21:47Z</time>
      </trkpt>
      <trkpt lat="47.38912" lon="-2.9519">
        <ele>24.17</ele>
        <time>2016-08-23T17:22:01Z</time>
      </trkpt>
      <trkpt lat="47.38911" lon="-2.95188">
        <ele>24.65</ele>
        <time>2016-08-23T17:22:13Z</time>
      </trkpt>
      <trkpt lat="47.3891" lon="-2.95194">
        <ele>24.65</ele>
        <time>2016-08-23T17:22:25Z</time>
      </trkpt>
      <trkpt lat="47.38907" lon="-2.95197">
        <ele>24.17</ele>
        <time>2016-08-23T17:22:35Z</time>
      </trkpt>
      <trkpt lat="47.38911" lon="-2.95189">
        <ele>25.13</ele>
        <time>2016-08-23T17:22:48Z</time>
      </trkpt>
      <trkpt lat="47.38912" lon="-2.9519">
        <ele>25.13</ele>
        <time>2016-08-23T17:22:55Z</time>
      </trkpt>
      <trkpt lat="47.38912" lon="-2.95187">
        <ele>26.09</ele>
        <time>2016-08-23T17:23:05Z</time>
      </trkpt>
      <trkpt lat="47.38911" lon="-2.9519">
        <ele>26.09</ele>
        <time>2016-08-23T17:23:18Z</time>
      </trkpt>
      <trkpt lat="47.38912" lon="-2.95196">
        <ele>25.13</ele>
        <time>2016-08-23T17:23:28Z</time>
      </trkpt>
      <trkpt lat="47.38912" lon="-2.95196">
        <ele>24.65</ele>
        <time>2016-08-23T17:23:35Z</time>
      </trkpt>
      <trkpt lat="47.38909" lon="-2.95197">
        <ele>24.65</ele>
        <time>2016-08-23T17:23:39Z</time>
      </trkpt>
      <trkpt lat="47.38905" lon="-2.95189">
        <ele>23.69</ele>
        <time>2016-08-23T17:23:50Z</time>
      </trkpt>
      <trkpt lat="47.38908" lon="-2.95188">
        <ele>24.17</ele>
        <time>2016-08-23T17:24:00Z</time>
      </trkpt>
      <trkpt lat="47.38913" lon="-2.95188">
        <ele>25.61</ele>
        <time>2016-08-23T17:24:14Z</time>
      </trkpt>
      <trkpt lat="47.38911" lon="-2.95192">
        <ele>25.13</ele>
        <time>2016-08-23T17:24:28Z</time>
      </trkpt>
      <trkpt lat="47.38908" lon="-2.95192">
        <ele>25.13</ele>
        <time>2016-08-23T17:24:35Z</time>
      </trkpt>
      <trkpt lat="47.38905" lon="-2.95193">
        <ele>24.65</ele>
        <time>2016-08-23T17:24:39Z</time>
      </trkpt>
      <trkpt lat="47.389" lon="-2.95183">
        <ele>24.65</ele>
        <time>2016-08-23T17:24:47Z</time>
      </trkpt>
      <trkpt lat="47.38901" lon="-2.95178">
        <ele>23.21</ele>
        <time>2016-08-23T17:24:51Z</time>
      </trkpt>
      <trkpt lat="47.38903" lon="-2.95174">
        <ele>22.73</ele>
        <time>2016-08-23T17:24:54Z</time>
      </trkpt>
      <trkpt lat="47.38906" lon="-2.95174">
        <ele>23.69</ele>
        <time>2016-08-23T17:24:58Z</time>
      </trkpt>
      <trkpt lat="47.38922" lon="-2.9517">
        <ele>25.13</ele>
        <time>2016-08-23T17:25:18Z</time>
      </trkpt>
      <trkpt lat="47.38937" lon="-2.95166">
        <ele>25.13</ele>
        <time>2016-08-23T17:25:35Z</time>
      </trkpt>
      <trkpt lat="47.38948" lon="-2.95168">
        <ele>26.09</ele>
        <time>2016-08-23T17:25:50Z</time>
      </trkpt>
      <trkpt lat="47.38959" lon="-2.95171">
        <ele>27.05</ele>
        <time>2016-08-23T17:26:03Z</time>
      </trkpt>
      <trkpt lat="47.38966" lon="-2.95174">
        <ele>27.53</ele>
        <time>2016-08-23T17:26:12Z</time>
      </trkpt>
      <trkpt lat="47.38982" lon="-2.95175">
        <ele>28.02</ele>
        <time>2016-08-23T17:26:27Z</time>
      </trkpt>
      <trkpt lat="47.39001" lon="-2.9517">
        <ele>28.02</ele>
        <time>2016-08-23T17:26:46Z</time>
      </trkpt>
      <trkpt lat="47.39018" lon="-2.95176">
        <ele>27.53</ele>
        <time>2016-08-23T17:27:04Z</time>
      </trkpt>
      <trkpt lat="47.39029" lon="-2.95193">
        <ele>27.53</ele>
        <time>2016-08-23T17:27:22Z</time>
      </trkpt>
      <trkpt lat="47.39032" lon="-2.95198">
        <ele>27.53</ele>
        <time>2016-08-23T17:27:51Z</time>
      </trkpt>
      <trkpt lat="47.39032" lon="-2.95202">
        <ele>27.53</ele>
        <time>2016-08-23T17:28:01Z</time>
      </trkpt>
      <trkpt lat="47.39034" lon="-2.95213">
        <ele>27.53</ele>
        <time>2016-08-23T17:28:08Z</time>
      </trkpt>
      <trkpt lat="47.3904" lon="-2.95239">
        <ele>25.61</ele>
        <time>2016-08-23T17:28:24Z</time>
      </trkpt>
      <trkpt lat="47.39043" lon="-2.95251">
        <ele>24.65</ele>
        <time>2016-08-23T17:28:38Z</time>
      </trkpt>
      <trkpt lat="47.39044" lon="-2.95254">
        <ele>24.65</ele>
        <time>2016-08-23T17:28:40Z</time>
      </trkpt>
      <trkpt lat="47.39045" lon="-2.9526">
        <ele>24.65</ele>
        <time>2016-08-23T17:28:44Z</time>
      </trkpt>
      <trkpt lat="47.39049" lon="-2.9529">
        <ele>25.13</ele>
        <time>2016-08-23T17:29:05Z</time>
      </trkpt>
      <trkpt lat="47.39052" lon="-2.95307">
        <ele>25.61</ele>
        <time>2016-08-23T17:29:17Z</time>
      </trkpt>
      <trkpt lat="47.39052" lon="-2.95314">
        <ele>25.13</ele>
        <time>2016-08-23T17:29:28Z</time>
      </trkpt>
      <trkpt lat="47.39052" lon="-2.95328">
        <ele>25.13</ele>
        <time>2016-08-23T17:29:40Z</time>
      </trkpt>
      <trkpt lat="47.39051" lon="-2.95349">
        <ele>25.13</ele>
        <time>2016-08-23T17:29:50Z</time>
      </trkpt>
      <trkpt lat="47.39052" lon="-2.95363">
        <ele>25.13</ele>
        <time>2016-08-23T17:29:59Z</time>
      </trkpt>
      <trkpt lat="47.39051" lon="-2.9537">
        <ele>26.57</ele>
        <time>2016-08-23T17:30:03Z</time>
      </trkpt>
      <trkpt lat="47.39053" lon="-2.95385">
        <ele>27.53</ele>
        <time>2016-08-23T17:30:13Z</time>
      </trkpt>
      <trkpt lat="47.39054" lon="-2.9539">
        <ele>28.02</ele>
        <time>2016-08-23T17:30:23Z</time>
      </trkpt>
      <trkpt lat="47.39054" lon="-2.95394">
        <ele>28.02</ele>
        <time>2016-08-23T17:30:25Z</time>
      </trkpt>
      <trkpt lat="47.39054" lon="-2.95397">
        <ele>28.5</ele>
        <time>2016-08-23T17:30:35Z</time>
      </trkpt>
      <trkpt lat="47.39049" lon="-2.95416">
        <ele>29.46</ele>
        <time>2016-08-23T17:30:47Z</time>
      </trkpt>
      <trkpt lat="47.39047" lon="-2.95423">
        <ele>28.02</ele>
        <time>2016-08-23T17:30:52Z</time>
      </trkpt>
      <trkpt lat="47.39043" lon="-2.95447">
        <ele>29.46</ele>
        <time>2016-08-23T17:31:04Z</time>
      </trkpt>
      <trkpt lat="47.39041" lon="-2.95455">
        <ele>29.94</ele>
        <time>2016-08-23T17:31:11Z</time>
      </trkpt>
      <trkpt lat="47.39045" lon="-2.95474">
        <ele>32.34</ele>
        <time>2016-08-23T17:31:20Z</time>
      </trkpt>
      <trkpt lat="47.39049" lon="-2.95495">
        <ele>30.9</ele>
        <time>2016-08-23T17:31:36Z</time>
      </trkpt>
      <trkpt lat="47.39049" lon="-2.95503">
        <ele>31.38</ele>
        <time>2016-08-23T17:31:46Z</time>
      </trkpt>
      <trkpt lat="47.39049" lon="-2.95505">
        <ele>31.38</ele>
        <time>2016-08-23T17:31:47Z</time>
      </trkpt>
      <trkpt lat="47.39051" lon="-2.95521">
        <ele>30.9</ele>
        <time>2016-08-23T17:31:54Z</time>
      </trkpt>
      <trkpt lat="47.3905" lon="-2.95526">
        <ele>31.38</ele>
        <time>2016-08-23T17:31:56Z</time>
      </trkpt>
      <trkpt lat="47.39053" lon="-2.95542">
        <ele>32.34</ele>
        <time>2016-08-23T17:32:08Z</time>
      </trkpt>
      <trkpt lat="47.39053" lon="-2.95547">
        <ele>32.34</ele>
        <time>2016-08-23T17:32:11Z</time>
      </trkpt>
      <trkpt lat="47.39051" lon="-2.95562">
        <ele>31.38</ele>
        <time>2016-08-23T17:32:24Z</time>
      </trkpt>
      <trkpt lat="47.39051" lon="-2.95563">
        <ele>31.38</ele>
        <time>2016-08-23T17:32:26Z</time>
      </trkpt>
      <trkpt lat="47.39038" lon="-2.95578">
        <ele>34.74</ele>
        <time>2016-08-23T17:32:38Z</time>
      </trkpt>
      <trkpt lat="47.39038" lon="-2.95579">
        <ele>35.23</ele>
        <time>2016-08-23T17:32:39Z</time>
      </trkpt>
      <trkpt lat="47.3904" lon="-2.95584">
        <ele>36.67</ele>
        <time>2016-08-23T17:32:42Z</time>
      </trkpt>
      <trkpt lat="47.39044" lon="-2.95589">
        <ele>37.63</ele>
        <time>2016-08-23T17:32:47Z</time>
      </trkpt>
      <trkpt lat="47.39047" lon="-2.95595">
        <ele>38.59</ele>
        <time>2016-08-23T17:32:52Z</time>
      </trkpt>
      <trkpt lat="47.39049" lon="-2.95611">
        <ele>39.55</ele>
        <time>2016-08-23T17:33:01Z</time>
      </trkpt>
      <trkpt lat="47.39057" lon="-2.95613">
        <ele>37.63</ele>
        <time>2016-08-23T17:33:07Z</time>
      </trkpt>
      <trkpt lat="47.39063" lon="-2.95604">
        <ele>37.63</ele>
        <time>2016-08-23T17:33:11Z</time>
      </trkpt>
      <trkpt lat="47.39065" lon="-2.95598">
        <ele>37.15</ele>
        <time>2016-08-23T17:33:15Z</time>
      </trkpt>
      <trkpt lat="47.39068" lon="-2.9558">
        <ele>36.19</ele>
        <time>2016-08-23T17:33:26Z</time>
      </trkpt>
      <trkpt lat="47.39069" lon="-2.95577">
        <ele>35.71</ele>
        <time>2016-08-23T17:33:28Z</time>
      </trkpt>
      <trkpt lat="47.39074" lon="-2.95579">
        <ele>35.23</ele>
        <time>2016-08-23T17:33:38Z</time>
      </trkpt>
      <trkpt lat="47.39079" lon="-2.95583">
        <ele>34.74</ele>
        <time>2016-08-23T17:33:43Z</time>
      </trkpt>
      <trkpt lat="47.39093" lon="-2.95588">
        <ele>35.23</ele>
        <time>2016-08-23T17:33:53Z</time>
      </trkpt>
      <trkpt lat="47.39102" lon="-2.95603">
        <ele>33.3</ele>
        <time>2016-08-23T17:34:04Z</time>
      </trkpt>
      <trkpt lat="47.39107" lon="-2.95618">
        <ele>32.34</ele>
        <time>2016-08-23T17:34:14Z</time>
      </trkpt>
      <trkpt lat="47.39116" lon="-2.9564">
        <ele>31.86</ele>
        <time>2016-08-23T17:34:27Z</time>
      </trkpt>
      <trkpt lat="47.39119" lon="-2.95648">
        <ele>31.38</ele>
        <time>2016-08-23T17:34:31Z</time>
      </trkpt>
      <trkpt lat="47.3912" lon="-2.95654">
        <ele>31.86</ele>
        <time>2016-08-23T17:34:35Z</time>
      </trkpt>
      <trkpt lat="47.39128" lon="-2.95672">
        <ele>29.46</ele>
        <time>2016-08-23T17:34:44Z</time>
      </trkpt>
      <trkpt lat="47.39132" lon="-2.9568">
        <ele>28.98</ele>
        <time>2016-08-23T17:34:52Z</time>
      </trkpt>
      <trkpt lat="47.39136" lon="-2.9569">
        <ele>28.98</ele>
        <time>2016-08-23T17:34:57Z</time>
      </trkpt>
      <trkpt lat="47.39146" lon="-2.9571">
        <ele>29.46</ele>
        <time>2016-08-23T17:35:09Z</time>
      </trkpt>
      <trkpt lat="47.39151" lon="-2.95728">
        <ele>28.5</ele>
        <time>2016-08-23T17:35:20Z</time>
      </trkpt>
      <trkpt lat="47.39156" lon="-2.95746">
        <ele>26.57</ele>
        <time>2016-08-23T17:35:32Z</time>
      </trkpt>
      <trkpt lat="47.39159" lon="-2.95758">
        <ele>27.53</ele>
        <time>2016-08-23T17:35:42Z</time>
      </trkpt>
      <trkpt lat="47.39165" lon="-2.95776">
        <ele>27.05</ele>
        <time>2016-08-23T17:35:54Z</time>
      </trkpt>
      <trkpt lat="47.39165" lon="-2.95777">
        <ele>27.05</ele>
        <time>2016-08-23T17:35:55Z</time>
      </trkpt>
      <trkpt lat="47.39169" lon="-2.95793">
        <ele>26.57</ele>
        <time>2016-08-23T17:36:04Z</time>
      </trkpt>
      <trkpt lat="47.39173" lon="-2.95807">
        <ele>28.02</ele>
        <time>2016-08-23T17:36:18Z</time>
      </trkpt>
      <trkpt lat="47.39179" lon="-2.95819">
        <ele>27.53</ele>
        <time>2016-08-23T17:36:29Z</time>
      </trkpt>
      <trkpt lat="47.39183" lon="-2.95825">
        <ele>27.53</ele>
        <time>2016-08-23T17:36:36Z</time>
      </trkpt>
      <trkpt lat="47.39185" lon="-2.95827">
        <ele>27.53</ele>
        <time>2016-08-23T17:36:38Z</time>
      </trkpt>
      <trkpt lat="47.3919" lon="-2.9583">
        <ele>26.57</ele>
        <time>2016-08-23T17:36:48Z</time>
      </trkpt>
      <trkpt lat="47.39201" lon="-2.95839">
        <ele>26.09</ele>
        <time>2016-08-23T17:37:01Z</time>
      </trkpt>
      <trkpt lat="47.39213" lon="-2.95846">
        <ele>25.61</ele>
        <time>2016-08-23T17:37:14Z</time>
      </trkpt>
      <trkpt lat="47.39219" lon="-2.9585">
        <ele>25.13</ele>
        <time>2016-08-23T17:37:26Z</time>
      </trkpt>
      <trkpt lat="47.3922" lon="-2.95851">
        <ele>24.65</ele>
        <time>2016-08-23T17:37:31Z</time>
      </trkpt>
      <trkpt lat="47.39224" lon="-2.95853">
        <ele>23.69</ele>
        <time>2016-08-23T17:37:38Z</time>
      </trkpt>
      <trkpt lat="47.39232" lon="-2.95858">
        <ele>20.32</ele>
        <time>2016-08-23T17:37:50Z</time>
      </trkpt>
      <trkpt lat="47.39233" lon="-2.95863">
        <ele>17.92</ele>
        <time>2016-08-23T17:38:03Z</time>
      </trkpt>
      <trkpt lat="47.39232" lon="-2.95866">
        <ele>16.48</ele>
        <time>2016-08-23T17:38:07Z</time>
      </trkpt>
      <trkpt lat="47.39229" lon="-2.95875">
        <ele>15.52</ele>
        <time>2016-08-23T17:38:13Z</time>
      </trkpt>
      <trkpt lat="47.39233" lon="-2.95884">
        <ele>15.52</ele>
        <time>2016-08-23T17:38:19Z</time>
      </trkpt>
      <trkpt lat="47.39242" lon="-2.9588">
        <ele>16.48</ele>
        <time>2016-08-23T17:38:26Z</time>
      </trkpt>
      <trkpt lat="47.39256" lon="-2.95882">
        <ele>16.48</ele>
        <time>2016-08-23T17:38:38Z</time>
      </trkpt>
      <trkpt lat="47.39257" lon="-2.95882">
        <ele>16.48</ele>
        <time>2016-08-23T17:38:40Z</time>
      </trkpt>
      <trkpt lat="47.39261" lon="-2.95883">
        <ele>16</ele>
        <time>2016-08-23T17:38:54Z</time>
      </trkpt>
      <trkpt lat="47.39255" lon="-2.9588">
        <ele>15.52</ele>
        <time>2016-08-23T17:39:05Z</time>
      </trkpt>
      <trkpt lat="47.39261" lon="-2.95884">
        <ele>16.48</ele>
        <time>2016-08-23T17:39:20Z</time>
      </trkpt>
      <trkpt lat="47.39267" lon="-2.95887">
        <ele>16.96</ele>
        <time>2016-08-23T17:39:31Z</time>
      </trkpt>
      <trkpt lat="47.39268" lon="-2.95887">
        <ele>16.96</ele>
        <time>2016-08-23T17:39:32Z</time>
      </trkpt>
      <trkpt lat="47.39269" lon="-2.95891">
        <ele>17.44</ele>
        <time>2016-08-23T17:39:43Z</time>
      </trkpt>
      <trkpt lat="47.3926" lon="-2.95892">
        <ele>18.88</ele>
        <time>2016-08-23T17:39:54Z</time>
      </trkpt>
      <trkpt lat="47.39249" lon="-2.95894">
        <ele>20.32</ele>
        <time>2016-08-23T17:40:07Z</time>
      </trkpt>
      <trkpt lat="47.39247" lon="-2.95894">
        <ele>20.32</ele>
        <time>2016-08-23T17:40:10Z</time>
      </trkpt>
      <trkpt lat="47.39242" lon="-2.95895">
        <ele>20.81</ele>
        <time>2016-08-23T17:40:21Z</time>
      </trkpt>
      <trkpt lat="47.39237" lon="-2.95896">
        <ele>21.29</ele>
        <time>2016-08-23T17:40:31Z</time>
      </trkpt>
      <trkpt lat="47.39236" lon="-2.95897">
        <ele>20.32</ele>
        <time>2016-08-23T17:40:37Z</time>
      </trkpt>
      <trkpt lat="47.39235" lon="-2.959">
        <ele>19.84</ele>
        <time>2016-08-23T17:40:43Z</time>
      </trkpt>
      <trkpt lat="47.3923" lon="-2.95905">
        <ele>19.36</ele>
        <time>2016-08-23T17:40:52Z</time>
      </trkpt>
      <trkpt lat="47.39233" lon="-2.95907">
        <ele>20.81</ele>
        <time>2016-08-23T17:41:02Z</time>
      </trkpt>
      <trkpt lat="47.39236" lon="-2.95906">
        <ele>21.29</ele>
        <time>2016-08-23T17:41:15Z</time>
      </trkpt>
      <trkpt lat="47.39235" lon="-2.95906">
        <ele>20.81</ele>
        <time>2016-08-23T17:41:51Z</time>
      </trkpt>
      <trkpt lat="47.39236" lon="-2.95906">
        <ele>19.36</ele>
        <time>2016-08-23T17:42:26Z</time>
      </trkpt>
      <trkpt lat="47.39236" lon="-2.95907">
        <ele>18.4</ele>
        <time>2016-08-23T17:42:55Z</time>
      </trkpt>
      <trkpt lat="47.39236" lon="-2.95907">
        <ele>17.92</ele>
        <time>2016-08-23T17:43:20Z</time>
      </trkpt>
      <trkpt lat="47.39236" lon="-2.95909">
        <ele>18.88</ele>
        <time>2016-08-23T17:43:52Z</time>
      </trkpt>
      <trkpt lat="47.39237" lon="-2.95909">
        <ele>19.36</ele>
        <time>2016-08-23T17:44:25Z</time>
      </trkpt>
      <trkpt lat="47.39236" lon="-2.95909">
        <ele>19.36</ele>
        <time>2016-08-23T17:44:45Z</time>
      </trkpt>
      <trkpt lat="47.39236" lon="-2.95909">
        <ele>20.32</ele>
        <time>2016-08-23T17:45:10Z</time>
      </trkpt>
    </trkseg>
  </trk>
</gpx>